<?xml version="1.0" encoding="UTF-8" standalone="no" ?>
<gpx xmlns="http://www.topografix.com/GPX/1/1" xmlns:xsi="http://www.w3.org/2001/XMLSchema-instance" xsi:schemaLocation="http://www.topografix.com/GPX/1/1 http://www.topografix.com/GPX/1/1/gpx.xsd" version="1.1" creator="VisuGPX - https://www.visugpx.com">
  <metadata>
    <name>Montagne de Jouère - croix de Saint-Jean</name>
  </metadata>
  <trk>
    <name><![CDATA[montagne de jouère croix saint-jean]]></name>
    <extensions>
      <line xmlns="http://www.topografix.com/GPX/gpx_style/0/2">
        <color>0000FF</color>
        <width>4</width>
      </line>
    </extensions>
    <trkseg>
      <trkpt lat="44.27703" lon="6.06955">
        <ele>1180.16</ele>
        <time>2017-03-19T08:29:00Z</time>
      </trkpt>
      <trkpt lat="44.27703" lon="6.06955">
        <ele>1180.16</ele>
        <time>2017-03-19T08:29:01Z</time>
      </trkpt>
      <trkpt lat="44.27702" lon="6.06955">
        <ele>1180.16</ele>
        <time>2017-03-19T08:29:22Z</time>
      </trkpt>
      <trkpt lat="44.27702" lon="6.06953">
        <ele>1180.16</ele>
        <time>2017-03-19T08:29:46Z</time>
      </trkpt>
      <trkpt lat="44.27706" lon="6.06954">
        <ele>1179.67</ele>
        <time>2017-03-19T08:29:51Z</time>
      </trkpt>
      <trkpt lat="44.27712" lon="6.06967">
        <ele>1181.12</ele>
        <time>2017-03-19T08:30:01Z</time>
      </trkpt>
      <trkpt lat="44.27717" lon="6.06986">
        <ele>1183.04</ele>
        <time>2017-03-19T08:30:16Z</time>
      </trkpt>
      <trkpt lat="44.27718" lon="6.06994">
        <ele>1184</ele>
        <time>2017-03-19T08:30:22Z</time>
      </trkpt>
      <trkpt lat="44.27717" lon="6.07021">
        <ele>1185.44</ele>
        <time>2017-03-19T08:30:41Z</time>
      </trkpt>
      <trkpt lat="44.27714" lon="6.07049">
        <ele>1186.88</ele>
        <time>2017-03-19T08:31:00Z</time>
      </trkpt>
      <trkpt lat="44.27716" lon="6.07075">
        <ele>1187.85</ele>
        <time>2017-03-19T08:31:19Z</time>
      </trkpt>
      <trkpt lat="44.27718" lon="6.07104">
        <ele>1189.29</ele>
        <time>2017-03-19T08:31:38Z</time>
      </trkpt>
      <trkpt lat="44.27724" lon="6.07123">
        <ele>1191.69</ele>
        <time>2017-03-19T08:31:53Z</time>
      </trkpt>
      <trkpt lat="44.27738" lon="6.07137">
        <ele>1194.09</ele>
        <time>2017-03-19T08:32:13Z</time>
      </trkpt>
      <trkpt lat="44.27737" lon="6.07158">
        <ele>1196.5</ele>
        <time>2017-03-19T08:32:31Z</time>
      </trkpt>
      <trkpt lat="44.27737" lon="6.07179">
        <ele>1198.9</ele>
        <time>2017-03-19T08:32:49Z</time>
      </trkpt>
      <trkpt lat="44.27743" lon="6.07195">
        <ele>1200.34</ele>
        <time>2017-03-19T08:33:03Z</time>
      </trkpt>
      <trkpt lat="44.27746" lon="6.07201">
        <ele>1200.82</ele>
        <time>2017-03-19T08:33:09Z</time>
      </trkpt>
      <trkpt lat="44.27763" lon="6.07212">
        <ele>1203.71</ele>
        <time>2017-03-19T08:33:30Z</time>
      </trkpt>
      <trkpt lat="44.27774" lon="6.07222">
        <ele>1204.67</ele>
        <time>2017-03-19T08:33:44Z</time>
      </trkpt>
      <trkpt lat="44.27777" lon="6.07247">
        <ele>1206.59</ele>
        <time>2017-03-19T08:34:02Z</time>
      </trkpt>
      <trkpt lat="44.27776" lon="6.07254">
        <ele>1207.55</ele>
        <time>2017-03-19T08:34:15Z</time>
      </trkpt>
      <trkpt lat="44.27777" lon="6.07256">
        <ele>1208.03</ele>
        <time>2017-03-19T08:34:35Z</time>
      </trkpt>
      <trkpt lat="44.27776" lon="6.07268">
        <ele>1209</ele>
        <time>2017-03-19T08:34:54Z</time>
      </trkpt>
      <trkpt lat="44.27775" lon="6.07272">
        <ele>1209.48</ele>
        <time>2017-03-19T08:34:57Z</time>
      </trkpt>
      <trkpt lat="44.2777" lon="6.07293">
        <ele>1211.4</ele>
        <time>2017-03-19T08:35:14Z</time>
      </trkpt>
      <trkpt lat="44.27767" lon="6.07319">
        <ele>1214.76</ele>
        <time>2017-03-19T08:35:33Z</time>
      </trkpt>
      <trkpt lat="44.27773" lon="6.07346">
        <ele>1216.69</ele>
        <time>2017-03-19T08:35:51Z</time>
      </trkpt>
      <trkpt lat="44.27775" lon="6.07372">
        <ele>1218.61</ele>
        <time>2017-03-19T08:36:10Z</time>
      </trkpt>
      <trkpt lat="44.27773" lon="6.07396">
        <ele>1221.01</ele>
        <time>2017-03-19T08:36:28Z</time>
      </trkpt>
      <trkpt lat="44.27769" lon="6.07409">
        <ele>1221.97</ele>
        <time>2017-03-19T08:36:47Z</time>
      </trkpt>
      <trkpt lat="44.27765" lon="6.07427">
        <ele>1223.9</ele>
        <time>2017-03-19T08:37:05Z</time>
      </trkpt>
      <trkpt lat="44.27758" lon="6.07447">
        <ele>1225.82</ele>
        <time>2017-03-19T08:37:22Z</time>
      </trkpt>
      <trkpt lat="44.27751" lon="6.07457">
        <ele>1225.82</ele>
        <time>2017-03-19T08:37:37Z</time>
      </trkpt>
      <trkpt lat="44.27751" lon="6.07457">
        <ele>1225.82</ele>
        <time>2017-03-19T08:37:38Z</time>
      </trkpt>
      <trkpt lat="44.27751" lon="6.07457">
        <ele>1227.74</ele>
        <time>2017-03-19T08:37:44Z</time>
      </trkpt>
      <trkpt lat="44.2775" lon="6.07458">
        <ele>1226.3</ele>
        <time>2017-03-19T08:37:46Z</time>
      </trkpt>
      <trkpt lat="44.27749" lon="6.07458">
        <ele>1226.3</ele>
        <time>2017-03-19T08:38:32Z</time>
      </trkpt>
      <trkpt lat="44.2775" lon="6.07459">
        <ele>1227.74</ele>
        <time>2017-03-19T08:38:43Z</time>
      </trkpt>
      <trkpt lat="44.27748" lon="6.07472">
        <ele>1227.26</ele>
        <time>2017-03-19T08:39:04Z</time>
      </trkpt>
      <trkpt lat="44.27738" lon="6.07489">
        <ele>1230.14</ele>
        <time>2017-03-19T08:39:19Z</time>
      </trkpt>
      <trkpt lat="44.27722" lon="6.07507">
        <ele>1233.03</ele>
        <time>2017-03-19T08:39:38Z</time>
      </trkpt>
      <trkpt lat="44.27705" lon="6.07521">
        <ele>1235.91</ele>
        <time>2017-03-19T08:39:57Z</time>
      </trkpt>
      <trkpt lat="44.2769" lon="6.07534">
        <ele>1238.32</ele>
        <time>2017-03-19T08:40:16Z</time>
      </trkpt>
      <trkpt lat="44.2769" lon="6.07544">
        <ele>1238.8</ele>
        <time>2017-03-19T08:40:23Z</time>
      </trkpt>
      <trkpt lat="44.27696" lon="6.07547">
        <ele>1239.76</ele>
        <time>2017-03-19T08:40:30Z</time>
      </trkpt>
      <trkpt lat="44.27712" lon="6.07532">
        <ele>1242.16</ele>
        <time>2017-03-19T08:40:49Z</time>
      </trkpt>
      <trkpt lat="44.27729" lon="6.07526">
        <ele>1244.56</ele>
        <time>2017-03-19T08:41:06Z</time>
      </trkpt>
      <trkpt lat="44.27747" lon="6.07513">
        <ele>1246.01</ele>
        <time>2017-03-19T08:41:26Z</time>
      </trkpt>
      <trkpt lat="44.27757" lon="6.07509">
        <ele>1247.45</ele>
        <time>2017-03-19T08:41:37Z</time>
      </trkpt>
      <trkpt lat="44.27765" lon="6.07509">
        <ele>1247.93</ele>
        <time>2017-03-19T08:41:54Z</time>
      </trkpt>
      <trkpt lat="44.2777" lon="6.07513">
        <ele>1248.41</ele>
        <time>2017-03-19T08:42:06Z</time>
      </trkpt>
      <trkpt lat="44.27777" lon="6.0753">
        <ele>1250.33</ele>
        <time>2017-03-19T08:42:21Z</time>
      </trkpt>
      <trkpt lat="44.27783" lon="6.07554">
        <ele>1252.25</ele>
        <time>2017-03-19T08:42:38Z</time>
      </trkpt>
      <trkpt lat="44.27785" lon="6.07573">
        <ele>1254.18</ele>
        <time>2017-03-19T08:42:52Z</time>
      </trkpt>
      <trkpt lat="44.27784" lon="6.07594">
        <ele>1256.1</ele>
        <time>2017-03-19T08:43:08Z</time>
      </trkpt>
      <trkpt lat="44.27782" lon="6.07612">
        <ele>1258.02</ele>
        <time>2017-03-19T08:43:21Z</time>
      </trkpt>
      <trkpt lat="44.27778" lon="6.07638">
        <ele>1259.94</ele>
        <time>2017-03-19T08:43:37Z</time>
      </trkpt>
      <trkpt lat="44.27775" lon="6.07652">
        <ele>1261.39</ele>
        <time>2017-03-19T08:43:48Z</time>
      </trkpt>
      <trkpt lat="44.27772" lon="6.07673">
        <ele>1263.31</ele>
        <time>2017-03-19T08:44:01Z</time>
      </trkpt>
      <trkpt lat="44.2777" lon="6.07693">
        <ele>1264.75</ele>
        <time>2017-03-19T08:44:15Z</time>
      </trkpt>
      <trkpt lat="44.27769" lon="6.0771">
        <ele>1266.19</ele>
        <time>2017-03-19T08:44:29Z</time>
      </trkpt>
      <trkpt lat="44.27766" lon="6.07729">
        <ele>1268.12</ele>
        <time>2017-03-19T08:44:45Z</time>
      </trkpt>
      <trkpt lat="44.27764" lon="6.07758">
        <ele>1270.52</ele>
        <time>2017-03-19T08:45:03Z</time>
      </trkpt>
      <trkpt lat="44.27768" lon="6.0778">
        <ele>1272.44</ele>
        <time>2017-03-19T08:45:19Z</time>
      </trkpt>
      <trkpt lat="44.27766" lon="6.07782">
        <ele>1273.4</ele>
        <time>2017-03-19T08:45:34Z</time>
      </trkpt>
      <trkpt lat="44.27764" lon="6.07785">
        <ele>1272.44</ele>
        <time>2017-03-19T08:45:58Z</time>
      </trkpt>
      <trkpt lat="44.27763" lon="6.07783">
        <ele>1272.44</ele>
        <time>2017-03-19T08:46:18Z</time>
      </trkpt>
      <trkpt lat="44.27766" lon="6.07784">
        <ele>1272.44</ele>
        <time>2017-03-19T08:46:22Z</time>
      </trkpt>
      <trkpt lat="44.27781" lon="6.07799">
        <ele>1275.81</ele>
        <time>2017-03-19T08:46:40Z</time>
      </trkpt>
      <trkpt lat="44.27796" lon="6.07815">
        <ele>1277.73</ele>
        <time>2017-03-19T08:46:57Z</time>
      </trkpt>
      <trkpt lat="44.2781" lon="6.0783">
        <ele>1280.13</ele>
        <time>2017-03-19T08:47:13Z</time>
      </trkpt>
      <trkpt lat="44.27812" lon="6.07832">
        <ele>1280.61</ele>
        <time>2017-03-19T08:47:15Z</time>
      </trkpt>
      <trkpt lat="44.27819" lon="6.07842">
        <ele>1282.06</ele>
        <time>2017-03-19T08:47:25Z</time>
      </trkpt>
      <trkpt lat="44.27831" lon="6.07863">
        <ele>1284.46</ele>
        <time>2017-03-19T08:47:43Z</time>
      </trkpt>
      <trkpt lat="44.27838" lon="6.07879">
        <ele>1286.38</ele>
        <time>2017-03-19T08:47:57Z</time>
      </trkpt>
      <trkpt lat="44.27842" lon="6.07886">
        <ele>1286.86</ele>
        <time>2017-03-19T08:48:04Z</time>
      </trkpt>
      <trkpt lat="44.27856" lon="6.07883">
        <ele>1288.78</ele>
        <time>2017-03-19T08:48:18Z</time>
      </trkpt>
      <trkpt lat="44.27866" lon="6.07866">
        <ele>1290.23</ele>
        <time>2017-03-19T08:48:33Z</time>
      </trkpt>
      <trkpt lat="44.27875" lon="6.07865">
        <ele>1290.71</ele>
        <time>2017-03-19T08:48:43Z</time>
      </trkpt>
      <trkpt lat="44.2788" lon="6.07867">
        <ele>1291.19</ele>
        <time>2017-03-19T08:48:47Z</time>
      </trkpt>
      <trkpt lat="44.27896" lon="6.07875">
        <ele>1292.15</ele>
        <time>2017-03-19T08:49:05Z</time>
      </trkpt>
      <trkpt lat="44.27903" lon="6.07881">
        <ele>1293.11</ele>
        <time>2017-03-19T08:49:14Z</time>
      </trkpt>
      <trkpt lat="44.27918" lon="6.07895">
        <ele>1295.51</ele>
        <time>2017-03-19T08:49:31Z</time>
      </trkpt>
      <trkpt lat="44.2792" lon="6.07898">
        <ele>1295.99</ele>
        <time>2017-03-19T08:49:34Z</time>
      </trkpt>
      <trkpt lat="44.27913" lon="6.07908">
        <ele>1297.44</ele>
        <time>2017-03-19T08:49:45Z</time>
      </trkpt>
      <trkpt lat="44.27891" lon="6.07903">
        <ele>1298.4</ele>
        <time>2017-03-19T08:50:04Z</time>
      </trkpt>
      <trkpt lat="44.27874" lon="6.07906">
        <ele>1299.36</ele>
        <time>2017-03-19T08:50:21Z</time>
      </trkpt>
      <trkpt lat="44.27868" lon="6.07908">
        <ele>1300.32</ele>
        <time>2017-03-19T08:50:40Z</time>
      </trkpt>
      <trkpt lat="44.27855" lon="6.07923">
        <ele>1301.28</ele>
        <time>2017-03-19T08:50:55Z</time>
      </trkpt>
      <trkpt lat="44.27834" lon="6.07923">
        <ele>1302.24</ele>
        <time>2017-03-19T08:51:13Z</time>
      </trkpt>
      <trkpt lat="44.27814" lon="6.0792">
        <ele>1304.17</ele>
        <time>2017-03-19T08:51:30Z</time>
      </trkpt>
      <trkpt lat="44.27807" lon="6.07923">
        <ele>1305.13</ele>
        <time>2017-03-19T08:51:36Z</time>
      </trkpt>
      <trkpt lat="44.27789" lon="6.0793">
        <ele>1307.53</ele>
        <time>2017-03-19T08:51:54Z</time>
      </trkpt>
      <trkpt lat="44.27776" lon="6.07942">
        <ele>1309.45</ele>
        <time>2017-03-19T08:52:10Z</time>
      </trkpt>
      <trkpt lat="44.27764" lon="6.0795">
        <ele>1311.38</ele>
        <time>2017-03-19T08:52:24Z</time>
      </trkpt>
      <trkpt lat="44.27749" lon="6.07965">
        <ele>1312.82</ele>
        <time>2017-03-19T08:52:42Z</time>
      </trkpt>
      <trkpt lat="44.27738" lon="6.0798">
        <ele>1314.26</ele>
        <time>2017-03-19T08:52:56Z</time>
      </trkpt>
      <trkpt lat="44.27736" lon="6.07985">
        <ele>1314.74</ele>
        <time>2017-03-19T08:53:01Z</time>
      </trkpt>
      <trkpt lat="44.2773" lon="6.07995">
        <ele>1315.7</ele>
        <time>2017-03-19T08:53:09Z</time>
      </trkpt>
      <trkpt lat="44.2772" lon="6.0801">
        <ele>1317.14</ele>
        <time>2017-03-19T08:53:22Z</time>
      </trkpt>
      <trkpt lat="44.27714" lon="6.08024">
        <ele>1318.59</ele>
        <time>2017-03-19T08:53:35Z</time>
      </trkpt>
      <trkpt lat="44.27707" lon="6.08036">
        <ele>1320.03</ele>
        <time>2017-03-19T08:53:47Z</time>
      </trkpt>
      <trkpt lat="44.277" lon="6.08047">
        <ele>1321.47</ele>
        <time>2017-03-19T08:54:00Z</time>
      </trkpt>
      <trkpt lat="44.2769" lon="6.08065">
        <ele>1323.87</ele>
        <time>2017-03-19T08:54:17Z</time>
      </trkpt>
      <trkpt lat="44.27677" lon="6.08084">
        <ele>1325.8</ele>
        <time>2017-03-19T08:54:36Z</time>
      </trkpt>
      <trkpt lat="44.27674" lon="6.08093">
        <ele>1326.76</ele>
        <time>2017-03-19T08:54:43Z</time>
      </trkpt>
      <trkpt lat="44.27663" lon="6.08116">
        <ele>1329.16</ele>
        <time>2017-03-19T08:55:02Z</time>
      </trkpt>
      <trkpt lat="44.27651" lon="6.08134">
        <ele>1331.08</ele>
        <time>2017-03-19T08:55:18Z</time>
      </trkpt>
      <trkpt lat="44.27638" lon="6.08147">
        <ele>1333.01</ele>
        <time>2017-03-19T08:55:32Z</time>
      </trkpt>
      <trkpt lat="44.27621" lon="6.08159">
        <ele>1334.45</ele>
        <time>2017-03-19T08:55:51Z</time>
      </trkpt>
      <trkpt lat="44.27618" lon="6.08163">
        <ele>1334.93</ele>
        <time>2017-03-19T08:55:54Z</time>
      </trkpt>
      <trkpt lat="44.27607" lon="6.08191">
        <ele>1336.37</ele>
        <time>2017-03-19T08:56:15Z</time>
      </trkpt>
      <trkpt lat="44.27606" lon="6.08197">
        <ele>1336.37</ele>
        <time>2017-03-19T08:56:19Z</time>
      </trkpt>
      <trkpt lat="44.27609" lon="6.08205">
        <ele>1336.37</ele>
        <time>2017-03-19T08:56:23Z</time>
      </trkpt>
      <trkpt lat="44.27614" lon="6.08213">
        <ele>1336.37</ele>
        <time>2017-03-19T08:56:29Z</time>
      </trkpt>
      <trkpt lat="44.27622" lon="6.08219">
        <ele>1337.33</ele>
        <time>2017-03-19T08:56:39Z</time>
      </trkpt>
      <trkpt lat="44.27635" lon="6.08216">
        <ele>1339.25</ele>
        <time>2017-03-19T08:56:51Z</time>
      </trkpt>
      <trkpt lat="44.27644" lon="6.08209">
        <ele>1340.22</ele>
        <time>2017-03-19T08:56:59Z</time>
      </trkpt>
      <trkpt lat="44.27659" lon="6.0819">
        <ele>1342.14</ele>
        <time>2017-03-19T08:57:18Z</time>
      </trkpt>
      <trkpt lat="44.27667" lon="6.08177">
        <ele>1344.06</ele>
        <time>2017-03-19T08:57:31Z</time>
      </trkpt>
      <trkpt lat="44.2767" lon="6.08169">
        <ele>1344.54</ele>
        <time>2017-03-19T08:57:38Z</time>
      </trkpt>
      <trkpt lat="44.27675" lon="6.08181">
        <ele>1346.94</ele>
        <time>2017-03-19T08:57:53Z</time>
      </trkpt>
      <trkpt lat="44.27673" lon="6.08192">
        <ele>1347.91</ele>
        <time>2017-03-19T08:58:01Z</time>
      </trkpt>
      <trkpt lat="44.27668" lon="6.08219">
        <ele>1349.83</ele>
        <time>2017-03-19T08:58:21Z</time>
      </trkpt>
      <trkpt lat="44.27663" lon="6.08242">
        <ele>1352.71</ele>
        <time>2017-03-19T08:58:39Z</time>
      </trkpt>
      <trkpt lat="44.27656" lon="6.08267">
        <ele>1354.63</ele>
        <time>2017-03-19T08:58:58Z</time>
      </trkpt>
      <trkpt lat="44.27652" lon="6.08288">
        <ele>1357.04</ele>
        <time>2017-03-19T08:59:15Z</time>
      </trkpt>
      <trkpt lat="44.27649" lon="6.08294">
        <ele>1357.52</ele>
        <time>2017-03-19T08:59:20Z</time>
      </trkpt>
      <trkpt lat="44.2764" lon="6.08316">
        <ele>1359.92</ele>
        <time>2017-03-19T08:59:37Z</time>
      </trkpt>
      <trkpt lat="44.27635" lon="6.08339">
        <ele>1361.36</ele>
        <time>2017-03-19T08:59:54Z</time>
      </trkpt>
      <trkpt lat="44.27649" lon="6.08334">
        <ele>1362.81</ele>
        <time>2017-03-19T09:00:11Z</time>
      </trkpt>
      <trkpt lat="44.2765" lon="6.0833">
        <ele>1363.29</ele>
        <time>2017-03-19T09:00:14Z</time>
      </trkpt>
      <trkpt lat="44.27662" lon="6.08317">
        <ele>1365.21</ele>
        <time>2017-03-19T09:00:29Z</time>
      </trkpt>
      <trkpt lat="44.27673" lon="6.08299">
        <ele>1367.61</ele>
        <time>2017-03-19T09:00:46Z</time>
      </trkpt>
      <trkpt lat="44.27679" lon="6.08287">
        <ele>1368.57</ele>
        <time>2017-03-19T09:00:58Z</time>
      </trkpt>
      <trkpt lat="44.27683" lon="6.0827">
        <ele>1370.02</ele>
        <time>2017-03-19T09:01:15Z</time>
      </trkpt>
      <trkpt lat="44.27681" lon="6.08264">
        <ele>1370.02</ele>
        <time>2017-03-19T09:01:36Z</time>
      </trkpt>
      <trkpt lat="44.27681" lon="6.08265">
        <ele>1370.5</ele>
        <time>2017-03-19T09:02:06Z</time>
      </trkpt>
      <trkpt lat="44.27687" lon="6.0827">
        <ele>1370.98</ele>
        <time>2017-03-19T09:02:14Z</time>
      </trkpt>
      <trkpt lat="44.2769" lon="6.08277">
        <ele>1371.46</ele>
        <time>2017-03-19T09:02:29Z</time>
      </trkpt>
      <trkpt lat="44.27687" lon="6.08296">
        <ele>1372.42</ele>
        <time>2017-03-19T09:02:44Z</time>
      </trkpt>
      <trkpt lat="44.27681" lon="6.08312">
        <ele>1373.86</ele>
        <time>2017-03-19T09:02:55Z</time>
      </trkpt>
      <trkpt lat="44.27681" lon="6.08318">
        <ele>1375.78</ele>
        <time>2017-03-19T09:02:59Z</time>
      </trkpt>
      <trkpt lat="44.27682" lon="6.08335">
        <ele>1376.75</ele>
        <time>2017-03-19T09:03:13Z</time>
      </trkpt>
      <trkpt lat="44.27686" lon="6.08351">
        <ele>1378.67</ele>
        <time>2017-03-19T09:03:27Z</time>
      </trkpt>
      <trkpt lat="44.2769" lon="6.08357">
        <ele>1379.63</ele>
        <time>2017-03-19T09:03:33Z</time>
      </trkpt>
      <trkpt lat="44.27696" lon="6.08374">
        <ele>1381.55</ele>
        <time>2017-03-19T09:03:46Z</time>
      </trkpt>
      <trkpt lat="44.27697" lon="6.08382">
        <ele>1382.03</ele>
        <time>2017-03-19T09:03:51Z</time>
      </trkpt>
      <trkpt lat="44.27702" lon="6.08401">
        <ele>1383.47</ele>
        <time>2017-03-19T09:04:04Z</time>
      </trkpt>
      <trkpt lat="44.27703" lon="6.08408">
        <ele>1383.47</ele>
        <time>2017-03-19T09:04:17Z</time>
      </trkpt>
      <trkpt lat="44.27704" lon="6.08427">
        <ele>1384.92</ele>
        <time>2017-03-19T09:04:29Z</time>
      </trkpt>
      <trkpt lat="44.27709" lon="6.08437">
        <ele>1386.84</ele>
        <time>2017-03-19T09:04:41Z</time>
      </trkpt>
      <trkpt lat="44.27711" lon="6.08429">
        <ele>1387.32</ele>
        <time>2017-03-19T09:04:45Z</time>
      </trkpt>
      <trkpt lat="44.27712" lon="6.08413">
        <ele>1387.8</ele>
        <time>2017-03-19T09:04:55Z</time>
      </trkpt>
      <trkpt lat="44.2771" lon="6.08383">
        <ele>1389.72</ele>
        <time>2017-03-19T09:05:14Z</time>
      </trkpt>
      <trkpt lat="44.2771" lon="6.08376">
        <ele>1390.68</ele>
        <time>2017-03-19T09:05:29Z</time>
      </trkpt>
      <trkpt lat="44.27711" lon="6.08373">
        <ele>1390.68</ele>
        <time>2017-03-19T09:05:35Z</time>
      </trkpt>
      <trkpt lat="44.27716" lon="6.08357">
        <ele>1391.17</ele>
        <time>2017-03-19T09:05:46Z</time>
      </trkpt>
      <trkpt lat="44.27717" lon="6.08354">
        <ele>1391.17</ele>
        <time>2017-03-19T09:05:48Z</time>
      </trkpt>
      <trkpt lat="44.27719" lon="6.08325">
        <ele>1393.09</ele>
        <time>2017-03-19T09:06:07Z</time>
      </trkpt>
      <trkpt lat="44.27721" lon="6.08297">
        <ele>1395.01</ele>
        <time>2017-03-19T09:06:24Z</time>
      </trkpt>
      <trkpt lat="44.27721" lon="6.08295">
        <ele>1395.01</ele>
        <time>2017-03-19T09:06:26Z</time>
      </trkpt>
      <trkpt lat="44.27726" lon="6.08287">
        <ele>1395.49</ele>
        <time>2017-03-19T09:06:33Z</time>
      </trkpt>
      <trkpt lat="44.27744" lon="6.08281">
        <ele>1396.45</ele>
        <time>2017-03-19T09:06:50Z</time>
      </trkpt>
      <trkpt lat="44.27749" lon="6.08283">
        <ele>1396.45</ele>
        <time>2017-03-19T09:06:56Z</time>
      </trkpt>
      <trkpt lat="44.27756" lon="6.08291">
        <ele>1397.89</ele>
        <time>2017-03-19T09:07:05Z</time>
      </trkpt>
      <trkpt lat="44.27773" lon="6.0831">
        <ele>1399.82</ele>
        <time>2017-03-19T09:07:23Z</time>
      </trkpt>
      <trkpt lat="44.27782" lon="6.08318">
        <ele>1401.26</ele>
        <time>2017-03-19T09:07:36Z</time>
      </trkpt>
      <trkpt lat="44.27796" lon="6.08329">
        <ele>1403.18</ele>
        <time>2017-03-19T09:07:51Z</time>
      </trkpt>
      <trkpt lat="44.27802" lon="6.08338">
        <ele>1404.14</ele>
        <time>2017-03-19T09:07:59Z</time>
      </trkpt>
      <trkpt lat="44.27805" lon="6.08341">
        <ele>1404.62</ele>
        <time>2017-03-19T09:08:02Z</time>
      </trkpt>
      <trkpt lat="44.27815" lon="6.08353">
        <ele>1406.07</ele>
        <time>2017-03-19T09:08:18Z</time>
      </trkpt>
      <trkpt lat="44.27827" lon="6.08365">
        <ele>1407.99</ele>
        <time>2017-03-19T09:08:32Z</time>
      </trkpt>
      <trkpt lat="44.27844" lon="6.08377">
        <ele>1408.95</ele>
        <time>2017-03-19T09:08:48Z</time>
      </trkpt>
      <trkpt lat="44.27854" lon="6.08389">
        <ele>1410.39</ele>
        <time>2017-03-19T09:09:03Z</time>
      </trkpt>
      <trkpt lat="44.27867" lon="6.08397">
        <ele>1411.83</ele>
        <time>2017-03-19T09:09:17Z</time>
      </trkpt>
      <trkpt lat="44.27866" lon="6.08399">
        <ele>1411.83</ele>
        <time>2017-03-19T09:09:28Z</time>
      </trkpt>
      <trkpt lat="44.27865" lon="6.08398">
        <ele>1412.31</ele>
        <time>2017-03-19T09:09:46Z</time>
      </trkpt>
      <trkpt lat="44.27872" lon="6.08399">
        <ele>1412.79</ele>
        <time>2017-03-19T09:10:18Z</time>
      </trkpt>
      <trkpt lat="44.2787" lon="6.08398">
        <ele>1412.79</ele>
        <time>2017-03-19T09:10:37Z</time>
      </trkpt>
      <trkpt lat="44.27871" lon="6.08396">
        <ele>1412.79</ele>
        <time>2017-03-19T09:10:39Z</time>
      </trkpt>
      <trkpt lat="44.27881" lon="6.08396">
        <ele>1412.79</ele>
        <time>2017-03-19T09:10:50Z</time>
      </trkpt>
      <trkpt lat="44.27883" lon="6.08398">
        <ele>1412.79</ele>
        <time>2017-03-19T09:10:52Z</time>
      </trkpt>
      <trkpt lat="44.27881" lon="6.08412">
        <ele>1413.76</ele>
        <time>2017-03-19T09:11:09Z</time>
      </trkpt>
      <trkpt lat="44.27881" lon="6.08419">
        <ele>1414.72</ele>
        <time>2017-03-19T09:11:25Z</time>
      </trkpt>
      <trkpt lat="44.27884" lon="6.08431">
        <ele>1415.2</ele>
        <time>2017-03-19T09:11:50Z</time>
      </trkpt>
      <trkpt lat="44.27882" lon="6.0845">
        <ele>1418.08</ele>
        <time>2017-03-19T09:12:06Z</time>
      </trkpt>
      <trkpt lat="44.27883" lon="6.08462">
        <ele>1420</ele>
        <time>2017-03-19T09:12:24Z</time>
      </trkpt>
      <trkpt lat="44.27884" lon="6.08467">
        <ele>1420.49</ele>
        <time>2017-03-19T09:12:28Z</time>
      </trkpt>
      <trkpt lat="44.27887" lon="6.08491">
        <ele>1422.41</ele>
        <time>2017-03-19T09:12:46Z</time>
      </trkpt>
      <trkpt lat="44.2789" lon="6.08506">
        <ele>1425.77</ele>
        <time>2017-03-19T09:12:59Z</time>
      </trkpt>
      <trkpt lat="44.27892" lon="6.0852">
        <ele>1428.66</ele>
        <time>2017-03-19T09:13:15Z</time>
      </trkpt>
      <trkpt lat="44.27891" lon="6.08539">
        <ele>1431.54</ele>
        <time>2017-03-19T09:13:33Z</time>
      </trkpt>
      <trkpt lat="44.2789" lon="6.08554">
        <ele>1434.42</ele>
        <time>2017-03-19T09:13:49Z</time>
      </trkpt>
      <trkpt lat="44.27888" lon="6.08563">
        <ele>1436.83</ele>
        <time>2017-03-19T09:14:04Z</time>
      </trkpt>
      <trkpt lat="44.27886" lon="6.08574">
        <ele>1439.23</ele>
        <time>2017-03-19T09:14:20Z</time>
      </trkpt>
      <trkpt lat="44.27888" lon="6.08583">
        <ele>1440.67</ele>
        <time>2017-03-19T09:14:34Z</time>
      </trkpt>
      <trkpt lat="44.27891" lon="6.08597">
        <ele>1443.56</ele>
        <time>2017-03-19T09:14:50Z</time>
      </trkpt>
      <trkpt lat="44.27887" lon="6.08612">
        <ele>1444.52</ele>
        <time>2017-03-19T09:15:04Z</time>
      </trkpt>
      <trkpt lat="44.27884" lon="6.08623">
        <ele>1446.92</ele>
        <time>2017-03-19T09:15:19Z</time>
      </trkpt>
      <trkpt lat="44.27887" lon="6.08626">
        <ele>1447.4</ele>
        <time>2017-03-19T09:15:24Z</time>
      </trkpt>
      <trkpt lat="44.27894" lon="6.08638">
        <ele>1449.81</ele>
        <time>2017-03-19T09:15:38Z</time>
      </trkpt>
      <trkpt lat="44.279" lon="6.08649">
        <ele>1452.21</ele>
        <time>2017-03-19T09:15:52Z</time>
      </trkpt>
      <trkpt lat="44.27906" lon="6.0866">
        <ele>1454.13</ele>
        <time>2017-03-19T09:16:06Z</time>
      </trkpt>
      <trkpt lat="44.27906" lon="6.08661">
        <ele>1455.09</ele>
        <time>2017-03-19T09:16:23Z</time>
      </trkpt>
      <trkpt lat="44.27908" lon="6.08668">
        <ele>1456.05</ele>
        <time>2017-03-19T09:16:46Z</time>
      </trkpt>
      <trkpt lat="44.27908" lon="6.08667">
        <ele>1456.53</ele>
        <time>2017-03-19T09:17:19Z</time>
      </trkpt>
      <trkpt lat="44.27908" lon="6.08671">
        <ele>1457.5</ele>
        <time>2017-03-19T09:17:39Z</time>
      </trkpt>
      <trkpt lat="44.27909" lon="6.08684">
        <ele>1460.38</ele>
        <time>2017-03-19T09:17:53Z</time>
      </trkpt>
      <trkpt lat="44.27909" lon="6.08702">
        <ele>1463.26</ele>
        <time>2017-03-19T09:18:11Z</time>
      </trkpt>
      <trkpt lat="44.27913" lon="6.08717">
        <ele>1466.15</ele>
        <time>2017-03-19T09:18:26Z</time>
      </trkpt>
      <trkpt lat="44.27916" lon="6.08729">
        <ele>1468.55</ele>
        <time>2017-03-19T09:18:40Z</time>
      </trkpt>
      <trkpt lat="44.27916" lon="6.08741">
        <ele>1471.92</ele>
        <time>2017-03-19T09:18:54Z</time>
      </trkpt>
      <trkpt lat="44.27914" lon="6.08754">
        <ele>1473.84</ele>
        <time>2017-03-19T09:19:09Z</time>
      </trkpt>
      <trkpt lat="44.27915" lon="6.08767">
        <ele>1477.2</ele>
        <time>2017-03-19T09:19:27Z</time>
      </trkpt>
      <trkpt lat="44.27916" lon="6.08778">
        <ele>1479.61</ele>
        <time>2017-03-19T09:19:42Z</time>
      </trkpt>
      <trkpt lat="44.27915" lon="6.08789">
        <ele>1482.97</ele>
        <time>2017-03-19T09:20:03Z</time>
      </trkpt>
      <trkpt lat="44.27914" lon="6.08799">
        <ele>1485.85</ele>
        <time>2017-03-19T09:20:17Z</time>
      </trkpt>
      <trkpt lat="44.27917" lon="6.08809">
        <ele>1489.22</ele>
        <time>2017-03-19T09:20:33Z</time>
      </trkpt>
      <trkpt lat="44.27917" lon="6.08814">
        <ele>1490.66</ele>
        <time>2017-03-19T09:20:53Z</time>
      </trkpt>
      <trkpt lat="44.27918" lon="6.08826">
        <ele>1492.58</ele>
        <time>2017-03-19T09:21:10Z</time>
      </trkpt>
      <trkpt lat="44.2792" lon="6.08832">
        <ele>1494.51</ele>
        <time>2017-03-19T09:21:25Z</time>
      </trkpt>
      <trkpt lat="44.27924" lon="6.08838">
        <ele>1496.91</ele>
        <time>2017-03-19T09:21:42Z</time>
      </trkpt>
      <trkpt lat="44.27928" lon="6.08849">
        <ele>1499.31</ele>
        <time>2017-03-19T09:21:59Z</time>
      </trkpt>
      <trkpt lat="44.27934" lon="6.08861">
        <ele>1501.72</ele>
        <time>2017-03-19T09:22:16Z</time>
      </trkpt>
      <trkpt lat="44.2793" lon="6.08873">
        <ele>1503.64</ele>
        <time>2017-03-19T09:22:32Z</time>
      </trkpt>
      <trkpt lat="44.27931" lon="6.08877">
        <ele>1504.12</ele>
        <time>2017-03-19T09:23:07Z</time>
      </trkpt>
      <trkpt lat="44.27927" lon="6.08874">
        <ele>1504.12</ele>
        <time>2017-03-19T09:23:30Z</time>
      </trkpt>
      <trkpt lat="44.27933" lon="6.08875">
        <ele>1504.12</ele>
        <time>2017-03-19T09:24:02Z</time>
      </trkpt>
      <trkpt lat="44.27931" lon="6.08872">
        <ele>1504.12</ele>
        <time>2017-03-19T09:24:35Z</time>
      </trkpt>
      <trkpt lat="44.27936" lon="6.08875">
        <ele>1505.56</ele>
        <time>2017-03-19T09:24:52Z</time>
      </trkpt>
      <trkpt lat="44.27943" lon="6.08877">
        <ele>1507.48</ele>
        <time>2017-03-19T09:25:09Z</time>
      </trkpt>
      <trkpt lat="44.27947" lon="6.08876">
        <ele>1507.97</ele>
        <time>2017-03-19T09:25:18Z</time>
      </trkpt>
      <trkpt lat="44.27956" lon="6.08877">
        <ele>1510.37</ele>
        <time>2017-03-19T09:25:33Z</time>
      </trkpt>
      <trkpt lat="44.27958" lon="6.0889">
        <ele>1512.77</ele>
        <time>2017-03-19T09:25:51Z</time>
      </trkpt>
      <trkpt lat="44.27957" lon="6.08901">
        <ele>1516.14</ele>
        <time>2017-03-19T09:26:07Z</time>
      </trkpt>
      <trkpt lat="44.27962" lon="6.08908">
        <ele>1518.06</ele>
        <time>2017-03-19T09:26:23Z</time>
      </trkpt>
      <trkpt lat="44.27963" lon="6.08911">
        <ele>1519.02</ele>
        <time>2017-03-19T09:26:43Z</time>
      </trkpt>
      <trkpt lat="44.27961" lon="6.08918">
        <ele>1521.42</ele>
        <time>2017-03-19T09:27:06Z</time>
      </trkpt>
      <trkpt lat="44.27963" lon="6.08927">
        <ele>1524.79</ele>
        <time>2017-03-19T09:27:19Z</time>
      </trkpt>
      <trkpt lat="44.27965" lon="6.08936">
        <ele>1526.71</ele>
        <time>2017-03-19T09:27:33Z</time>
      </trkpt>
      <trkpt lat="44.27968" lon="6.08943">
        <ele>1530.08</ele>
        <time>2017-03-19T09:27:49Z</time>
      </trkpt>
      <trkpt lat="44.27971" lon="6.08951">
        <ele>1532.96</ele>
        <time>2017-03-19T09:28:04Z</time>
      </trkpt>
      <trkpt lat="44.27972" lon="6.08962">
        <ele>1535.36</ele>
        <time>2017-03-19T09:28:18Z</time>
      </trkpt>
      <trkpt lat="44.27972" lon="6.08968">
        <ele>1537.29</ele>
        <time>2017-03-19T09:28:38Z</time>
      </trkpt>
      <trkpt lat="44.27975" lon="6.0898">
        <ele>1539.21</ele>
        <time>2017-03-19T09:28:53Z</time>
      </trkpt>
      <trkpt lat="44.27978" lon="6.08989">
        <ele>1541.61</ele>
        <time>2017-03-19T09:29:09Z</time>
      </trkpt>
      <trkpt lat="44.27985" lon="6.08996">
        <ele>1544.5</ele>
        <time>2017-03-19T09:29:25Z</time>
      </trkpt>
      <trkpt lat="44.27987" lon="6.09003">
        <ele>1547.86</ele>
        <time>2017-03-19T09:29:41Z</time>
      </trkpt>
      <trkpt lat="44.27993" lon="6.09005">
        <ele>1550.74</ele>
        <time>2017-03-19T09:29:58Z</time>
      </trkpt>
      <trkpt lat="44.28" lon="6.09008">
        <ele>1553.63</ele>
        <time>2017-03-19T09:30:15Z</time>
      </trkpt>
      <trkpt lat="44.28007" lon="6.09012">
        <ele>1555.55</ele>
        <time>2017-03-19T09:30:29Z</time>
      </trkpt>
      <trkpt lat="44.28012" lon="6.09015">
        <ele>1556.99</ele>
        <time>2017-03-19T09:30:46Z</time>
      </trkpt>
      <trkpt lat="44.28012" lon="6.09029">
        <ele>1559.88</ele>
        <time>2017-03-19T09:31:01Z</time>
      </trkpt>
      <trkpt lat="44.28013" lon="6.09039">
        <ele>1561.8</ele>
        <time>2017-03-19T09:31:13Z</time>
      </trkpt>
      <trkpt lat="44.28013" lon="6.09047">
        <ele>1563.72</ele>
        <time>2017-03-19T09:31:26Z</time>
      </trkpt>
      <trkpt lat="44.28012" lon="6.09047">
        <ele>1565.64</ele>
        <time>2017-03-19T09:31:39Z</time>
      </trkpt>
      <trkpt lat="44.2801" lon="6.09051">
        <ele>1565.64</ele>
        <time>2017-03-19T09:31:55Z</time>
      </trkpt>
      <trkpt lat="44.2801" lon="6.09052">
        <ele>1566.61</ele>
        <time>2017-03-19T09:32:15Z</time>
      </trkpt>
      <trkpt lat="44.28007" lon="6.0905">
        <ele>1566.61</ele>
        <time>2017-03-19T09:32:39Z</time>
      </trkpt>
      <trkpt lat="44.28006" lon="6.09046">
        <ele>1567.57</ele>
        <time>2017-03-19T09:32:55Z</time>
      </trkpt>
      <trkpt lat="44.28008" lon="6.0905">
        <ele>1567.57</ele>
        <time>2017-03-19T09:33:21Z</time>
      </trkpt>
      <trkpt lat="44.28003" lon="6.09058">
        <ele>1569.49</ele>
        <time>2017-03-19T09:33:34Z</time>
      </trkpt>
      <trkpt lat="44.27995" lon="6.09064">
        <ele>1571.89</ele>
        <time>2017-03-19T09:33:51Z</time>
      </trkpt>
      <trkpt lat="44.27992" lon="6.09071">
        <ele>1575.26</ele>
        <time>2017-03-19T09:34:05Z</time>
      </trkpt>
      <trkpt lat="44.2799" lon="6.09081">
        <ele>1578.62</ele>
        <time>2017-03-19T09:34:21Z</time>
      </trkpt>
      <trkpt lat="44.27987" lon="6.09098">
        <ele>1580.54</ele>
        <time>2017-03-19T09:34:36Z</time>
      </trkpt>
      <trkpt lat="44.27984" lon="6.09105">
        <ele>1582.47</ele>
        <time>2017-03-19T09:34:50Z</time>
      </trkpt>
      <trkpt lat="44.27984" lon="6.09116">
        <ele>1583.91</ele>
        <time>2017-03-19T09:35:04Z</time>
      </trkpt>
      <trkpt lat="44.27987" lon="6.09122">
        <ele>1585.35</ele>
        <time>2017-03-19T09:35:22Z</time>
      </trkpt>
      <trkpt lat="44.27988" lon="6.09124">
        <ele>1588.72</ele>
        <time>2017-03-19T09:35:37Z</time>
      </trkpt>
      <trkpt lat="44.27993" lon="6.0913">
        <ele>1591.12</ele>
        <time>2017-03-19T09:35:52Z</time>
      </trkpt>
      <trkpt lat="44.27993" lon="6.09129">
        <ele>1592.08</ele>
        <time>2017-03-19T09:36:08Z</time>
      </trkpt>
      <trkpt lat="44.27993" lon="6.09128">
        <ele>1592.56</ele>
        <time>2017-03-19T09:36:39Z</time>
      </trkpt>
      <trkpt lat="44.27993" lon="6.0913">
        <ele>1592.56</ele>
        <time>2017-03-19T09:36:56Z</time>
      </trkpt>
      <trkpt lat="44.28" lon="6.09127">
        <ele>1591.6</ele>
        <time>2017-03-19T09:37:17Z</time>
      </trkpt>
      <trkpt lat="44.28002" lon="6.09128">
        <ele>1591.6</ele>
        <time>2017-03-19T09:37:20Z</time>
      </trkpt>
      <trkpt lat="44.28012" lon="6.09134">
        <ele>1593.52</ele>
        <time>2017-03-19T09:37:35Z</time>
      </trkpt>
      <trkpt lat="44.28018" lon="6.09136">
        <ele>1594.96</ele>
        <time>2017-03-19T09:37:51Z</time>
      </trkpt>
      <trkpt lat="44.28026" lon="6.09141">
        <ele>1597.37</ele>
        <time>2017-03-19T09:38:06Z</time>
      </trkpt>
      <trkpt lat="44.28032" lon="6.09143">
        <ele>1600.25</ele>
        <time>2017-03-19T09:38:21Z</time>
      </trkpt>
      <trkpt lat="44.28036" lon="6.09142">
        <ele>1601.69</ele>
        <time>2017-03-19T09:38:38Z</time>
      </trkpt>
      <trkpt lat="44.28047" lon="6.09148">
        <ele>1602.17</ele>
        <time>2017-03-19T09:38:52Z</time>
      </trkpt>
      <trkpt lat="44.28051" lon="6.09143">
        <ele>1602.66</ele>
        <time>2017-03-19T09:39:12Z</time>
      </trkpt>
      <trkpt lat="44.28052" lon="6.09157">
        <ele>1603.62</ele>
        <time>2017-03-19T09:39:29Z</time>
      </trkpt>
      <trkpt lat="44.28058" lon="6.09158">
        <ele>1601.21</ele>
        <time>2017-03-19T09:39:46Z</time>
      </trkpt>
      <trkpt lat="44.28063" lon="6.0916">
        <ele>1601.21</ele>
        <time>2017-03-19T09:39:54Z</time>
      </trkpt>
      <trkpt lat="44.28072" lon="6.09159">
        <ele>1603.14</ele>
        <time>2017-03-19T09:40:08Z</time>
      </trkpt>
      <trkpt lat="44.28075" lon="6.09156">
        <ele>1603.14</ele>
        <time>2017-03-19T09:40:25Z</time>
      </trkpt>
      <trkpt lat="44.28075" lon="6.09154">
        <ele>1603.62</ele>
        <time>2017-03-19T09:40:50Z</time>
      </trkpt>
      <trkpt lat="44.28077" lon="6.09155">
        <ele>1604.1</ele>
        <time>2017-03-19T09:41:14Z</time>
      </trkpt>
      <trkpt lat="44.28082" lon="6.09161">
        <ele>1603.14</ele>
        <time>2017-03-19T09:41:31Z</time>
      </trkpt>
      <trkpt lat="44.28083" lon="6.09161">
        <ele>1604.58</ele>
        <time>2017-03-19T09:41:40Z</time>
      </trkpt>
      <trkpt lat="44.28084" lon="6.09161">
        <ele>1605.06</ele>
        <time>2017-03-19T09:42:00Z</time>
      </trkpt>
      <trkpt lat="44.28088" lon="6.09168">
        <ele>1606.02</ele>
        <time>2017-03-19T09:42:12Z</time>
      </trkpt>
      <trkpt lat="44.281" lon="6.09177">
        <ele>1608.9</ele>
        <time>2017-03-19T09:42:28Z</time>
      </trkpt>
      <trkpt lat="44.28106" lon="6.09183">
        <ele>1609.38</ele>
        <time>2017-03-19T09:42:41Z</time>
      </trkpt>
      <trkpt lat="44.28107" lon="6.09186">
        <ele>1609.38</ele>
        <time>2017-03-19T09:43:04Z</time>
      </trkpt>
      <trkpt lat="44.28113" lon="6.09191">
        <ele>1612.27</ele>
        <time>2017-03-19T09:43:15Z</time>
      </trkpt>
      <trkpt lat="44.28123" lon="6.09197">
        <ele>1614.67</ele>
        <time>2017-03-19T09:43:30Z</time>
      </trkpt>
      <trkpt lat="44.28126" lon="6.092">
        <ele>1616.11</ele>
        <time>2017-03-19T09:43:53Z</time>
      </trkpt>
      <trkpt lat="44.28128" lon="6.09203">
        <ele>1616.11</ele>
        <time>2017-03-19T09:44:17Z</time>
      </trkpt>
      <trkpt lat="44.28128" lon="6.09202">
        <ele>1614.67</ele>
        <time>2017-03-19T09:44:35Z</time>
      </trkpt>
      <trkpt lat="44.28129" lon="6.09204">
        <ele>1615.63</ele>
        <time>2017-03-19T09:44:54Z</time>
      </trkpt>
      <trkpt lat="44.28139" lon="6.09216">
        <ele>1617.07</ele>
        <time>2017-03-19T09:45:11Z</time>
      </trkpt>
      <trkpt lat="44.28147" lon="6.09226">
        <ele>1618.52</ele>
        <time>2017-03-19T09:45:26Z</time>
      </trkpt>
      <trkpt lat="44.28156" lon="6.09231">
        <ele>1620.92</ele>
        <time>2017-03-19T09:45:43Z</time>
      </trkpt>
      <trkpt lat="44.28163" lon="6.09231">
        <ele>1623.8</ele>
        <time>2017-03-19T09:45:59Z</time>
      </trkpt>
      <trkpt lat="44.28163" lon="6.09233">
        <ele>1624.77</ele>
        <time>2017-03-19T09:46:17Z</time>
      </trkpt>
      <trkpt lat="44.28173" lon="6.09233">
        <ele>1627.17</ele>
        <time>2017-03-19T09:46:33Z</time>
      </trkpt>
      <trkpt lat="44.2818" lon="6.09238">
        <ele>1630.05</ele>
        <time>2017-03-19T09:46:52Z</time>
      </trkpt>
      <trkpt lat="44.28177" lon="6.09242">
        <ele>1630.53</ele>
        <time>2017-03-19T09:47:21Z</time>
      </trkpt>
      <trkpt lat="44.28178" lon="6.09251">
        <ele>1633.42</ele>
        <time>2017-03-19T09:47:38Z</time>
      </trkpt>
      <trkpt lat="44.28183" lon="6.09252">
        <ele>1636.3</ele>
        <time>2017-03-19T09:47:48Z</time>
      </trkpt>
      <trkpt lat="44.28188" lon="6.09249">
        <ele>1638.22</ele>
        <time>2017-03-19T09:48:02Z</time>
      </trkpt>
      <trkpt lat="44.28194" lon="6.09249">
        <ele>1641.59</ele>
        <time>2017-03-19T09:48:17Z</time>
      </trkpt>
      <trkpt lat="44.28197" lon="6.09246">
        <ele>1641.59</ele>
        <time>2017-03-19T09:48:32Z</time>
      </trkpt>
      <trkpt lat="44.28199" lon="6.09257">
        <ele>1642.55</ele>
        <time>2017-03-19T09:48:48Z</time>
      </trkpt>
      <trkpt lat="44.28203" lon="6.09261">
        <ele>1643.99</ele>
        <time>2017-03-19T09:49:03Z</time>
      </trkpt>
      <trkpt lat="44.28204" lon="6.0926">
        <ele>1644.47</ele>
        <time>2017-03-19T09:49:38Z</time>
      </trkpt>
      <trkpt lat="44.28205" lon="6.0926">
        <ele>1644.47</ele>
        <time>2017-03-19T09:50:01Z</time>
      </trkpt>
      <trkpt lat="44.28209" lon="6.09266">
        <ele>1644.95</ele>
        <time>2017-03-19T09:50:16Z</time>
      </trkpt>
      <trkpt lat="44.28217" lon="6.09271">
        <ele>1647.36</ele>
        <time>2017-03-19T09:50:33Z</time>
      </trkpt>
      <trkpt lat="44.2822" lon="6.09277">
        <ele>1649.76</ele>
        <time>2017-03-19T09:50:46Z</time>
      </trkpt>
      <trkpt lat="44.28225" lon="6.09284">
        <ele>1652.16</ele>
        <time>2017-03-19T09:51:03Z</time>
      </trkpt>
      <trkpt lat="44.28229" lon="6.09289">
        <ele>1654.57</ele>
        <time>2017-03-19T09:51:19Z</time>
      </trkpt>
      <trkpt lat="44.28229" lon="6.0929">
        <ele>1655.53</ele>
        <time>2017-03-19T09:51:53Z</time>
      </trkpt>
      <trkpt lat="44.28236" lon="6.093">
        <ele>1656.97</ele>
        <time>2017-03-19T09:52:09Z</time>
      </trkpt>
      <trkpt lat="44.28241" lon="6.09311">
        <ele>1660.33</ele>
        <time>2017-03-19T09:52:24Z</time>
      </trkpt>
      <trkpt lat="44.28239" lon="6.09316">
        <ele>1661.3</ele>
        <time>2017-03-19T09:52:40Z</time>
      </trkpt>
      <trkpt lat="44.28242" lon="6.09328">
        <ele>1663.22</ele>
        <time>2017-03-19T09:52:56Z</time>
      </trkpt>
      <trkpt lat="44.28241" lon="6.09338">
        <ele>1665.14</ele>
        <time>2017-03-19T09:53:12Z</time>
      </trkpt>
      <trkpt lat="44.28239" lon="6.0934">
        <ele>1667.54</ele>
        <time>2017-03-19T09:53:27Z</time>
      </trkpt>
      <trkpt lat="44.28238" lon="6.09348">
        <ele>1669.47</ele>
        <time>2017-03-19T09:53:44Z</time>
      </trkpt>
      <trkpt lat="44.28244" lon="6.09354">
        <ele>1671.39</ele>
        <time>2017-03-19T09:53:57Z</time>
      </trkpt>
      <trkpt lat="44.28248" lon="6.0936">
        <ele>1674.27</ele>
        <time>2017-03-19T09:54:12Z</time>
      </trkpt>
      <trkpt lat="44.28253" lon="6.09359">
        <ele>1676.68</ele>
        <time>2017-03-19T09:54:30Z</time>
      </trkpt>
      <trkpt lat="44.28258" lon="6.09364">
        <ele>1678.6</ele>
        <time>2017-03-19T09:54:48Z</time>
      </trkpt>
      <trkpt lat="44.2825" lon="6.09371">
        <ele>1681</ele>
        <time>2017-03-19T09:55:03Z</time>
      </trkpt>
      <trkpt lat="44.28244" lon="6.09379">
        <ele>1681.96</ele>
        <time>2017-03-19T09:55:16Z</time>
      </trkpt>
      <trkpt lat="44.28241" lon="6.09389">
        <ele>1683.41</ele>
        <time>2017-03-19T09:55:25Z</time>
      </trkpt>
      <trkpt lat="44.2824" lon="6.09392">
        <ele>1683.41</ele>
        <time>2017-03-19T09:55:27Z</time>
      </trkpt>
      <trkpt lat="44.28228" lon="6.094">
        <ele>1683.41</ele>
        <time>2017-03-19T09:55:39Z</time>
      </trkpt>
      <trkpt lat="44.2822" lon="6.09405">
        <ele>1680.52</ele>
        <time>2017-03-19T09:55:48Z</time>
      </trkpt>
      <trkpt lat="44.28214" lon="6.09405">
        <ele>1682.93</ele>
        <time>2017-03-19T09:55:52Z</time>
      </trkpt>
      <trkpt lat="44.28213" lon="6.09407">
        <ele>1684.37</ele>
        <time>2017-03-19T09:55:54Z</time>
      </trkpt>
      <trkpt lat="44.28206" lon="6.09411">
        <ele>1682.93</ele>
        <time>2017-03-19T09:56:00Z</time>
      </trkpt>
      <trkpt lat="44.28202" lon="6.09416">
        <ele>1680.04</ele>
        <time>2017-03-19T09:56:06Z</time>
      </trkpt>
      <trkpt lat="44.28201" lon="6.09417">
        <ele>1680.04</ele>
        <time>2017-03-19T09:56:07Z</time>
      </trkpt>
      <trkpt lat="44.28199" lon="6.09419">
        <ele>1681.96</ele>
        <time>2017-03-19T09:56:09Z</time>
      </trkpt>
      <trkpt lat="44.28193" lon="6.09432">
        <ele>1680.52</ele>
        <time>2017-03-19T09:56:19Z</time>
      </trkpt>
      <trkpt lat="44.2819" lon="6.09435">
        <ele>1680.52</ele>
        <time>2017-03-19T09:56:22Z</time>
      </trkpt>
      <trkpt lat="44.28187" lon="6.09435">
        <ele>1679.08</ele>
        <time>2017-03-19T09:56:24Z</time>
      </trkpt>
      <trkpt lat="44.28184" lon="6.09436">
        <ele>1678.12</ele>
        <time>2017-03-19T09:56:26Z</time>
      </trkpt>
      <trkpt lat="44.28178" lon="6.09444">
        <ele>1679.08</ele>
        <time>2017-03-19T09:56:34Z</time>
      </trkpt>
      <trkpt lat="44.28167" lon="6.09451">
        <ele>1682.44</ele>
        <time>2017-03-19T09:56:46Z</time>
      </trkpt>
      <trkpt lat="44.28166" lon="6.09454">
        <ele>1683.89</ele>
        <time>2017-03-19T09:56:49Z</time>
      </trkpt>
      <trkpt lat="44.28165" lon="6.09466">
        <ele>1684.85</ele>
        <time>2017-03-19T09:57:03Z</time>
      </trkpt>
      <trkpt lat="44.2816" lon="6.09475">
        <ele>1687.73</ele>
        <time>2017-03-19T09:57:14Z</time>
      </trkpt>
      <trkpt lat="44.28159" lon="6.09476">
        <ele>1687.73</ele>
        <time>2017-03-19T09:57:15Z</time>
      </trkpt>
      <trkpt lat="44.28154" lon="6.09488">
        <ele>1688.69</ele>
        <time>2017-03-19T09:57:29Z</time>
      </trkpt>
      <trkpt lat="44.28152" lon="6.09486">
        <ele>1687.25</ele>
        <time>2017-03-19T09:57:35Z</time>
      </trkpt>
      <trkpt lat="44.28152" lon="6.09486">
        <ele>1688.21</ele>
        <time>2017-03-19T09:57:42Z</time>
      </trkpt>
      <trkpt lat="44.28151" lon="6.09486">
        <ele>1688.21</ele>
        <time>2017-03-19T09:57:44Z</time>
      </trkpt>
      <trkpt lat="44.2815" lon="6.09489">
        <ele>1689.17</ele>
        <time>2017-03-19T09:57:46Z</time>
      </trkpt>
      <trkpt lat="44.28148" lon="6.09501">
        <ele>1692.06</ele>
        <time>2017-03-19T09:57:58Z</time>
      </trkpt>
      <trkpt lat="44.28145" lon="6.09514">
        <ele>1693.02</ele>
        <time>2017-03-19T09:58:09Z</time>
      </trkpt>
      <trkpt lat="44.28141" lon="6.09527">
        <ele>1695.42</ele>
        <time>2017-03-19T09:58:22Z</time>
      </trkpt>
      <trkpt lat="44.28144" lon="6.0954">
        <ele>1696.86</ele>
        <time>2017-03-19T09:58:37Z</time>
      </trkpt>
      <trkpt lat="44.28145" lon="6.09539">
        <ele>1695.9</ele>
        <time>2017-03-19T09:58:43Z</time>
      </trkpt>
      <trkpt lat="44.28145" lon="6.09538">
        <ele>1696.86</ele>
        <time>2017-03-19T09:58:46Z</time>
      </trkpt>
      <trkpt lat="44.28144" lon="6.09546">
        <ele>1696.86</ele>
        <time>2017-03-19T09:59:02Z</time>
      </trkpt>
      <trkpt lat="44.28143" lon="6.09547">
        <ele>1696.86</ele>
        <time>2017-03-19T09:59:03Z</time>
      </trkpt>
      <trkpt lat="44.28131" lon="6.09558">
        <ele>1694.46</ele>
        <time>2017-03-19T09:59:18Z</time>
      </trkpt>
      <trkpt lat="44.28128" lon="6.09562">
        <ele>1695.9</ele>
        <time>2017-03-19T09:59:22Z</time>
      </trkpt>
      <trkpt lat="44.28118" lon="6.09572">
        <ele>1697.83</ele>
        <time>2017-03-19T09:59:38Z</time>
      </trkpt>
      <trkpt lat="44.28106" lon="6.09582">
        <ele>1699.75</ele>
        <time>2017-03-19T09:59:56Z</time>
      </trkpt>
      <trkpt lat="44.28098" lon="6.09597">
        <ele>1700.71</ele>
        <time>2017-03-19T10:00:13Z</time>
      </trkpt>
      <trkpt lat="44.28091" lon="6.09613">
        <ele>1702.63</ele>
        <time>2017-03-19T10:00:30Z</time>
      </trkpt>
      <trkpt lat="44.28084" lon="6.09618">
        <ele>1703.59</ele>
        <time>2017-03-19T10:00:43Z</time>
      </trkpt>
      <trkpt lat="44.28083" lon="6.09622">
        <ele>1703.59</ele>
        <time>2017-03-19T10:00:46Z</time>
      </trkpt>
      <trkpt lat="44.28076" lon="6.09636">
        <ele>1704.07</ele>
        <time>2017-03-19T10:01:01Z</time>
      </trkpt>
      <trkpt lat="44.28071" lon="6.09645">
        <ele>1704.55</ele>
        <time>2017-03-19T10:01:11Z</time>
      </trkpt>
      <trkpt lat="44.2807" lon="6.09653">
        <ele>1704.55</ele>
        <time>2017-03-19T10:01:27Z</time>
      </trkpt>
      <trkpt lat="44.28065" lon="6.09661">
        <ele>1705.52</ele>
        <time>2017-03-19T10:01:45Z</time>
      </trkpt>
      <trkpt lat="44.28066" lon="6.09673">
        <ele>1706.48</ele>
        <time>2017-03-19T10:02:02Z</time>
      </trkpt>
      <trkpt lat="44.28066" lon="6.09683">
        <ele>1707.92</ele>
        <time>2017-03-19T10:02:15Z</time>
      </trkpt>
      <trkpt lat="44.28063" lon="6.09686">
        <ele>1708.88</ele>
        <time>2017-03-19T10:02:20Z</time>
      </trkpt>
      <trkpt lat="44.28061" lon="6.09689">
        <ele>1709.36</ele>
        <time>2017-03-19T10:02:24Z</time>
      </trkpt>
      <trkpt lat="44.28056" lon="6.09697">
        <ele>1710.8</ele>
        <time>2017-03-19T10:02:33Z</time>
      </trkpt>
      <trkpt lat="44.28053" lon="6.09702">
        <ele>1710.8</ele>
        <time>2017-03-19T10:02:39Z</time>
      </trkpt>
      <trkpt lat="44.28049" lon="6.09704">
        <ele>1711.28</ele>
        <time>2017-03-19T10:02:44Z</time>
      </trkpt>
      <trkpt lat="44.2804" lon="6.09716">
        <ele>1713.69</ele>
        <time>2017-03-19T10:03:00Z</time>
      </trkpt>
      <trkpt lat="44.28036" lon="6.09729">
        <ele>1715.13</ele>
        <time>2017-03-19T10:03:14Z</time>
      </trkpt>
      <trkpt lat="44.2803" lon="6.09742">
        <ele>1715.61</ele>
        <time>2017-03-19T10:03:28Z</time>
      </trkpt>
      <trkpt lat="44.28021" lon="6.09751">
        <ele>1717.05</ele>
        <time>2017-03-19T10:03:42Z</time>
      </trkpt>
      <trkpt lat="44.2802" lon="6.09758">
        <ele>1720.42</ele>
        <time>2017-03-19T10:03:51Z</time>
      </trkpt>
      <trkpt lat="44.28019" lon="6.09764">
        <ele>1720.42</ele>
        <time>2017-03-19T10:04:11Z</time>
      </trkpt>
      <trkpt lat="44.28019" lon="6.09764">
        <ele>1720.42</ele>
        <time>2017-03-19T10:04:12Z</time>
      </trkpt>
      <trkpt lat="44.28014" lon="6.09776">
        <ele>1721.38</ele>
        <time>2017-03-19T10:04:27Z</time>
      </trkpt>
      <trkpt lat="44.28014" lon="6.09776">
        <ele>1721.86</ele>
        <time>2017-03-19T10:04:28Z</time>
      </trkpt>
      <trkpt lat="44.28006" lon="6.09785">
        <ele>1723.3</ele>
        <time>2017-03-19T10:04:42Z</time>
      </trkpt>
      <trkpt lat="44.27998" lon="6.09798">
        <ele>1725.22</ele>
        <time>2017-03-19T10:04:59Z</time>
      </trkpt>
      <trkpt lat="44.27986" lon="6.09804">
        <ele>1727.63</ele>
        <time>2017-03-19T10:05:18Z</time>
      </trkpt>
      <trkpt lat="44.27987" lon="6.09806">
        <ele>1726.67</ele>
        <time>2017-03-19T10:05:22Z</time>
      </trkpt>
      <trkpt lat="44.27986" lon="6.09805">
        <ele>1728.11</ele>
        <time>2017-03-19T10:05:27Z</time>
      </trkpt>
      <trkpt lat="44.27983" lon="6.09809">
        <ele>1727.63</ele>
        <time>2017-03-19T10:05:41Z</time>
      </trkpt>
      <trkpt lat="44.27975" lon="6.09821">
        <ele>1729.55</ele>
        <time>2017-03-19T10:05:54Z</time>
      </trkpt>
      <trkpt lat="44.27966" lon="6.09833">
        <ele>1730.99</ele>
        <time>2017-03-19T10:06:10Z</time>
      </trkpt>
      <trkpt lat="44.27955" lon="6.09846">
        <ele>1731.47</ele>
        <time>2017-03-19T10:06:26Z</time>
      </trkpt>
      <trkpt lat="44.27943" lon="6.09859">
        <ele>1732.43</ele>
        <time>2017-03-19T10:06:42Z</time>
      </trkpt>
      <trkpt lat="44.27934" lon="6.09873">
        <ele>1734.84</ele>
        <time>2017-03-19T10:06:58Z</time>
      </trkpt>
      <trkpt lat="44.27924" lon="6.09883">
        <ele>1736.28</ele>
        <time>2017-03-19T10:07:14Z</time>
      </trkpt>
      <trkpt lat="44.27917" lon="6.09894">
        <ele>1737.72</ele>
        <time>2017-03-19T10:07:27Z</time>
      </trkpt>
      <trkpt lat="44.27907" lon="6.09909">
        <ele>1739.64</ele>
        <time>2017-03-19T10:07:43Z</time>
      </trkpt>
      <trkpt lat="44.27904" lon="6.0992">
        <ele>1740.6</ele>
        <time>2017-03-19T10:07:56Z</time>
      </trkpt>
      <trkpt lat="44.27903" lon="6.09921">
        <ele>1741.57</ele>
        <time>2017-03-19T10:08:07Z</time>
      </trkpt>
      <trkpt lat="44.27889" lon="6.09926">
        <ele>1743.01</ele>
        <time>2017-03-19T10:08:22Z</time>
      </trkpt>
      <trkpt lat="44.27882" lon="6.09929">
        <ele>1745.41</ele>
        <time>2017-03-19T10:08:36Z</time>
      </trkpt>
      <trkpt lat="44.27873" lon="6.0993">
        <ele>1746.37</ele>
        <time>2017-03-19T10:08:53Z</time>
      </trkpt>
      <trkpt lat="44.27863" lon="6.09936">
        <ele>1748.29</ele>
        <time>2017-03-19T10:09:08Z</time>
      </trkpt>
      <trkpt lat="44.27856" lon="6.09947">
        <ele>1751.18</ele>
        <time>2017-03-19T10:09:23Z</time>
      </trkpt>
      <trkpt lat="44.27846" lon="6.09957">
        <ele>1752.62</ele>
        <time>2017-03-19T10:09:38Z</time>
      </trkpt>
      <trkpt lat="44.27843" lon="6.09957">
        <ele>1754.06</ele>
        <time>2017-03-19T10:09:56Z</time>
      </trkpt>
      <trkpt lat="44.27839" lon="6.09966">
        <ele>1756.95</ele>
        <time>2017-03-19T10:10:13Z</time>
      </trkpt>
      <trkpt lat="44.27839" lon="6.09964">
        <ele>1756.95</ele>
        <time>2017-03-19T10:10:40Z</time>
      </trkpt>
      <trkpt lat="44.27837" lon="6.09966">
        <ele>1756.95</ele>
        <time>2017-03-19T10:11:05Z</time>
      </trkpt>
      <trkpt lat="44.27831" lon="6.09972">
        <ele>1758.87</ele>
        <time>2017-03-19T10:11:20Z</time>
      </trkpt>
      <trkpt lat="44.27825" lon="6.09983">
        <ele>1761.27</ele>
        <time>2017-03-19T10:11:34Z</time>
      </trkpt>
      <trkpt lat="44.27821" lon="6.09989">
        <ele>1762.71</ele>
        <time>2017-03-19T10:11:41Z</time>
      </trkpt>
      <trkpt lat="44.27813" lon="6.1">
        <ele>1763.2</ele>
        <time>2017-03-19T10:11:55Z</time>
      </trkpt>
      <trkpt lat="44.27809" lon="6.10009">
        <ele>1766.08</ele>
        <time>2017-03-19T10:12:09Z</time>
      </trkpt>
      <trkpt lat="44.27808" lon="6.10007">
        <ele>1766.08</ele>
        <time>2017-03-19T10:12:35Z</time>
      </trkpt>
      <trkpt lat="44.27808" lon="6.10016">
        <ele>1765.12</ele>
        <time>2017-03-19T10:12:51Z</time>
      </trkpt>
      <trkpt lat="44.27808" lon="6.10018">
        <ele>1764.64</ele>
        <time>2017-03-19T10:12:53Z</time>
      </trkpt>
      <trkpt lat="44.27804" lon="6.10024">
        <ele>1765.12</ele>
        <time>2017-03-19T10:13:04Z</time>
      </trkpt>
      <trkpt lat="44.27803" lon="6.1003">
        <ele>1762.71</ele>
        <time>2017-03-19T10:13:10Z</time>
      </trkpt>
      <trkpt lat="44.27802" lon="6.10033">
        <ele>1764.16</ele>
        <time>2017-03-19T10:13:13Z</time>
      </trkpt>
      <trkpt lat="44.27801" lon="6.10036">
        <ele>1764.16</ele>
        <time>2017-03-19T10:13:17Z</time>
      </trkpt>
      <trkpt lat="44.27796" lon="6.10054">
        <ele>1766.56</ele>
        <time>2017-03-19T10:13:32Z</time>
      </trkpt>
      <trkpt lat="44.27794" lon="6.10061">
        <ele>1765.12</ele>
        <time>2017-03-19T10:13:38Z</time>
      </trkpt>
      <trkpt lat="44.27794" lon="6.10063">
        <ele>1765.12</ele>
        <time>2017-03-19T10:13:39Z</time>
      </trkpt>
      <trkpt lat="44.27791" lon="6.10071">
        <ele>1764.16</ele>
        <time>2017-03-19T10:13:45Z</time>
      </trkpt>
      <trkpt lat="44.27789" lon="6.10085">
        <ele>1765.12</ele>
        <time>2017-03-19T10:13:56Z</time>
      </trkpt>
      <trkpt lat="44.27786" lon="6.10089">
        <ele>1764.16</ele>
        <time>2017-03-19T10:14:00Z</time>
      </trkpt>
      <trkpt lat="44.27781" lon="6.10101">
        <ele>1765.6</ele>
        <time>2017-03-19T10:14:11Z</time>
      </trkpt>
      <trkpt lat="44.2778" lon="6.10106">
        <ele>1766.08</ele>
        <time>2017-03-19T10:14:15Z</time>
      </trkpt>
      <trkpt lat="44.27777" lon="6.10117">
        <ele>1766.08</ele>
        <time>2017-03-19T10:14:33Z</time>
      </trkpt>
      <trkpt lat="44.27779" lon="6.10119">
        <ele>1766.08</ele>
        <time>2017-03-19T10:14:46Z</time>
      </trkpt>
      <trkpt lat="44.27774" lon="6.10119">
        <ele>1766.08</ele>
        <time>2017-03-19T10:14:59Z</time>
      </trkpt>
      <trkpt lat="44.27775" lon="6.10118">
        <ele>1766.56</ele>
        <time>2017-03-19T10:15:17Z</time>
      </trkpt>
      <trkpt lat="44.27776" lon="6.10117">
        <ele>1766.56</ele>
        <time>2017-03-19T10:15:30Z</time>
      </trkpt>
      <trkpt lat="44.27766" lon="6.10131">
        <ele>1768</ele>
        <time>2017-03-19T10:15:46Z</time>
      </trkpt>
      <trkpt lat="44.27758" lon="6.10147">
        <ele>1769.92</ele>
        <time>2017-03-19T10:16:02Z</time>
      </trkpt>
      <trkpt lat="44.27751" lon="6.10159">
        <ele>1770.41</ele>
        <time>2017-03-19T10:16:15Z</time>
      </trkpt>
      <trkpt lat="44.27748" lon="6.10172">
        <ele>1772.33</ele>
        <time>2017-03-19T10:16:29Z</time>
      </trkpt>
      <trkpt lat="44.27747" lon="6.10181">
        <ele>1774.73</ele>
        <time>2017-03-19T10:16:43Z</time>
      </trkpt>
      <trkpt lat="44.27746" lon="6.10194">
        <ele>1776.65</ele>
        <time>2017-03-19T10:16:56Z</time>
      </trkpt>
      <trkpt lat="44.27744" lon="6.10204">
        <ele>1779.54</ele>
        <time>2017-03-19T10:17:10Z</time>
      </trkpt>
      <trkpt lat="44.27735" lon="6.1021">
        <ele>1780.98</ele>
        <time>2017-03-19T10:17:24Z</time>
      </trkpt>
      <trkpt lat="44.27732" lon="6.10223">
        <ele>1782.42</ele>
        <time>2017-03-19T10:17:38Z</time>
      </trkpt>
      <trkpt lat="44.27727" lon="6.10238">
        <ele>1784.34</ele>
        <time>2017-03-19T10:17:54Z</time>
      </trkpt>
      <trkpt lat="44.27722" lon="6.10247">
        <ele>1786.27</ele>
        <time>2017-03-19T10:18:08Z</time>
      </trkpt>
      <trkpt lat="44.27715" lon="6.10253">
        <ele>1788.67</ele>
        <time>2017-03-19T10:18:23Z</time>
      </trkpt>
      <trkpt lat="44.27711" lon="6.10257">
        <ele>1790.59</ele>
        <time>2017-03-19T10:18:40Z</time>
      </trkpt>
      <trkpt lat="44.27708" lon="6.10259">
        <ele>1791.07</ele>
        <time>2017-03-19T10:18:58Z</time>
      </trkpt>
      <trkpt lat="44.27706" lon="6.10265">
        <ele>1794.44</ele>
        <time>2017-03-19T10:19:10Z</time>
      </trkpt>
      <trkpt lat="44.277" lon="6.10272">
        <ele>1796.36</ele>
        <time>2017-03-19T10:19:25Z</time>
      </trkpt>
      <trkpt lat="44.27698" lon="6.10278">
        <ele>1798.28</ele>
        <time>2017-03-19T10:19:36Z</time>
      </trkpt>
      <trkpt lat="44.27696" lon="6.10289">
        <ele>1800.69</ele>
        <time>2017-03-19T10:19:50Z</time>
      </trkpt>
      <trkpt lat="44.27697" lon="6.10289">
        <ele>1802.13</ele>
        <time>2017-03-19T10:20:11Z</time>
      </trkpt>
      <trkpt lat="44.27691" lon="6.103">
        <ele>1802.61</ele>
        <time>2017-03-19T10:20:28Z</time>
      </trkpt>
      <trkpt lat="44.2769" lon="6.10304">
        <ele>1804.05</ele>
        <time>2017-03-19T10:20:31Z</time>
      </trkpt>
      <trkpt lat="44.27691" lon="6.10309">
        <ele>1805.01</ele>
        <time>2017-03-19T10:20:35Z</time>
      </trkpt>
      <trkpt lat="44.27692" lon="6.10316">
        <ele>1805.97</ele>
        <time>2017-03-19T10:20:40Z</time>
      </trkpt>
      <trkpt lat="44.27693" lon="6.10319">
        <ele>1806.94</ele>
        <time>2017-03-19T10:20:42Z</time>
      </trkpt>
      <trkpt lat="44.27695" lon="6.10337">
        <ele>1807.9</ele>
        <time>2017-03-19T10:20:57Z</time>
      </trkpt>
      <trkpt lat="44.27697" lon="6.10346">
        <ele>1809.82</ele>
        <time>2017-03-19T10:21:12Z</time>
      </trkpt>
      <trkpt lat="44.27702" lon="6.10355">
        <ele>1811.26</ele>
        <time>2017-03-19T10:21:26Z</time>
      </trkpt>
      <trkpt lat="44.27705" lon="6.1036">
        <ele>1813.18</ele>
        <time>2017-03-19T10:21:39Z</time>
      </trkpt>
      <trkpt lat="44.27702" lon="6.10364">
        <ele>1815.11</ele>
        <time>2017-03-19T10:21:51Z</time>
      </trkpt>
      <trkpt lat="44.27699" lon="6.10366">
        <ele>1816.07</ele>
        <time>2017-03-19T10:22:10Z</time>
      </trkpt>
      <trkpt lat="44.27701" lon="6.1037">
        <ele>1818.47</ele>
        <time>2017-03-19T10:22:22Z</time>
      </trkpt>
      <trkpt lat="44.27702" lon="6.10374">
        <ele>1820.39</ele>
        <time>2017-03-19T10:22:36Z</time>
      </trkpt>
      <trkpt lat="44.27703" lon="6.10377">
        <ele>1817.99</ele>
        <time>2017-03-19T10:22:39Z</time>
      </trkpt>
      <trkpt lat="44.27704" lon="6.1038">
        <ele>1819.91</ele>
        <time>2017-03-19T10:22:42Z</time>
      </trkpt>
      <trkpt lat="44.27703" lon="6.1039">
        <ele>1818.47</ele>
        <time>2017-03-19T10:22:50Z</time>
      </trkpt>
      <trkpt lat="44.27704" lon="6.10392">
        <ele>1819.43</ele>
        <time>2017-03-19T10:22:52Z</time>
      </trkpt>
      <trkpt lat="44.27708" lon="6.10399">
        <ele>1819.91</ele>
        <time>2017-03-19T10:23:05Z</time>
      </trkpt>
      <trkpt lat="44.2771" lon="6.10401">
        <ele>1818.47</ele>
        <time>2017-03-19T10:23:14Z</time>
      </trkpt>
      <trkpt lat="44.27711" lon="6.10403">
        <ele>1818.95</ele>
        <time>2017-03-19T10:23:38Z</time>
      </trkpt>
      <trkpt lat="44.2771" lon="6.10405">
        <ele>1818.95</ele>
        <time>2017-03-19T10:24:16Z</time>
      </trkpt>
      <trkpt lat="44.27712" lon="6.10403">
        <ele>1818.95</ele>
        <time>2017-03-19T10:24:54Z</time>
      </trkpt>
      <trkpt lat="44.27709" lon="6.10402">
        <ele>1821.35</ele>
        <time>2017-03-19T10:24:58Z</time>
      </trkpt>
      <trkpt lat="44.27709" lon="6.10401">
        <ele>1820.87</ele>
        <time>2017-03-19T10:25:03Z</time>
      </trkpt>
      <trkpt lat="44.27708" lon="6.10404">
        <ele>1818.47</ele>
        <time>2017-03-19T10:25:13Z</time>
      </trkpt>
      <trkpt lat="44.27707" lon="6.1041">
        <ele>1820.87</ele>
        <time>2017-03-19T10:25:18Z</time>
      </trkpt>
      <trkpt lat="44.27706" lon="6.10419">
        <ele>1819.43</ele>
        <time>2017-03-19T10:25:31Z</time>
      </trkpt>
      <trkpt lat="44.27705" lon="6.10423">
        <ele>1822.32</ele>
        <time>2017-03-19T10:25:34Z</time>
      </trkpt>
      <trkpt lat="44.27705" lon="6.10426">
        <ele>1819.91</ele>
        <time>2017-03-19T10:25:36Z</time>
      </trkpt>
      <trkpt lat="44.27703" lon="6.10431">
        <ele>1821.35</ele>
        <time>2017-03-19T10:25:40Z</time>
      </trkpt>
      <trkpt lat="44.27698" lon="6.10443">
        <ele>1823.76</ele>
        <time>2017-03-19T10:25:53Z</time>
      </trkpt>
      <trkpt lat="44.27692" lon="6.10449">
        <ele>1821.35</ele>
        <time>2017-03-19T10:26:03Z</time>
      </trkpt>
      <trkpt lat="44.27687" lon="6.10463">
        <ele>1821.84</ele>
        <time>2017-03-19T10:26:17Z</time>
      </trkpt>
      <trkpt lat="44.27687" lon="6.10464">
        <ele>1821.84</ele>
        <time>2017-03-19T10:26:18Z</time>
      </trkpt>
      <trkpt lat="44.27687" lon="6.10464">
        <ele>1823.76</ele>
        <time>2017-03-19T10:26:19Z</time>
      </trkpt>
      <trkpt lat="44.27685" lon="6.10466">
        <ele>1825.2</ele>
        <time>2017-03-19T10:26:21Z</time>
      </trkpt>
      <trkpt lat="44.27678" lon="6.10477">
        <ele>1828.08</ele>
        <time>2017-03-19T10:26:36Z</time>
      </trkpt>
      <trkpt lat="44.27676" lon="6.10477">
        <ele>1828.08</ele>
        <time>2017-03-19T10:26:53Z</time>
      </trkpt>
      <trkpt lat="44.27677" lon="6.10477">
        <ele>1826.64</ele>
        <time>2017-03-19T10:26:56Z</time>
      </trkpt>
      <trkpt lat="44.27677" lon="6.10477">
        <ele>1828.56</ele>
        <time>2017-03-19T10:27:15Z</time>
      </trkpt>
      <trkpt lat="44.27677" lon="6.10477">
        <ele>1825.68</ele>
        <time>2017-03-19T10:27:18Z</time>
      </trkpt>
      <trkpt lat="44.27671" lon="6.1048">
        <ele>1829.53</ele>
        <time>2017-03-19T10:27:29Z</time>
      </trkpt>
      <trkpt lat="44.27662" lon="6.10483">
        <ele>1831.45</ele>
        <time>2017-03-19T10:27:45Z</time>
      </trkpt>
      <trkpt lat="44.27656" lon="6.10486">
        <ele>1834.81</ele>
        <time>2017-03-19T10:27:59Z</time>
      </trkpt>
      <trkpt lat="44.27649" lon="6.10484">
        <ele>1838.18</ele>
        <time>2017-03-19T10:28:14Z</time>
      </trkpt>
      <trkpt lat="44.27641" lon="6.10486">
        <ele>1840.58</ele>
        <time>2017-03-19T10:28:31Z</time>
      </trkpt>
      <trkpt lat="44.27634" lon="6.10489">
        <ele>1843.95</ele>
        <time>2017-03-19T10:28:45Z</time>
      </trkpt>
      <trkpt lat="44.27633" lon="6.10491">
        <ele>1844.91</ele>
        <time>2017-03-19T10:29:03Z</time>
      </trkpt>
      <trkpt lat="44.27633" lon="6.10493">
        <ele>1844.91</ele>
        <time>2017-03-19T10:29:36Z</time>
      </trkpt>
      <trkpt lat="44.27631" lon="6.10494">
        <ele>1845.39</ele>
        <time>2017-03-19T10:29:53Z</time>
      </trkpt>
      <trkpt lat="44.27626" lon="6.10501">
        <ele>1848.75</ele>
        <time>2017-03-19T10:30:08Z</time>
      </trkpt>
      <trkpt lat="44.27617" lon="6.10503">
        <ele>1851.16</ele>
        <time>2017-03-19T10:30:23Z</time>
      </trkpt>
      <trkpt lat="44.27612" lon="6.10503">
        <ele>1854.04</ele>
        <time>2017-03-19T10:30:33Z</time>
      </trkpt>
      <trkpt lat="44.27611" lon="6.10503">
        <ele>1854.04</ele>
        <time>2017-03-19T10:30:34Z</time>
      </trkpt>
      <trkpt lat="44.27604" lon="6.105">
        <ele>1856.92</ele>
        <time>2017-03-19T10:30:48Z</time>
      </trkpt>
      <trkpt lat="44.276" lon="6.10499">
        <ele>1857.89</ele>
        <time>2017-03-19T10:31:10Z</time>
      </trkpt>
      <trkpt lat="44.27596" lon="6.10499">
        <ele>1859.33</ele>
        <time>2017-03-19T10:31:15Z</time>
      </trkpt>
      <trkpt lat="44.27583" lon="6.10505">
        <ele>1859.81</ele>
        <time>2017-03-19T10:31:30Z</time>
      </trkpt>
      <trkpt lat="44.27577" lon="6.10507">
        <ele>1860.77</ele>
        <time>2017-03-19T10:31:37Z</time>
      </trkpt>
      <trkpt lat="44.27566" lon="6.10511">
        <ele>1865.09</ele>
        <time>2017-03-19T10:31:52Z</time>
      </trkpt>
      <trkpt lat="44.27566" lon="6.10511">
        <ele>1863.17</ele>
        <time>2017-03-19T10:31:56Z</time>
      </trkpt>
      <trkpt lat="44.27565" lon="6.10508">
        <ele>1860.29</ele>
        <time>2017-03-19T10:32:17Z</time>
      </trkpt>
      <trkpt lat="44.27565" lon="6.10508">
        <ele>1860.29</ele>
        <time>2017-03-19T10:32:18Z</time>
      </trkpt>
      <trkpt lat="44.27564" lon="6.10508">
        <ele>1862.21</ele>
        <time>2017-03-19T10:32:22Z</time>
      </trkpt>
      <trkpt lat="44.27552" lon="6.10515">
        <ele>1863.65</ele>
        <time>2017-03-19T10:32:35Z</time>
      </trkpt>
      <trkpt lat="44.27538" lon="6.10524">
        <ele>1865.58</ele>
        <time>2017-03-19T10:32:52Z</time>
      </trkpt>
      <trkpt lat="44.27526" lon="6.10532">
        <ele>1867.5</ele>
        <time>2017-03-19T10:33:06Z</time>
      </trkpt>
      <trkpt lat="44.27525" lon="6.10534">
        <ele>1866.54</ele>
        <time>2017-03-19T10:33:09Z</time>
      </trkpt>
      <trkpt lat="44.27523" lon="6.10536">
        <ele>1868.46</ele>
        <time>2017-03-19T10:33:12Z</time>
      </trkpt>
      <trkpt lat="44.27523" lon="6.10536">
        <ele>1864.13</ele>
        <time>2017-03-19T10:33:13Z</time>
      </trkpt>
      <trkpt lat="44.27523" lon="6.10536">
        <ele>1868.46</ele>
        <time>2017-03-19T10:33:14Z</time>
      </trkpt>
      <trkpt lat="44.27523" lon="6.10536">
        <ele>1869.42</ele>
        <time>2017-03-19T10:33:16Z</time>
      </trkpt>
      <trkpt lat="44.27523" lon="6.10538">
        <ele>1866.54</ele>
        <time>2017-03-19T10:33:18Z</time>
      </trkpt>
      <trkpt lat="44.27522" lon="6.10538">
        <ele>1863.17</ele>
        <time>2017-03-19T10:33:21Z</time>
      </trkpt>
      <trkpt lat="44.27522" lon="6.10538">
        <ele>1863.17</ele>
        <time>2017-03-19T10:33:22Z</time>
      </trkpt>
      <trkpt lat="44.27522" lon="6.10539">
        <ele>1866.54</ele>
        <time>2017-03-19T10:33:35Z</time>
      </trkpt>
      <trkpt lat="44.27517" lon="6.10544">
        <ele>1867.5</ele>
        <time>2017-03-19T10:33:42Z</time>
      </trkpt>
      <trkpt lat="44.27516" lon="6.10545">
        <ele>1867.5</ele>
        <time>2017-03-19T10:33:43Z</time>
      </trkpt>
      <trkpt lat="44.27515" lon="6.10546">
        <ele>1868.46</ele>
        <time>2017-03-19T10:33:45Z</time>
      </trkpt>
      <trkpt lat="44.27512" lon="6.10548">
        <ele>1867.5</ele>
        <time>2017-03-19T10:33:48Z</time>
      </trkpt>
      <trkpt lat="44.2751" lon="6.1055">
        <ele>1867.5</ele>
        <time>2017-03-19T10:33:50Z</time>
      </trkpt>
      <trkpt lat="44.27504" lon="6.10555">
        <ele>1868.94</ele>
        <time>2017-03-19T10:33:57Z</time>
      </trkpt>
      <trkpt lat="44.27492" lon="6.1056">
        <ele>1868.94</ele>
        <time>2017-03-19T10:34:13Z</time>
      </trkpt>
      <trkpt lat="44.27489" lon="6.10562">
        <ele>1870.86</ele>
        <time>2017-03-19T10:34:17Z</time>
      </trkpt>
      <trkpt lat="44.27477" lon="6.10569">
        <ele>1874.23</ele>
        <time>2017-03-19T10:34:33Z</time>
      </trkpt>
      <trkpt lat="44.27465" lon="6.10575">
        <ele>1876.63</ele>
        <time>2017-03-19T10:34:49Z</time>
      </trkpt>
      <trkpt lat="44.27456" lon="6.1058">
        <ele>1878.55</ele>
        <time>2017-03-19T10:35:01Z</time>
      </trkpt>
      <trkpt lat="44.27451" lon="6.1058">
        <ele>1880.96</ele>
        <time>2017-03-19T10:35:15Z</time>
      </trkpt>
      <trkpt lat="44.27442" lon="6.10584">
        <ele>1881.44</ele>
        <time>2017-03-19T10:35:30Z</time>
      </trkpt>
      <trkpt lat="44.27439" lon="6.10587">
        <ele>1880</ele>
        <time>2017-03-19T10:35:36Z</time>
      </trkpt>
      <trkpt lat="44.27436" lon="6.10592">
        <ele>1882.4</ele>
        <time>2017-03-19T10:35:46Z</time>
      </trkpt>
      <trkpt lat="44.27435" lon="6.10593">
        <ele>1880.96</ele>
        <time>2017-03-19T10:35:50Z</time>
      </trkpt>
      <trkpt lat="44.27435" lon="6.10593">
        <ele>1882.88</ele>
        <time>2017-03-19T10:36:00Z</time>
      </trkpt>
      <trkpt lat="44.27435" lon="6.10593">
        <ele>1881.44</ele>
        <time>2017-03-19T10:36:06Z</time>
      </trkpt>
      <trkpt lat="44.27435" lon="6.10585">
        <ele>1881.44</ele>
        <time>2017-03-19T10:36:31Z</time>
      </trkpt>
      <trkpt lat="44.27436" lon="6.10588">
        <ele>1879.03</ele>
        <time>2017-03-19T10:36:58Z</time>
      </trkpt>
      <trkpt lat="44.27436" lon="6.1059">
        <ele>1878.55</ele>
        <time>2017-03-19T10:37:00Z</time>
      </trkpt>
      <trkpt lat="44.27436" lon="6.10591">
        <ele>1882.4</ele>
        <time>2017-03-19T10:37:05Z</time>
      </trkpt>
      <trkpt lat="44.27435" lon="6.10591">
        <ele>1882.4</ele>
        <time>2017-03-19T10:37:06Z</time>
      </trkpt>
      <trkpt lat="44.27433" lon="6.10586">
        <ele>1880</ele>
        <time>2017-03-19T10:37:15Z</time>
      </trkpt>
      <trkpt lat="44.27432" lon="6.10586">
        <ele>1879.51</ele>
        <time>2017-03-19T10:37:27Z</time>
      </trkpt>
      <trkpt lat="44.27431" lon="6.10584">
        <ele>1880</ele>
        <time>2017-03-19T10:37:46Z</time>
      </trkpt>
      <trkpt lat="44.2743" lon="6.10586">
        <ele>1879.03</ele>
        <time>2017-03-19T10:38:07Z</time>
      </trkpt>
      <trkpt lat="44.27429" lon="6.10587">
        <ele>1879.03</ele>
        <time>2017-03-19T10:38:33Z</time>
      </trkpt>
      <trkpt lat="44.2743" lon="6.10587">
        <ele>1878.55</ele>
        <time>2017-03-19T10:39:00Z</time>
      </trkpt>
      <trkpt lat="44.27433" lon="6.10588">
        <ele>1878.55</ele>
        <time>2017-03-19T10:39:23Z</time>
      </trkpt>
      <trkpt lat="44.27434" lon="6.1059">
        <ele>1878.55</ele>
        <time>2017-03-19T10:39:49Z</time>
      </trkpt>
      <trkpt lat="44.27433" lon="6.10588">
        <ele>1878.55</ele>
        <time>2017-03-19T10:40:11Z</time>
      </trkpt>
      <trkpt lat="44.27433" lon="6.10586">
        <ele>1878.55</ele>
        <time>2017-03-19T10:40:32Z</time>
      </trkpt>
      <trkpt lat="44.27433" lon="6.10586">
        <ele>1878.55</ele>
        <time>2017-03-19T10:40:53Z</time>
      </trkpt>
      <trkpt lat="44.27433" lon="6.10586">
        <ele>1878.55</ele>
        <time>2017-03-19T10:41:19Z</time>
      </trkpt>
      <trkpt lat="44.27434" lon="6.10588">
        <ele>1878.55</ele>
        <time>2017-03-19T10:41:45Z</time>
      </trkpt>
      <trkpt lat="44.27434" lon="6.1059">
        <ele>1879.03</ele>
        <time>2017-03-19T10:42:13Z</time>
      </trkpt>
      <trkpt lat="44.27435" lon="6.10589">
        <ele>1879.03</ele>
        <time>2017-03-19T10:42:46Z</time>
      </trkpt>
      <trkpt lat="44.27434" lon="6.10588">
        <ele>1879.03</ele>
        <time>2017-03-19T10:43:24Z</time>
      </trkpt>
      <trkpt lat="44.27433" lon="6.1059">
        <ele>1879.51</ele>
        <time>2017-03-19T10:44:04Z</time>
      </trkpt>
      <trkpt lat="44.27433" lon="6.10591">
        <ele>1879.03</ele>
        <time>2017-03-19T10:44:44Z</time>
      </trkpt>
      <trkpt lat="44.27433" lon="6.10591">
        <ele>1879.03</ele>
        <time>2017-03-19T10:45:20Z</time>
      </trkpt>
      <trkpt lat="44.27433" lon="6.10591">
        <ele>1879.51</ele>
        <time>2017-03-19T10:45:55Z</time>
      </trkpt>
      <trkpt lat="44.27432" lon="6.10594">
        <ele>1879.51</ele>
        <time>2017-03-19T10:46:25Z</time>
      </trkpt>
      <trkpt lat="44.27432" lon="6.10592">
        <ele>1879.03</ele>
        <time>2017-03-19T10:46:52Z</time>
      </trkpt>
      <trkpt lat="44.27433" lon="6.1059">
        <ele>1879.03</ele>
        <time>2017-03-19T10:47:22Z</time>
      </trkpt>
      <trkpt lat="44.27431" lon="6.10585">
        <ele>1879.03</ele>
        <time>2017-03-19T10:47:54Z</time>
      </trkpt>
      <trkpt lat="44.2743" lon="6.10582">
        <ele>1879.51</ele>
        <time>2017-03-19T10:48:29Z</time>
      </trkpt>
      <trkpt lat="44.2743" lon="6.10585">
        <ele>1879.51</ele>
        <time>2017-03-19T10:48:56Z</time>
      </trkpt>
      <trkpt lat="44.27431" lon="6.10586">
        <ele>1879.51</ele>
        <time>2017-03-19T10:49:25Z</time>
      </trkpt>
      <trkpt lat="44.27431" lon="6.10586">
        <ele>1880</ele>
        <time>2017-03-19T10:49:53Z</time>
      </trkpt>
      <trkpt lat="44.27431" lon="6.10586">
        <ele>1880</ele>
        <time>2017-03-19T10:50:27Z</time>
      </trkpt>
      <trkpt lat="44.27431" lon="6.10586">
        <ele>1880</ele>
        <time>2017-03-19T10:51:01Z</time>
      </trkpt>
      <trkpt lat="44.27431" lon="6.10585">
        <ele>1880.48</ele>
        <time>2017-03-19T10:51:33Z</time>
      </trkpt>
      <trkpt lat="44.27431" lon="6.10586">
        <ele>1880.48</ele>
        <time>2017-03-19T10:52:03Z</time>
      </trkpt>
      <trkpt lat="44.27432" lon="6.10587">
        <ele>1880.48</ele>
        <time>2017-03-19T10:52:32Z</time>
      </trkpt>
      <trkpt lat="44.27432" lon="6.10585">
        <ele>1880.96</ele>
        <time>2017-03-19T10:53:04Z</time>
      </trkpt>
      <trkpt lat="44.27431" lon="6.10585">
        <ele>1880.96</ele>
        <time>2017-03-19T10:53:33Z</time>
      </trkpt>
      <trkpt lat="44.27432" lon="6.10585">
        <ele>1881.44</ele>
        <time>2017-03-19T10:54:06Z</time>
      </trkpt>
      <trkpt lat="44.27431" lon="6.10585">
        <ele>1881.44</ele>
        <time>2017-03-19T10:54:40Z</time>
      </trkpt>
      <trkpt lat="44.27432" lon="6.10587">
        <ele>1881.44</ele>
        <time>2017-03-19T10:55:20Z</time>
      </trkpt>
      <trkpt lat="44.27432" lon="6.10587">
        <ele>1881.92</ele>
        <time>2017-03-19T10:55:56Z</time>
      </trkpt>
      <trkpt lat="44.27432" lon="6.10588">
        <ele>1881.92</ele>
        <time>2017-03-19T10:56:28Z</time>
      </trkpt>
      <trkpt lat="44.27433" lon="6.10589">
        <ele>1881.92</ele>
        <time>2017-03-19T10:57:05Z</time>
      </trkpt>
      <trkpt lat="44.27433" lon="6.10589">
        <ele>1882.4</ele>
        <time>2017-03-19T10:57:43Z</time>
      </trkpt>
      <trkpt lat="44.27432" lon="6.10589">
        <ele>1882.4</ele>
        <time>2017-03-19T10:58:19Z</time>
      </trkpt>
      <trkpt lat="44.27432" lon="6.10588">
        <ele>1883.36</ele>
        <time>2017-03-19T10:58:51Z</time>
      </trkpt>
      <trkpt lat="44.27433" lon="6.10588">
        <ele>1884.32</ele>
        <time>2017-03-19T10:59:22Z</time>
      </trkpt>
      <trkpt lat="44.27433" lon="6.10588">
        <ele>1884.32</ele>
        <time>2017-03-19T10:59:56Z</time>
      </trkpt>
      <trkpt lat="44.27432" lon="6.10587">
        <ele>1884.32</ele>
        <time>2017-03-19T11:00:24Z</time>
      </trkpt>
      <trkpt lat="44.27432" lon="6.10587">
        <ele>1884.32</ele>
        <time>2017-03-19T11:00:59Z</time>
      </trkpt>
      <trkpt lat="44.27432" lon="6.10587">
        <ele>1884.32</ele>
        <time>2017-03-19T11:01:33Z</time>
      </trkpt>
      <trkpt lat="44.27431" lon="6.10587">
        <ele>1884.8</ele>
        <time>2017-03-19T11:02:08Z</time>
      </trkpt>
      <trkpt lat="44.27432" lon="6.10587">
        <ele>1884.8</ele>
        <time>2017-03-19T11:02:38Z</time>
      </trkpt>
      <trkpt lat="44.27432" lon="6.10588">
        <ele>1884.8</ele>
        <time>2017-03-19T11:03:13Z</time>
      </trkpt>
      <trkpt lat="44.27432" lon="6.10586">
        <ele>1884.8</ele>
        <time>2017-03-19T11:03:46Z</time>
      </trkpt>
      <trkpt lat="44.27432" lon="6.10588">
        <ele>1885.28</ele>
        <time>2017-03-19T11:04:19Z</time>
      </trkpt>
      <trkpt lat="44.27432" lon="6.10587">
        <ele>1885.28</ele>
        <time>2017-03-19T11:04:48Z</time>
      </trkpt>
      <trkpt lat="44.27433" lon="6.10588">
        <ele>1885.28</ele>
        <time>2017-03-19T11:05:24Z</time>
      </trkpt>
      <trkpt lat="44.27432" lon="6.10587">
        <ele>1885.28</ele>
        <time>2017-03-19T11:05:53Z</time>
      </trkpt>
      <trkpt lat="44.27432" lon="6.10586">
        <ele>1885.28</ele>
        <time>2017-03-19T11:06:26Z</time>
      </trkpt>
      <trkpt lat="44.27432" lon="6.10587">
        <ele>1885.28</ele>
        <time>2017-03-19T11:06:58Z</time>
      </trkpt>
      <trkpt lat="44.27432" lon="6.10587">
        <ele>1885.76</ele>
        <time>2017-03-19T11:07:31Z</time>
      </trkpt>
      <trkpt lat="44.27432" lon="6.10586">
        <ele>1885.76</ele>
        <time>2017-03-19T11:08:04Z</time>
      </trkpt>
      <trkpt lat="44.27431" lon="6.10586">
        <ele>1885.76</ele>
        <time>2017-03-19T11:08:39Z</time>
      </trkpt>
      <trkpt lat="44.27431" lon="6.10585">
        <ele>1885.76</ele>
        <time>2017-03-19T11:09:11Z</time>
      </trkpt>
      <trkpt lat="44.27432" lon="6.10585">
        <ele>1885.76</ele>
        <time>2017-03-19T11:09:44Z</time>
      </trkpt>
      <trkpt lat="44.27432" lon="6.10584">
        <ele>1886.24</ele>
        <time>2017-03-19T11:10:23Z</time>
      </trkpt>
      <trkpt lat="44.27432" lon="6.10586">
        <ele>1886.24</ele>
        <time>2017-03-19T11:10:54Z</time>
      </trkpt>
      <trkpt lat="44.27431" lon="6.10585">
        <ele>1886.24</ele>
        <time>2017-03-19T11:11:27Z</time>
      </trkpt>
      <trkpt lat="44.27432" lon="6.10584">
        <ele>1886.24</ele>
        <time>2017-03-19T11:11:53Z</time>
      </trkpt>
      <trkpt lat="44.27431" lon="6.10584">
        <ele>1886.24</ele>
        <time>2017-03-19T11:12:26Z</time>
      </trkpt>
      <trkpt lat="44.27432" lon="6.10587">
        <ele>1886.24</ele>
        <time>2017-03-19T11:13:00Z</time>
      </trkpt>
      <trkpt lat="44.27432" lon="6.10586">
        <ele>1886.72</ele>
        <time>2017-03-19T11:13:38Z</time>
      </trkpt>
      <trkpt lat="44.27432" lon="6.10586">
        <ele>1886.72</ele>
        <time>2017-03-19T11:14:06Z</time>
      </trkpt>
      <trkpt lat="44.27432" lon="6.10585">
        <ele>1886.72</ele>
        <time>2017-03-19T11:14:42Z</time>
      </trkpt>
      <trkpt lat="44.27432" lon="6.10585">
        <ele>1886.72</ele>
        <time>2017-03-19T11:15:17Z</time>
      </trkpt>
      <trkpt lat="44.27431" lon="6.10585">
        <ele>1888.17</ele>
        <time>2017-03-19T11:15:44Z</time>
      </trkpt>
      <trkpt lat="44.2743" lon="6.10592">
        <ele>1888.17</ele>
        <time>2017-03-19T11:15:54Z</time>
      </trkpt>
      <trkpt lat="44.2743" lon="6.10593">
        <ele>1886.72</ele>
        <time>2017-03-19T11:15:56Z</time>
      </trkpt>
      <trkpt lat="44.27431" lon="6.10594">
        <ele>1886.72</ele>
        <time>2017-03-19T11:16:09Z</time>
      </trkpt>
      <trkpt lat="44.27432" lon="6.10594">
        <ele>1886.72</ele>
        <time>2017-03-19T11:16:34Z</time>
      </trkpt>
      <trkpt lat="44.27431" lon="6.10595">
        <ele>1888.17</ele>
        <time>2017-03-19T11:16:52Z</time>
      </trkpt>
      <trkpt lat="44.27431" lon="6.10595">
        <ele>1886.24</ele>
        <time>2017-03-19T11:16:55Z</time>
      </trkpt>
      <trkpt lat="44.27432" lon="6.10594">
        <ele>1886.72</ele>
        <time>2017-03-19T11:17:32Z</time>
      </trkpt>
      <trkpt lat="44.27432" lon="6.10594">
        <ele>1888.17</ele>
        <time>2017-03-19T11:17:56Z</time>
      </trkpt>
      <trkpt lat="44.27432" lon="6.10594">
        <ele>1887.21</ele>
        <time>2017-03-19T11:18:19Z</time>
      </trkpt>
      <trkpt lat="44.27432" lon="6.10596">
        <ele>1887.21</ele>
        <time>2017-03-19T11:18:32Z</time>
      </trkpt>
      <trkpt lat="44.27431" lon="6.10596">
        <ele>1886.72</ele>
        <time>2017-03-19T11:18:53Z</time>
      </trkpt>
      <trkpt lat="44.27433" lon="6.10594">
        <ele>1887.21</ele>
        <time>2017-03-19T11:19:05Z</time>
      </trkpt>
      <trkpt lat="44.27435" lon="6.10593">
        <ele>1887.21</ele>
        <time>2017-03-19T11:19:36Z</time>
      </trkpt>
      <trkpt lat="44.27434" lon="6.10593">
        <ele>1887.21</ele>
        <time>2017-03-19T11:20:15Z</time>
      </trkpt>
      <trkpt lat="44.27432" lon="6.10593">
        <ele>1887.69</ele>
        <time>2017-03-19T11:20:42Z</time>
      </trkpt>
      <trkpt lat="44.27433" lon="6.10593">
        <ele>1887.69</ele>
        <time>2017-03-19T11:21:04Z</time>
      </trkpt>
      <trkpt lat="44.27433" lon="6.10593">
        <ele>1886.72</ele>
        <time>2017-03-19T11:21:38Z</time>
      </trkpt>
      <trkpt lat="44.27432" lon="6.10595">
        <ele>1886.72</ele>
        <time>2017-03-19T11:21:54Z</time>
      </trkpt>
      <trkpt lat="44.27431" lon="6.10586">
        <ele>1886.72</ele>
        <time>2017-03-19T11:22:16Z</time>
      </trkpt>
      <trkpt lat="44.27432" lon="6.10584">
        <ele>1886.72</ele>
        <time>2017-03-19T11:22:28Z</time>
      </trkpt>
      <trkpt lat="44.27434" lon="6.10583">
        <ele>1886.72</ele>
        <time>2017-03-19T11:23:04Z</time>
      </trkpt>
      <trkpt lat="44.27433" lon="6.10583">
        <ele>1886.72</ele>
        <time>2017-03-19T11:23:48Z</time>
      </trkpt>
      <trkpt lat="44.27431" lon="6.10586">
        <ele>1886.72</ele>
        <time>2017-03-19T11:24:32Z</time>
      </trkpt>
      <trkpt lat="44.27432" lon="6.10587">
        <ele>1887.21</ele>
        <time>2017-03-19T11:25:14Z</time>
      </trkpt>
      <trkpt lat="44.27432" lon="6.10587">
        <ele>1887.21</ele>
        <time>2017-03-19T11:26:01Z</time>
      </trkpt>
      <trkpt lat="44.27432" lon="6.10586">
        <ele>1887.69</ele>
        <time>2017-03-19T11:26:15Z</time>
      </trkpt>
      <trkpt lat="44.27431" lon="6.10586">
        <ele>1887.69</ele>
        <time>2017-03-19T11:26:44Z</time>
      </trkpt>
      <trkpt lat="44.27432" lon="6.10584">
        <ele>1887.69</ele>
        <time>2017-03-19T11:27:10Z</time>
      </trkpt>
      <trkpt lat="44.27432" lon="6.10584">
        <ele>1888.17</ele>
        <time>2017-03-19T11:27:14Z</time>
      </trkpt>
      <trkpt lat="44.27433" lon="6.10583">
        <ele>1889.13</ele>
        <time>2017-03-19T11:27:42Z</time>
      </trkpt>
      <trkpt lat="44.27432" lon="6.10585">
        <ele>1888.17</ele>
        <time>2017-03-19T11:28:08Z</time>
      </trkpt>
      <trkpt lat="44.27433" lon="6.10594">
        <ele>1887.21</ele>
        <time>2017-03-19T11:28:23Z</time>
      </trkpt>
      <trkpt lat="44.27437" lon="6.10601">
        <ele>1889.13</ele>
        <time>2017-03-19T11:28:40Z</time>
      </trkpt>
      <trkpt lat="44.27438" lon="6.10608">
        <ele>1888.17</ele>
        <time>2017-03-19T11:28:46Z</time>
      </trkpt>
      <trkpt lat="44.27431" lon="6.10638">
        <ele>1887.69</ele>
        <time>2017-03-19T11:29:09Z</time>
      </trkpt>
      <trkpt lat="44.27423" lon="6.10661">
        <ele>1887.69</ele>
        <time>2017-03-19T11:29:27Z</time>
      </trkpt>
      <trkpt lat="44.27421" lon="6.10665">
        <ele>1887.69</ele>
        <time>2017-03-19T11:29:45Z</time>
      </trkpt>
      <trkpt lat="44.27419" lon="6.10669">
        <ele>1887.69</ele>
        <time>2017-03-19T11:30:11Z</time>
      </trkpt>
      <trkpt lat="44.2741" lon="6.10688">
        <ele>1887.69</ele>
        <time>2017-03-19T11:30:28Z</time>
      </trkpt>
      <trkpt lat="44.27402" lon="6.10706">
        <ele>1887.21</ele>
        <time>2017-03-19T11:30:45Z</time>
      </trkpt>
      <trkpt lat="44.27399" lon="6.10717">
        <ele>1886.72</ele>
        <time>2017-03-19T11:30:58Z</time>
      </trkpt>
      <trkpt lat="44.27395" lon="6.10729">
        <ele>1885.76</ele>
        <time>2017-03-19T11:31:14Z</time>
      </trkpt>
      <trkpt lat="44.27387" lon="6.10744">
        <ele>1885.76</ele>
        <time>2017-03-19T11:31:30Z</time>
      </trkpt>
      <trkpt lat="44.27376" lon="6.10756">
        <ele>1885.76</ele>
        <time>2017-03-19T11:31:47Z</time>
      </trkpt>
      <trkpt lat="44.2737" lon="6.1076">
        <ele>1885.76</ele>
        <time>2017-03-19T11:32:00Z</time>
      </trkpt>
      <trkpt lat="44.27371" lon="6.10758">
        <ele>1885.28</ele>
        <time>2017-03-19T11:32:28Z</time>
      </trkpt>
      <trkpt lat="44.27369" lon="6.10758">
        <ele>1885.28</ele>
        <time>2017-03-19T11:33:26Z</time>
      </trkpt>
      <trkpt lat="44.27371" lon="6.10759">
        <ele>1885.28</ele>
        <time>2017-03-19T11:34:13Z</time>
      </trkpt>
      <trkpt lat="44.2737" lon="6.10761">
        <ele>1885.28</ele>
        <time>2017-03-19T11:34:17Z</time>
      </trkpt>
      <trkpt lat="44.27363" lon="6.10761">
        <ele>1885.28</ele>
        <time>2017-03-19T11:34:24Z</time>
      </trkpt>
      <trkpt lat="44.2735" lon="6.10761">
        <ele>1887.69</ele>
        <time>2017-03-19T11:34:42Z</time>
      </trkpt>
      <trkpt lat="44.27344" lon="6.10763">
        <ele>1888.17</ele>
        <time>2017-03-19T11:35:00Z</time>
      </trkpt>
      <trkpt lat="44.2734" lon="6.10758">
        <ele>1888.65</ele>
        <time>2017-03-19T11:35:14Z</time>
      </trkpt>
      <trkpt lat="44.27341" lon="6.10757">
        <ele>1889.13</ele>
        <time>2017-03-19T11:35:35Z</time>
      </trkpt>
      <trkpt lat="44.27341" lon="6.10762">
        <ele>1889.13</ele>
        <time>2017-03-19T11:35:45Z</time>
      </trkpt>
      <trkpt lat="44.27341" lon="6.10765">
        <ele>1889.13</ele>
        <time>2017-03-19T11:35:47Z</time>
      </trkpt>
      <trkpt lat="44.27331" lon="6.10789">
        <ele>1889.13</ele>
        <time>2017-03-19T11:36:06Z</time>
      </trkpt>
      <trkpt lat="44.27321" lon="6.10807">
        <ele>1888.17</ele>
        <time>2017-03-19T11:36:22Z</time>
      </trkpt>
      <trkpt lat="44.27311" lon="6.10825">
        <ele>1887.21</ele>
        <time>2017-03-19T11:36:39Z</time>
      </trkpt>
      <trkpt lat="44.27302" lon="6.10845">
        <ele>1885.76</ele>
        <time>2017-03-19T11:36:56Z</time>
      </trkpt>
      <trkpt lat="44.27296" lon="6.10867">
        <ele>1883.84</ele>
        <time>2017-03-19T11:37:15Z</time>
      </trkpt>
      <trkpt lat="44.27294" lon="6.10871">
        <ele>1883.36</ele>
        <time>2017-03-19T11:37:34Z</time>
      </trkpt>
      <trkpt lat="44.27294" lon="6.10875">
        <ele>1883.84</ele>
        <time>2017-03-19T11:38:03Z</time>
      </trkpt>
      <trkpt lat="44.27294" lon="6.10874">
        <ele>1883.84</ele>
        <time>2017-03-19T11:38:37Z</time>
      </trkpt>
      <trkpt lat="44.27294" lon="6.10873">
        <ele>1883.84</ele>
        <time>2017-03-19T11:39:24Z</time>
      </trkpt>
      <trkpt lat="44.27294" lon="6.10873">
        <ele>1883.84</ele>
        <time>2017-03-19T11:40:09Z</time>
      </trkpt>
      <trkpt lat="44.27294" lon="6.10881">
        <ele>1883.84</ele>
        <time>2017-03-19T11:40:22Z</time>
      </trkpt>
      <trkpt lat="44.27291" lon="6.10898">
        <ele>1882.4</ele>
        <time>2017-03-19T11:40:35Z</time>
      </trkpt>
      <trkpt lat="44.27287" lon="6.10924">
        <ele>1880.96</ele>
        <time>2017-03-19T11:40:54Z</time>
      </trkpt>
      <trkpt lat="44.27281" lon="6.10929">
        <ele>1880</ele>
        <time>2017-03-19T11:41:07Z</time>
      </trkpt>
      <trkpt lat="44.2728" lon="6.10944">
        <ele>1879.03</ele>
        <time>2017-03-19T11:41:22Z</time>
      </trkpt>
      <trkpt lat="44.27277" lon="6.10963">
        <ele>1878.07</ele>
        <time>2017-03-19T11:41:38Z</time>
      </trkpt>
      <trkpt lat="44.27277" lon="6.10985">
        <ele>1876.63</ele>
        <time>2017-03-19T11:41:55Z</time>
      </trkpt>
      <trkpt lat="44.27277" lon="6.11001">
        <ele>1876.15</ele>
        <time>2017-03-19T11:42:10Z</time>
      </trkpt>
      <trkpt lat="44.27276" lon="6.11012">
        <ele>1875.19</ele>
        <time>2017-03-19T11:42:29Z</time>
      </trkpt>
      <trkpt lat="44.27273" lon="6.11033">
        <ele>1873.75</ele>
        <time>2017-03-19T11:42:45Z</time>
      </trkpt>
      <trkpt lat="44.27271" lon="6.11058">
        <ele>1871.82</ele>
        <time>2017-03-19T11:43:05Z</time>
      </trkpt>
      <trkpt lat="44.27268" lon="6.11077">
        <ele>1870.38</ele>
        <time>2017-03-19T11:43:19Z</time>
      </trkpt>
      <trkpt lat="44.27265" lon="6.11099">
        <ele>1868.46</ele>
        <time>2017-03-19T11:43:38Z</time>
      </trkpt>
      <trkpt lat="44.27264" lon="6.11117">
        <ele>1867.5</ele>
        <time>2017-03-19T11:43:55Z</time>
      </trkpt>
      <trkpt lat="44.27263" lon="6.11135">
        <ele>1865.58</ele>
        <time>2017-03-19T11:44:13Z</time>
      </trkpt>
      <trkpt lat="44.2726" lon="6.11148">
        <ele>1864.13</ele>
        <time>2017-03-19T11:44:30Z</time>
      </trkpt>
      <trkpt lat="44.27259" lon="6.11151">
        <ele>1864.13</ele>
        <time>2017-03-19T11:45:15Z</time>
      </trkpt>
      <trkpt lat="44.2726" lon="6.11148">
        <ele>1863.65</ele>
        <time>2017-03-19T11:45:39Z</time>
      </trkpt>
      <trkpt lat="44.27263" lon="6.1114">
        <ele>1865.09</ele>
        <time>2017-03-19T11:46:09Z</time>
      </trkpt>
      <trkpt lat="44.27263" lon="6.11125">
        <ele>1866.06</ele>
        <time>2017-03-19T11:46:24Z</time>
      </trkpt>
      <trkpt lat="44.27265" lon="6.11111">
        <ele>1867.02</ele>
        <time>2017-03-19T11:46:37Z</time>
      </trkpt>
      <trkpt lat="44.27268" lon="6.11092">
        <ele>1868.46</ele>
        <time>2017-03-19T11:46:53Z</time>
      </trkpt>
      <trkpt lat="44.27273" lon="6.11074">
        <ele>1870.38</ele>
        <time>2017-03-19T11:47:10Z</time>
      </trkpt>
      <trkpt lat="44.27275" lon="6.11065">
        <ele>1870.86</ele>
        <time>2017-03-19T11:47:18Z</time>
      </trkpt>
      <trkpt lat="44.27277" lon="6.11042">
        <ele>1872.3</ele>
        <time>2017-03-19T11:47:37Z</time>
      </trkpt>
      <trkpt lat="44.2728" lon="6.1102">
        <ele>1873.75</ele>
        <time>2017-03-19T11:47:55Z</time>
      </trkpt>
      <trkpt lat="44.27283" lon="6.11">
        <ele>1876.15</ele>
        <time>2017-03-19T11:48:12Z</time>
      </trkpt>
      <trkpt lat="44.27284" lon="6.10982">
        <ele>1877.11</ele>
        <time>2017-03-19T11:48:26Z</time>
      </trkpt>
      <trkpt lat="44.27287" lon="6.10959">
        <ele>1877.59</ele>
        <time>2017-03-19T11:48:45Z</time>
      </trkpt>
      <trkpt lat="44.27291" lon="6.10937">
        <ele>1879.51</ele>
        <time>2017-03-19T11:49:04Z</time>
      </trkpt>
      <trkpt lat="44.27294" lon="6.10918">
        <ele>1880</ele>
        <time>2017-03-19T11:49:20Z</time>
      </trkpt>
      <trkpt lat="44.27297" lon="6.10903">
        <ele>1881.44</ele>
        <time>2017-03-19T11:49:37Z</time>
      </trkpt>
      <trkpt lat="44.27299" lon="6.1089">
        <ele>1882.4</ele>
        <time>2017-03-19T11:49:53Z</time>
      </trkpt>
      <trkpt lat="44.27303" lon="6.10868">
        <ele>1884.32</ele>
        <time>2017-03-19T11:50:12Z</time>
      </trkpt>
      <trkpt lat="44.27303" lon="6.10864">
        <ele>1884.32</ele>
        <time>2017-03-19T11:50:15Z</time>
      </trkpt>
      <trkpt lat="44.2731" lon="6.10845">
        <ele>1885.76</ele>
        <time>2017-03-19T11:50:31Z</time>
      </trkpt>
      <trkpt lat="44.27324" lon="6.10832">
        <ele>1886.24</ele>
        <time>2017-03-19T11:50:51Z</time>
      </trkpt>
      <trkpt lat="44.27325" lon="6.10831">
        <ele>1885.76</ele>
        <time>2017-03-19T11:51:35Z</time>
      </trkpt>
      <trkpt lat="44.27336" lon="6.10823">
        <ele>1885.76</ele>
        <time>2017-03-19T11:51:50Z</time>
      </trkpt>
      <trkpt lat="44.27346" lon="6.10816">
        <ele>1885.76</ele>
        <time>2017-03-19T11:52:01Z</time>
      </trkpt>
      <trkpt lat="44.27347" lon="6.10808">
        <ele>1885.76</ele>
        <time>2017-03-19T11:52:06Z</time>
      </trkpt>
      <trkpt lat="44.27353" lon="6.10784">
        <ele>1886.24</ele>
        <time>2017-03-19T11:52:25Z</time>
      </trkpt>
      <trkpt lat="44.27362" lon="6.10769">
        <ele>1886.72</ele>
        <time>2017-03-19T11:52:41Z</time>
      </trkpt>
      <trkpt lat="44.2737" lon="6.10769">
        <ele>1886.24</ele>
        <time>2017-03-19T11:52:54Z</time>
      </trkpt>
      <trkpt lat="44.27378" lon="6.10766">
        <ele>1886.24</ele>
        <time>2017-03-19T11:53:02Z</time>
      </trkpt>
      <trkpt lat="44.27382" lon="6.1076">
        <ele>1885.28</ele>
        <time>2017-03-19T11:53:08Z</time>
      </trkpt>
      <trkpt lat="44.27393" lon="6.10744">
        <ele>1884.8</ele>
        <time>2017-03-19T11:53:24Z</time>
      </trkpt>
      <trkpt lat="44.27396" lon="6.10737">
        <ele>1884.8</ele>
        <time>2017-03-19T11:53:30Z</time>
      </trkpt>
      <trkpt lat="44.27399" lon="6.10732">
        <ele>1884.8</ele>
        <time>2017-03-19T11:53:35Z</time>
      </trkpt>
      <trkpt lat="44.27402" lon="6.10722">
        <ele>1886.24</ele>
        <time>2017-03-19T11:53:50Z</time>
      </trkpt>
      <trkpt lat="44.27404" lon="6.10712">
        <ele>1886.72</ele>
        <time>2017-03-19T11:54:00Z</time>
      </trkpt>
      <trkpt lat="44.27411" lon="6.10693">
        <ele>1887.69</ele>
        <time>2017-03-19T11:54:16Z</time>
      </trkpt>
      <trkpt lat="44.27423" lon="6.10672">
        <ele>1887.69</ele>
        <time>2017-03-19T11:54:35Z</time>
      </trkpt>
      <trkpt lat="44.2743" lon="6.10653">
        <ele>1887.69</ele>
        <time>2017-03-19T11:54:51Z</time>
      </trkpt>
      <trkpt lat="44.27436" lon="6.1063">
        <ele>1887.69</ele>
        <time>2017-03-19T11:55:08Z</time>
      </trkpt>
      <trkpt lat="44.27442" lon="6.10613">
        <ele>1888.65</ele>
        <time>2017-03-19T11:55:21Z</time>
      </trkpt>
      <trkpt lat="44.2745" lon="6.10603">
        <ele>1887.21</ele>
        <time>2017-03-19T11:55:33Z</time>
      </trkpt>
      <trkpt lat="44.27459" lon="6.10586">
        <ele>1886.24</ele>
        <time>2017-03-19T11:55:50Z</time>
      </trkpt>
      <trkpt lat="44.27465" lon="6.10582">
        <ele>1884.32</ele>
        <time>2017-03-19T11:55:58Z</time>
      </trkpt>
      <trkpt lat="44.27479" lon="6.10574">
        <ele>1880.96</ele>
        <time>2017-03-19T11:56:14Z</time>
      </trkpt>
      <trkpt lat="44.27491" lon="6.10566">
        <ele>1878.55</ele>
        <time>2017-03-19T11:56:30Z</time>
      </trkpt>
      <trkpt lat="44.27503" lon="6.1056">
        <ele>1876.15</ele>
        <time>2017-03-19T11:56:48Z</time>
      </trkpt>
      <trkpt lat="44.27511" lon="6.10556">
        <ele>1875.19</ele>
        <time>2017-03-19T11:56:56Z</time>
      </trkpt>
      <trkpt lat="44.2753" lon="6.1054">
        <ele>1872.79</ele>
        <time>2017-03-19T11:57:17Z</time>
      </trkpt>
      <trkpt lat="44.27547" lon="6.10528">
        <ele>1871.34</ele>
        <time>2017-03-19T11:57:34Z</time>
      </trkpt>
      <trkpt lat="44.27566" lon="6.10511">
        <ele>1869.42</ele>
        <time>2017-03-19T11:57:55Z</time>
      </trkpt>
      <trkpt lat="44.27583" lon="6.10502">
        <ele>1867.98</ele>
        <time>2017-03-19T11:58:14Z</time>
      </trkpt>
      <trkpt lat="44.276" lon="6.10503">
        <ele>1866.06</ele>
        <time>2017-03-19T11:58:33Z</time>
      </trkpt>
      <trkpt lat="44.27612" lon="6.10502">
        <ele>1863.17</ele>
        <time>2017-03-19T11:58:50Z</time>
      </trkpt>
      <trkpt lat="44.2762" lon="6.10501">
        <ele>1860.77</ele>
        <time>2017-03-19T11:59:20Z</time>
      </trkpt>
      <trkpt lat="44.27627" lon="6.105">
        <ele>1857.4</ele>
        <time>2017-03-19T11:59:34Z</time>
      </trkpt>
      <trkpt lat="44.27632" lon="6.10495">
        <ele>1855.48</ele>
        <time>2017-03-19T11:59:48Z</time>
      </trkpt>
      <trkpt lat="44.27639" lon="6.10488">
        <ele>1852.12</ele>
        <time>2017-03-19T12:00:04Z</time>
      </trkpt>
      <trkpt lat="44.27646" lon="6.10482">
        <ele>1848.75</ele>
        <time>2017-03-19T12:00:19Z</time>
      </trkpt>
      <trkpt lat="44.27654" lon="6.10482">
        <ele>1846.35</ele>
        <time>2017-03-19T12:00:34Z</time>
      </trkpt>
      <trkpt lat="44.2766" lon="6.10479">
        <ele>1843.47</ele>
        <time>2017-03-19T12:00:48Z</time>
      </trkpt>
      <trkpt lat="44.27669" lon="6.1048">
        <ele>1841.06</ele>
        <time>2017-03-19T12:01:05Z</time>
      </trkpt>
      <trkpt lat="44.27676" lon="6.10477">
        <ele>1838.18</ele>
        <time>2017-03-19T12:01:19Z</time>
      </trkpt>
      <trkpt lat="44.27683" lon="6.10471">
        <ele>1834.81</ele>
        <time>2017-03-19T12:01:31Z</time>
      </trkpt>
      <trkpt lat="44.27689" lon="6.10457">
        <ele>1833.37</ele>
        <time>2017-03-19T12:01:46Z</time>
      </trkpt>
      <trkpt lat="44.27697" lon="6.10442">
        <ele>1832.41</ele>
        <time>2017-03-19T12:02:02Z</time>
      </trkpt>
      <trkpt lat="44.27704" lon="6.10428">
        <ele>1831.93</ele>
        <time>2017-03-19T12:02:17Z</time>
      </trkpt>
      <trkpt lat="44.27706" lon="6.10425">
        <ele>1831.93</ele>
        <time>2017-03-19T12:02:21Z</time>
      </trkpt>
      <trkpt lat="44.2771" lon="6.10406">
        <ele>1829.05</ele>
        <time>2017-03-19T12:02:37Z</time>
      </trkpt>
      <trkpt lat="44.27713" lon="6.10394">
        <ele>1829.05</ele>
        <time>2017-03-19T12:02:51Z</time>
      </trkpt>
      <trkpt lat="44.27716" lon="6.10378">
        <ele>1829.05</ele>
        <time>2017-03-19T12:03:05Z</time>
      </trkpt>
      <trkpt lat="44.27719" lon="6.10366">
        <ele>1828.56</ele>
        <time>2017-03-19T12:03:20Z</time>
      </trkpt>
      <trkpt lat="44.27723" lon="6.10356">
        <ele>1827.12</ele>
        <time>2017-03-19T12:03:37Z</time>
      </trkpt>
      <trkpt lat="44.27724" lon="6.10349">
        <ele>1825.2</ele>
        <time>2017-03-19T12:03:51Z</time>
      </trkpt>
      <trkpt lat="44.27726" lon="6.10339">
        <ele>1822.8</ele>
        <time>2017-03-19T12:04:06Z</time>
      </trkpt>
      <trkpt lat="44.27725" lon="6.10333">
        <ele>1821.84</ele>
        <time>2017-03-19T12:04:18Z</time>
      </trkpt>
      <trkpt lat="44.27721" lon="6.10325">
        <ele>1818.95</ele>
        <time>2017-03-19T12:04:30Z</time>
      </trkpt>
      <trkpt lat="44.27717" lon="6.1032">
        <ele>1816.07</ele>
        <time>2017-03-19T12:04:42Z</time>
      </trkpt>
      <trkpt lat="44.27716" lon="6.10316">
        <ele>1814.63</ele>
        <time>2017-03-19T12:04:47Z</time>
      </trkpt>
      <trkpt lat="44.27714" lon="6.10312">
        <ele>1813.66</ele>
        <time>2017-03-19T12:04:50Z</time>
      </trkpt>
      <trkpt lat="44.27715" lon="6.103">
        <ele>1812.7</ele>
        <time>2017-03-19T12:05:04Z</time>
      </trkpt>
      <trkpt lat="44.27715" lon="6.103">
        <ele>1812.7</ele>
        <time>2017-03-19T12:05:08Z</time>
      </trkpt>
      <trkpt lat="44.27713" lon="6.10289">
        <ele>1811.26</ele>
        <time>2017-03-19T12:05:17Z</time>
      </trkpt>
      <trkpt lat="44.27705" lon="6.10276">
        <ele>1808.86</ele>
        <time>2017-03-19T12:05:33Z</time>
      </trkpt>
      <trkpt lat="44.27704" lon="6.10273">
        <ele>1807.42</ele>
        <time>2017-03-19T12:05:36Z</time>
      </trkpt>
      <trkpt lat="44.27708" lon="6.10265">
        <ele>1805.97</ele>
        <time>2017-03-19T12:05:52Z</time>
      </trkpt>
      <trkpt lat="44.2771" lon="6.10258">
        <ele>1802.61</ele>
        <time>2017-03-19T12:06:03Z</time>
      </trkpt>
      <trkpt lat="44.27714" lon="6.10251">
        <ele>1800.21</ele>
        <time>2017-03-19T12:06:17Z</time>
      </trkpt>
      <trkpt lat="44.2772" lon="6.10244">
        <ele>1797.8</ele>
        <time>2017-03-19T12:06:31Z</time>
      </trkpt>
      <trkpt lat="44.27726" lon="6.10234">
        <ele>1795.4</ele>
        <time>2017-03-19T12:06:46Z</time>
      </trkpt>
      <trkpt lat="44.2773" lon="6.10224">
        <ele>1793.96</ele>
        <time>2017-03-19T12:06:56Z</time>
      </trkpt>
      <trkpt lat="44.2774" lon="6.10213">
        <ele>1791.55</ele>
        <time>2017-03-19T12:07:14Z</time>
      </trkpt>
      <trkpt lat="44.27745" lon="6.10206">
        <ele>1790.11</ele>
        <time>2017-03-19T12:07:22Z</time>
      </trkpt>
      <trkpt lat="44.27753" lon="6.10187">
        <ele>1788.67</ele>
        <time>2017-03-19T12:07:41Z</time>
      </trkpt>
      <trkpt lat="44.27757" lon="6.10178">
        <ele>1785.79</ele>
        <time>2017-03-19T12:07:54Z</time>
      </trkpt>
      <trkpt lat="44.27762" lon="6.10166">
        <ele>1783.38</ele>
        <time>2017-03-19T12:08:07Z</time>
      </trkpt>
      <trkpt lat="44.27763" lon="6.10164">
        <ele>1783.38</ele>
        <time>2017-03-19T12:08:09Z</time>
      </trkpt>
      <trkpt lat="44.2777" lon="6.10144">
        <ele>1780.5</ele>
        <time>2017-03-19T12:08:26Z</time>
      </trkpt>
      <trkpt lat="44.27778" lon="6.10127">
        <ele>1778.58</ele>
        <time>2017-03-19T12:08:43Z</time>
      </trkpt>
      <trkpt lat="44.27783" lon="6.10116">
        <ele>1776.65</ele>
        <time>2017-03-19T12:09:01Z</time>
      </trkpt>
      <trkpt lat="44.27785" lon="6.10099">
        <ele>1775.21</ele>
        <time>2017-03-19T12:09:17Z</time>
      </trkpt>
      <trkpt lat="44.27788" lon="6.10088">
        <ele>1774.73</ele>
        <time>2017-03-19T12:09:27Z</time>
      </trkpt>
      <trkpt lat="44.27789" lon="6.10078">
        <ele>1774.73</ele>
        <time>2017-03-19T12:09:41Z</time>
      </trkpt>
      <trkpt lat="44.27796" lon="6.10057">
        <ele>1774.73</ele>
        <time>2017-03-19T12:09:57Z</time>
      </trkpt>
      <trkpt lat="44.27799" lon="6.10043">
        <ele>1776.17</ele>
        <time>2017-03-19T12:10:12Z</time>
      </trkpt>
      <trkpt lat="44.27805" lon="6.10027">
        <ele>1775.21</ele>
        <time>2017-03-19T12:10:29Z</time>
      </trkpt>
      <trkpt lat="44.27807" lon="6.10021">
        <ele>1774.73</ele>
        <time>2017-03-19T12:10:37Z</time>
      </trkpt>
      <trkpt lat="44.27816" lon="6.10004">
        <ele>1774.73</ele>
        <time>2017-03-19T12:10:54Z</time>
      </trkpt>
      <trkpt lat="44.27822" lon="6.09996">
        <ele>1772.81</ele>
        <time>2017-03-19T12:11:08Z</time>
      </trkpt>
      <trkpt lat="44.27825" lon="6.09992">
        <ele>1771.37</ele>
        <time>2017-03-19T12:11:17Z</time>
      </trkpt>
      <trkpt lat="44.27832" lon="6.0998">
        <ele>1770.89</ele>
        <time>2017-03-19T12:11:31Z</time>
      </trkpt>
      <trkpt lat="44.27839" lon="6.09968">
        <ele>1768</ele>
        <time>2017-03-19T12:11:48Z</time>
      </trkpt>
      <trkpt lat="44.2784" lon="6.09956">
        <ele>1768</ele>
        <time>2017-03-19T12:12:02Z</time>
      </trkpt>
      <trkpt lat="44.2785" lon="6.09944">
        <ele>1766.56</ele>
        <time>2017-03-19T12:12:17Z</time>
      </trkpt>
      <trkpt lat="44.27855" lon="6.09934">
        <ele>1765.12</ele>
        <time>2017-03-19T12:12:31Z</time>
      </trkpt>
      <trkpt lat="44.27862" lon="6.09922">
        <ele>1764.16</ele>
        <time>2017-03-19T12:12:45Z</time>
      </trkpt>
      <trkpt lat="44.27862" lon="6.09922">
        <ele>1762.71</ele>
        <time>2017-03-19T12:13:04Z</time>
      </trkpt>
      <trkpt lat="44.27862" lon="6.09922">
        <ele>1762.71</ele>
        <time>2017-03-19T12:13:47Z</time>
      </trkpt>
      <trkpt lat="44.27862" lon="6.09923">
        <ele>1762.71</ele>
        <time>2017-03-19T12:14:20Z</time>
      </trkpt>
      <trkpt lat="44.27863" lon="6.09924">
        <ele>1762.23</ele>
        <time>2017-03-19T12:14:53Z</time>
      </trkpt>
      <trkpt lat="44.27862" lon="6.09925">
        <ele>1762.23</ele>
        <time>2017-03-19T12:15:27Z</time>
      </trkpt>
      <trkpt lat="44.27862" lon="6.09924">
        <ele>1762.23</ele>
        <time>2017-03-19T12:16:05Z</time>
      </trkpt>
      <trkpt lat="44.27862" lon="6.09924">
        <ele>1763.68</ele>
        <time>2017-03-19T12:16:08Z</time>
      </trkpt>
      <trkpt lat="44.27864" lon="6.09919">
        <ele>1762.71</ele>
        <time>2017-03-19T12:16:27Z</time>
      </trkpt>
      <trkpt lat="44.27871" lon="6.09919">
        <ele>1760.31</ele>
        <time>2017-03-19T12:16:35Z</time>
      </trkpt>
      <trkpt lat="44.27882" lon="6.09919">
        <ele>1758.39</ele>
        <time>2017-03-19T12:16:45Z</time>
      </trkpt>
      <trkpt lat="44.27887" lon="6.09919">
        <ele>1757.43</ele>
        <time>2017-03-19T12:16:51Z</time>
      </trkpt>
      <trkpt lat="44.27903" lon="6.09913">
        <ele>1753.58</ele>
        <time>2017-03-19T12:17:06Z</time>
      </trkpt>
      <trkpt lat="44.27918" lon="6.09901">
        <ele>1751.18</ele>
        <time>2017-03-19T12:17:22Z</time>
      </trkpt>
      <trkpt lat="44.2793" lon="6.09886">
        <ele>1749.26</ele>
        <time>2017-03-19T12:17:38Z</time>
      </trkpt>
      <trkpt lat="44.27938" lon="6.09878">
        <ele>1748.29</ele>
        <time>2017-03-19T12:17:52Z</time>
      </trkpt>
      <trkpt lat="44.27952" lon="6.09858">
        <ele>1745.89</ele>
        <time>2017-03-19T12:18:11Z</time>
      </trkpt>
      <trkpt lat="44.27963" lon="6.09842">
        <ele>1744.45</ele>
        <time>2017-03-19T12:18:26Z</time>
      </trkpt>
      <trkpt lat="44.27974" lon="6.09827">
        <ele>1742.53</ele>
        <time>2017-03-19T12:18:42Z</time>
      </trkpt>
      <trkpt lat="44.2798" lon="6.0982">
        <ele>1741.57</ele>
        <time>2017-03-19T12:18:50Z</time>
      </trkpt>
      <trkpt lat="44.27989" lon="6.09812">
        <ele>1740.6</ele>
        <time>2017-03-19T12:19:01Z</time>
      </trkpt>
      <trkpt lat="44.27999" lon="6.09796">
        <ele>1737.72</ele>
        <time>2017-03-19T12:19:18Z</time>
      </trkpt>
      <trkpt lat="44.28008" lon="6.0978">
        <ele>1734.36</ele>
        <time>2017-03-19T12:19:34Z</time>
      </trkpt>
      <trkpt lat="44.28018" lon="6.09768">
        <ele>1731.95</ele>
        <time>2017-03-19T12:19:49Z</time>
      </trkpt>
      <trkpt lat="44.28018" lon="6.09766">
        <ele>1731.47</ele>
        <time>2017-03-19T12:19:51Z</time>
      </trkpt>
      <trkpt lat="44.28025" lon="6.0975">
        <ele>1730.03</ele>
        <time>2017-03-19T12:20:08Z</time>
      </trkpt>
      <trkpt lat="44.28026" lon="6.09745">
        <ele>1729.07</ele>
        <time>2017-03-19T12:20:12Z</time>
      </trkpt>
      <trkpt lat="44.28035" lon="6.09731">
        <ele>1727.15</ele>
        <time>2017-03-19T12:20:27Z</time>
      </trkpt>
      <trkpt lat="44.2804" lon="6.09718">
        <ele>1725.7</ele>
        <time>2017-03-19T12:20:39Z</time>
      </trkpt>
      <trkpt lat="44.28042" lon="6.09708">
        <ele>1724.74</ele>
        <time>2017-03-19T12:20:47Z</time>
      </trkpt>
      <trkpt lat="44.28055" lon="6.09691">
        <ele>1721.86</ele>
        <time>2017-03-19T12:21:05Z</time>
      </trkpt>
      <trkpt lat="44.28056" lon="6.0968">
        <ele>1720.42</ele>
        <time>2017-03-19T12:21:17Z</time>
      </trkpt>
      <trkpt lat="44.28059" lon="6.09661">
        <ele>1718.01</ele>
        <time>2017-03-19T12:21:34Z</time>
      </trkpt>
      <trkpt lat="44.2806" lon="6.09659">
        <ele>1718.01</ele>
        <time>2017-03-19T12:21:36Z</time>
      </trkpt>
      <trkpt lat="44.28061" lon="6.09648">
        <ele>1716.57</ele>
        <time>2017-03-19T12:21:44Z</time>
      </trkpt>
      <trkpt lat="44.28066" lon="6.09638">
        <ele>1715.61</ele>
        <time>2017-03-19T12:21:52Z</time>
      </trkpt>
      <trkpt lat="44.28079" lon="6.09621">
        <ele>1714.17</ele>
        <time>2017-03-19T12:22:10Z</time>
      </trkpt>
      <trkpt lat="44.28089" lon="6.09602">
        <ele>1713.21</ele>
        <time>2017-03-19T12:22:26Z</time>
      </trkpt>
      <trkpt lat="44.28091" lon="6.09595">
        <ele>1712.73</ele>
        <time>2017-03-19T12:22:32Z</time>
      </trkpt>
      <trkpt lat="44.28108" lon="6.09579">
        <ele>1711.28</ele>
        <time>2017-03-19T12:22:52Z</time>
      </trkpt>
      <trkpt lat="44.28117" lon="6.09569">
        <ele>1710.8</ele>
        <time>2017-03-19T12:23:06Z</time>
      </trkpt>
      <trkpt lat="44.2812" lon="6.09566">
        <ele>1710.32</ele>
        <time>2017-03-19T12:23:09Z</time>
      </trkpt>
      <trkpt lat="44.28124" lon="6.09562">
        <ele>1709.36</ele>
        <time>2017-03-19T12:23:14Z</time>
      </trkpt>
      <trkpt lat="44.28125" lon="6.09558">
        <ele>1708.88</ele>
        <time>2017-03-19T12:23:17Z</time>
      </trkpt>
      <trkpt lat="44.28134" lon="6.09551">
        <ele>1707.92</ele>
        <time>2017-03-19T12:23:32Z</time>
      </trkpt>
      <trkpt lat="44.28137" lon="6.09549">
        <ele>1707.44</ele>
        <time>2017-03-19T12:23:36Z</time>
      </trkpt>
      <trkpt lat="44.28146" lon="6.09539">
        <ele>1706.48</ele>
        <time>2017-03-19T12:23:48Z</time>
      </trkpt>
      <trkpt lat="44.28146" lon="6.09517">
        <ele>1704.07</ele>
        <time>2017-03-19T12:24:04Z</time>
      </trkpt>
      <trkpt lat="44.28147" lon="6.09515">
        <ele>1703.59</ele>
        <time>2017-03-19T12:24:06Z</time>
      </trkpt>
      <trkpt lat="44.28155" lon="6.09494">
        <ele>1700.71</ele>
        <time>2017-03-19T12:24:22Z</time>
      </trkpt>
      <trkpt lat="44.28159" lon="6.09485">
        <ele>1699.27</ele>
        <time>2017-03-19T12:24:40Z</time>
      </trkpt>
      <trkpt lat="44.28169" lon="6.09466">
        <ele>1695.9</ele>
        <time>2017-03-19T12:24:59Z</time>
      </trkpt>
      <trkpt lat="44.28175" lon="6.09452">
        <ele>1693.02</ele>
        <time>2017-03-19T12:25:14Z</time>
      </trkpt>
      <trkpt lat="44.2819" lon="6.09434">
        <ele>1691.1</ele>
        <time>2017-03-19T12:25:32Z</time>
      </trkpt>
      <trkpt lat="44.28204" lon="6.09418">
        <ele>1691.1</ele>
        <time>2017-03-19T12:25:50Z</time>
      </trkpt>
      <trkpt lat="44.28217" lon="6.09406">
        <ele>1692.54</ele>
        <time>2017-03-19T12:26:06Z</time>
      </trkpt>
      <trkpt lat="44.2822" lon="6.09403">
        <ele>1692.54</ele>
        <time>2017-03-19T12:26:09Z</time>
      </trkpt>
      <trkpt lat="44.28236" lon="6.0939">
        <ele>1692.54</ele>
        <time>2017-03-19T12:26:29Z</time>
      </trkpt>
      <trkpt lat="44.28243" lon="6.09381">
        <ele>1692.54</ele>
        <time>2017-03-19T12:26:44Z</time>
      </trkpt>
      <trkpt lat="44.2825" lon="6.0937">
        <ele>1689.65</ele>
        <time>2017-03-19T12:27:01Z</time>
      </trkpt>
      <trkpt lat="44.28258" lon="6.09362">
        <ele>1688.21</ele>
        <time>2017-03-19T12:27:16Z</time>
      </trkpt>
      <trkpt lat="44.28255" lon="6.09357">
        <ele>1685.81</ele>
        <time>2017-03-19T12:27:32Z</time>
      </trkpt>
      <trkpt lat="44.28248" lon="6.09351">
        <ele>1683.41</ele>
        <time>2017-03-19T12:27:48Z</time>
      </trkpt>
      <trkpt lat="44.28246" lon="6.09345">
        <ele>1680.04</ele>
        <time>2017-03-19T12:28:01Z</time>
      </trkpt>
      <trkpt lat="44.28239" lon="6.09336">
        <ele>1678.12</ele>
        <time>2017-03-19T12:28:16Z</time>
      </trkpt>
      <trkpt lat="44.28244" lon="6.09326">
        <ele>1676.2</ele>
        <time>2017-03-19T12:28:33Z</time>
      </trkpt>
      <trkpt lat="44.28246" lon="6.0932">
        <ele>1673.31</ele>
        <time>2017-03-19T12:28:49Z</time>
      </trkpt>
      <trkpt lat="44.28252" lon="6.09307">
        <ele>1671.39</ele>
        <time>2017-03-19T12:29:05Z</time>
      </trkpt>
      <trkpt lat="44.28253" lon="6.09295">
        <ele>1670.43</ele>
        <time>2017-03-19T12:29:11Z</time>
      </trkpt>
      <trkpt lat="44.28251" lon="6.09291">
        <ele>1670.43</ele>
        <time>2017-03-19T12:29:28Z</time>
      </trkpt>
      <trkpt lat="44.28248" lon="6.09294">
        <ele>1669.95</ele>
        <time>2017-03-19T12:29:55Z</time>
      </trkpt>
      <trkpt lat="44.28246" lon="6.09295">
        <ele>1668.99</ele>
        <time>2017-03-19T12:29:58Z</time>
      </trkpt>
      <trkpt lat="44.28234" lon="6.09291">
        <ele>1666.1</ele>
        <time>2017-03-19T12:30:15Z</time>
      </trkpt>
      <trkpt lat="44.28229" lon="6.09282">
        <ele>1664.18</ele>
        <time>2017-03-19T12:30:30Z</time>
      </trkpt>
      <trkpt lat="44.28222" lon="6.09279">
        <ele>1661.3</ele>
        <time>2017-03-19T12:30:43Z</time>
      </trkpt>
      <trkpt lat="44.28221" lon="6.09267">
        <ele>1658.41</ele>
        <time>2017-03-19T12:30:59Z</time>
      </trkpt>
      <trkpt lat="44.28212" lon="6.09266">
        <ele>1656.01</ele>
        <time>2017-03-19T12:31:12Z</time>
      </trkpt>
      <trkpt lat="44.28202" lon="6.09256">
        <ele>1653.6</ele>
        <time>2017-03-19T12:31:29Z</time>
      </trkpt>
      <trkpt lat="44.28195" lon="6.09249">
        <ele>1651.68</ele>
        <time>2017-03-19T12:31:42Z</time>
      </trkpt>
      <trkpt lat="44.28188" lon="6.09244">
        <ele>1649.28</ele>
        <time>2017-03-19T12:31:57Z</time>
      </trkpt>
      <trkpt lat="44.28182" lon="6.09247">
        <ele>1646.88</ele>
        <time>2017-03-19T12:32:13Z</time>
      </trkpt>
      <trkpt lat="44.28176" lon="6.09243">
        <ele>1643.99</ele>
        <time>2017-03-19T12:32:31Z</time>
      </trkpt>
      <trkpt lat="44.28177" lon="6.09238">
        <ele>1642.07</ele>
        <time>2017-03-19T12:32:42Z</time>
      </trkpt>
      <trkpt lat="44.28178" lon="6.09234">
        <ele>1641.11</ele>
        <time>2017-03-19T12:32:56Z</time>
      </trkpt>
      <trkpt lat="44.2818" lon="6.09228">
        <ele>1639.67</ele>
        <time>2017-03-19T12:33:11Z</time>
      </trkpt>
      <trkpt lat="44.28174" lon="6.09228">
        <ele>1637.26</ele>
        <time>2017-03-19T12:33:25Z</time>
      </trkpt>
      <trkpt lat="44.28167" lon="6.09229">
        <ele>1635.34</ele>
        <time>2017-03-19T12:33:38Z</time>
      </trkpt>
      <trkpt lat="44.28158" lon="6.09226">
        <ele>1631.98</ele>
        <time>2017-03-19T12:33:54Z</time>
      </trkpt>
      <trkpt lat="44.28153" lon="6.09224">
        <ele>1629.57</ele>
        <time>2017-03-19T12:34:09Z</time>
      </trkpt>
      <trkpt lat="44.28149" lon="6.09219">
        <ele>1627.65</ele>
        <time>2017-03-19T12:34:25Z</time>
      </trkpt>
      <trkpt lat="44.28142" lon="6.09213">
        <ele>1626.69</ele>
        <time>2017-03-19T12:34:41Z</time>
      </trkpt>
      <trkpt lat="44.2814" lon="6.09213">
        <ele>1625.73</ele>
        <time>2017-03-19T12:34:59Z</time>
      </trkpt>
      <trkpt lat="44.2814" lon="6.09214">
        <ele>1625.25</ele>
        <time>2017-03-19T12:35:29Z</time>
      </trkpt>
      <trkpt lat="44.28136" lon="6.09208">
        <ele>1625.25</ele>
        <time>2017-03-19T12:35:46Z</time>
      </trkpt>
      <trkpt lat="44.28135" lon="6.09208">
        <ele>1624.77</ele>
        <time>2017-03-19T12:36:04Z</time>
      </trkpt>
      <trkpt lat="44.28131" lon="6.09211">
        <ele>1624.28</ele>
        <time>2017-03-19T12:36:24Z</time>
      </trkpt>
      <trkpt lat="44.28123" lon="6.09203">
        <ele>1623.32</ele>
        <time>2017-03-19T12:36:42Z</time>
      </trkpt>
      <trkpt lat="44.2812" lon="6.09197">
        <ele>1621.88</ele>
        <time>2017-03-19T12:36:56Z</time>
      </trkpt>
      <trkpt lat="44.28113" lon="6.09191">
        <ele>1620.44</ele>
        <time>2017-03-19T12:37:09Z</time>
      </trkpt>
      <trkpt lat="44.28109" lon="6.09188">
        <ele>1618.52</ele>
        <time>2017-03-19T12:37:26Z</time>
      </trkpt>
      <trkpt lat="44.28106" lon="6.09183">
        <ele>1617.56</ele>
        <time>2017-03-19T12:37:41Z</time>
      </trkpt>
      <trkpt lat="44.28102" lon="6.09181">
        <ele>1617.07</ele>
        <time>2017-03-19T12:37:58Z</time>
      </trkpt>
      <trkpt lat="44.28095" lon="6.09173">
        <ele>1615.15</ele>
        <time>2017-03-19T12:38:14Z</time>
      </trkpt>
      <trkpt lat="44.28086" lon="6.09164">
        <ele>1613.23</ele>
        <time>2017-03-19T12:38:29Z</time>
      </trkpt>
      <trkpt lat="44.2808" lon="6.0916">
        <ele>1612.27</ele>
        <time>2017-03-19T12:38:36Z</time>
      </trkpt>
      <trkpt lat="44.2807" lon="6.09153">
        <ele>1612.27</ele>
        <time>2017-03-19T12:38:51Z</time>
      </trkpt>
      <trkpt lat="44.28064" lon="6.09149">
        <ele>1612.27</ele>
        <time>2017-03-19T12:39:08Z</time>
      </trkpt>
      <trkpt lat="44.28057" lon="6.09146">
        <ele>1613.71</ele>
        <time>2017-03-19T12:39:27Z</time>
      </trkpt>
      <trkpt lat="44.28053" lon="6.09145">
        <ele>1612.75</ele>
        <time>2017-03-19T12:39:44Z</time>
      </trkpt>
      <trkpt lat="44.28057" lon="6.09148">
        <ele>1612.27</ele>
        <time>2017-03-19T12:40:01Z</time>
      </trkpt>
      <trkpt lat="44.28057" lon="6.09149">
        <ele>1613.71</ele>
        <time>2017-03-19T12:40:07Z</time>
      </trkpt>
      <trkpt lat="44.28058" lon="6.09148">
        <ele>1614.67</ele>
        <time>2017-03-19T12:40:26Z</time>
      </trkpt>
      <trkpt lat="44.28057" lon="6.09158">
        <ele>1614.67</ele>
        <time>2017-03-19T12:40:47Z</time>
      </trkpt>
      <trkpt lat="44.28062" lon="6.09146">
        <ele>1615.15</ele>
        <time>2017-03-19T12:41:13Z</time>
      </trkpt>
      <trkpt lat="44.28064" lon="6.09154">
        <ele>1616.11</ele>
        <time>2017-03-19T12:41:40Z</time>
      </trkpt>
      <trkpt lat="44.28063" lon="6.09162">
        <ele>1616.59</ele>
        <time>2017-03-19T12:42:03Z</time>
      </trkpt>
      <trkpt lat="44.28064" lon="6.09163">
        <ele>1615.15</ele>
        <time>2017-03-19T12:42:08Z</time>
      </trkpt>
      <trkpt lat="44.28064" lon="6.09171">
        <ele>1615.63</ele>
        <time>2017-03-19T12:42:32Z</time>
      </trkpt>
      <trkpt lat="44.28059" lon="6.09185">
        <ele>1616.11</ele>
        <time>2017-03-19T12:42:56Z</time>
      </trkpt>
      <trkpt lat="44.28051" lon="6.09198">
        <ele>1616.59</ele>
        <time>2017-03-19T12:43:22Z</time>
      </trkpt>
      <trkpt lat="44.28052" lon="6.09201">
        <ele>1616.59</ele>
        <time>2017-03-19T12:43:44Z</time>
      </trkpt>
      <trkpt lat="44.28054" lon="6.09201">
        <ele>1617.07</ele>
        <time>2017-03-19T12:44:18Z</time>
      </trkpt>
      <trkpt lat="44.28054" lon="6.09193">
        <ele>1617.56</ele>
        <time>2017-03-19T12:44:52Z</time>
      </trkpt>
      <trkpt lat="44.28056" lon="6.0918">
        <ele>1618.04</ele>
        <time>2017-03-19T12:45:29Z</time>
      </trkpt>
      <trkpt lat="44.28055" lon="6.09178">
        <ele>1617.56</ele>
        <time>2017-03-19T12:45:38Z</time>
      </trkpt>
      <trkpt lat="44.28053" lon="6.09182">
        <ele>1617.56</ele>
        <time>2017-03-19T12:46:02Z</time>
      </trkpt>
      <trkpt lat="44.28053" lon="6.09188">
        <ele>1618.04</ele>
        <time>2017-03-19T12:46:32Z</time>
      </trkpt>
      <trkpt lat="44.28062" lon="6.09167">
        <ele>1617.56</ele>
        <time>2017-03-19T12:46:46Z</time>
      </trkpt>
      <trkpt lat="44.28067" lon="6.09166">
        <ele>1618.04</ele>
        <time>2017-03-19T12:47:08Z</time>
      </trkpt>
      <trkpt lat="44.28067" lon="6.09165">
        <ele>1618.52</ele>
        <time>2017-03-19T12:47:41Z</time>
      </trkpt>
      <trkpt lat="44.28067" lon="6.09167">
        <ele>1619</ele>
        <time>2017-03-19T12:47:54Z</time>
      </trkpt>
      <trkpt lat="44.28063" lon="6.09166">
        <ele>1619.48</ele>
        <time>2017-03-19T12:48:11Z</time>
      </trkpt>
      <trkpt lat="44.28055" lon="6.09162">
        <ele>1619.48</ele>
        <time>2017-03-19T12:48:27Z</time>
      </trkpt>
      <trkpt lat="44.28038" lon="6.09165">
        <ele>1619.48</ele>
        <time>2017-03-19T12:48:54Z</time>
      </trkpt>
      <trkpt lat="44.28032" lon="6.09159">
        <ele>1619.96</ele>
        <time>2017-03-19T12:49:21Z</time>
      </trkpt>
      <trkpt lat="44.28015" lon="6.0915">
        <ele>1619.96</ele>
        <time>2017-03-19T12:49:41Z</time>
      </trkpt>
      <trkpt lat="44.28002" lon="6.09145">
        <ele>1617.56</ele>
        <time>2017-03-19T12:49:55Z</time>
      </trkpt>
      <trkpt lat="44.28005" lon="6.09137">
        <ele>1615.15</ele>
        <time>2017-03-19T12:50:10Z</time>
      </trkpt>
      <trkpt lat="44.28005" lon="6.09131">
        <ele>1612.27</ele>
        <time>2017-03-19T12:50:27Z</time>
      </trkpt>
      <trkpt lat="44.28001" lon="6.09134">
        <ele>1611.79</ele>
        <time>2017-03-19T12:50:40Z</time>
      </trkpt>
      <trkpt lat="44.2799" lon="6.09129">
        <ele>1609.86</ele>
        <time>2017-03-19T12:50:58Z</time>
      </trkpt>
      <trkpt lat="44.27987" lon="6.09122">
        <ele>1607.94</ele>
        <time>2017-03-19T12:51:12Z</time>
      </trkpt>
      <trkpt lat="44.27981" lon="6.09113">
        <ele>1604.58</ele>
        <time>2017-03-19T12:51:25Z</time>
      </trkpt>
      <trkpt lat="44.27984" lon="6.09098">
        <ele>1601.69</ele>
        <time>2017-03-19T12:51:39Z</time>
      </trkpt>
      <trkpt lat="44.27988" lon="6.09082">
        <ele>1598.81</ele>
        <time>2017-03-19T12:51:54Z</time>
      </trkpt>
      <trkpt lat="44.27992" lon="6.09069">
        <ele>1595.93</ele>
        <time>2017-03-19T12:52:09Z</time>
      </trkpt>
      <trkpt lat="44.27998" lon="6.09059">
        <ele>1592.56</ele>
        <time>2017-03-19T12:52:23Z</time>
      </trkpt>
      <trkpt lat="44.28006" lon="6.09056">
        <ele>1589.2</ele>
        <time>2017-03-19T12:52:38Z</time>
      </trkpt>
      <trkpt lat="44.28014" lon="6.09048">
        <ele>1585.83</ele>
        <time>2017-03-19T12:52:52Z</time>
      </trkpt>
      <trkpt lat="44.28012" lon="6.09035">
        <ele>1582.47</ele>
        <time>2017-03-19T12:53:07Z</time>
      </trkpt>
      <trkpt lat="44.28009" lon="6.0902">
        <ele>1578.14</ele>
        <time>2017-03-19T12:53:26Z</time>
      </trkpt>
      <trkpt lat="44.28009" lon="6.09019">
        <ele>1578.14</ele>
        <time>2017-03-19T12:53:27Z</time>
      </trkpt>
      <trkpt lat="44.28004" lon="6.09008">
        <ele>1574.78</ele>
        <time>2017-03-19T12:53:45Z</time>
      </trkpt>
      <trkpt lat="44.27996" lon="6.09007">
        <ele>1571.41</ele>
        <time>2017-03-19T12:54:04Z</time>
      </trkpt>
      <trkpt lat="44.27994" lon="6.09005">
        <ele>1570.45</ele>
        <time>2017-03-19T12:54:08Z</time>
      </trkpt>
      <trkpt lat="44.27988" lon="6.09003">
        <ele>1568.53</ele>
        <time>2017-03-19T12:54:24Z</time>
      </trkpt>
      <trkpt lat="44.27985" lon="6.08996">
        <ele>1565.16</ele>
        <time>2017-03-19T12:54:36Z</time>
      </trkpt>
      <trkpt lat="44.27979" lon="6.08987">
        <ele>1561.8</ele>
        <time>2017-03-19T12:54:53Z</time>
      </trkpt>
      <trkpt lat="44.27973" lon="6.08979">
        <ele>1559.4</ele>
        <time>2017-03-19T12:55:07Z</time>
      </trkpt>
      <trkpt lat="44.27969" lon="6.08968">
        <ele>1556.51</ele>
        <time>2017-03-19T12:55:23Z</time>
      </trkpt>
      <trkpt lat="44.2797" lon="6.08957">
        <ele>1554.59</ele>
        <time>2017-03-19T12:55:38Z</time>
      </trkpt>
      <trkpt lat="44.27968" lon="6.0895">
        <ele>1553.15</ele>
        <time>2017-03-19T12:56:14Z</time>
      </trkpt>
      <trkpt lat="44.27967" lon="6.0894">
        <ele>1549.3</ele>
        <time>2017-03-19T12:56:28Z</time>
      </trkpt>
      <trkpt lat="44.27961" lon="6.08933">
        <ele>1545.46</ele>
        <time>2017-03-19T12:56:44Z</time>
      </trkpt>
      <trkpt lat="44.27957" lon="6.08924">
        <ele>1543.05</ele>
        <time>2017-03-19T12:56:59Z</time>
      </trkpt>
      <trkpt lat="44.27958" lon="6.08914">
        <ele>1539.69</ele>
        <time>2017-03-19T12:57:12Z</time>
      </trkpt>
      <trkpt lat="44.27957" lon="6.08905">
        <ele>1537.29</ele>
        <time>2017-03-19T12:57:28Z</time>
      </trkpt>
      <trkpt lat="44.27955" lon="6.08897">
        <ele>1533.92</ele>
        <time>2017-03-19T12:57:41Z</time>
      </trkpt>
      <trkpt lat="44.27955" lon="6.08887">
        <ele>1531.04</ele>
        <time>2017-03-19T12:57:58Z</time>
      </trkpt>
      <trkpt lat="44.2795" lon="6.08875">
        <ele>1527.67</ele>
        <time>2017-03-19T12:58:13Z</time>
      </trkpt>
      <trkpt lat="44.27941" lon="6.08868">
        <ele>1524.31</ele>
        <time>2017-03-19T12:58:28Z</time>
      </trkpt>
      <trkpt lat="44.27935" lon="6.08858">
        <ele>1521.42</ele>
        <time>2017-03-19T12:58:42Z</time>
      </trkpt>
      <trkpt lat="44.27925" lon="6.0885">
        <ele>1519.02</ele>
        <time>2017-03-19T12:59:02Z</time>
      </trkpt>
      <trkpt lat="44.27921" lon="6.0884">
        <ele>1515.66</ele>
        <time>2017-03-19T12:59:18Z</time>
      </trkpt>
      <trkpt lat="44.27921" lon="6.08829">
        <ele>1512.29</ele>
        <time>2017-03-19T12:59:33Z</time>
      </trkpt>
      <trkpt lat="44.27919" lon="6.0882">
        <ele>1509.41</ele>
        <time>2017-03-19T12:59:45Z</time>
      </trkpt>
      <trkpt lat="44.27916" lon="6.0881">
        <ele>1507</ele>
        <time>2017-03-19T13:00:01Z</time>
      </trkpt>
      <trkpt lat="44.27917" lon="6.08808">
        <ele>1505.08</ele>
        <time>2017-03-19T13:00:27Z</time>
      </trkpt>
      <trkpt lat="44.27916" lon="6.088">
        <ele>1503.64</ele>
        <time>2017-03-19T13:00:42Z</time>
      </trkpt>
      <trkpt lat="44.27913" lon="6.08794">
        <ele>1502.2</ele>
        <time>2017-03-19T13:00:56Z</time>
      </trkpt>
      <trkpt lat="44.27913" lon="6.08783">
        <ele>1498.35</ele>
        <time>2017-03-19T13:01:12Z</time>
      </trkpt>
      <trkpt lat="44.27914" lon="6.08774">
        <ele>1495.95</ele>
        <time>2017-03-19T13:01:27Z</time>
      </trkpt>
      <trkpt lat="44.27915" lon="6.08777">
        <ele>1495.95</ele>
        <time>2017-03-19T13:01:53Z</time>
      </trkpt>
      <trkpt lat="44.27914" lon="6.08776">
        <ele>1495.47</ele>
        <time>2017-03-19T13:02:30Z</time>
      </trkpt>
      <trkpt lat="44.27913" lon="6.08768">
        <ele>1494.99</ele>
        <time>2017-03-19T13:02:56Z</time>
      </trkpt>
      <trkpt lat="44.27914" lon="6.08766">
        <ele>1494.99</ele>
        <time>2017-03-19T13:03:29Z</time>
      </trkpt>
      <trkpt lat="44.27911" lon="6.08758">
        <ele>1492.1</ele>
        <time>2017-03-19T13:03:45Z</time>
      </trkpt>
      <trkpt lat="44.27913" lon="6.08746">
        <ele>1490.18</ele>
        <time>2017-03-19T13:03:59Z</time>
      </trkpt>
      <trkpt lat="44.27915" lon="6.08743">
        <ele>1489.7</ele>
        <time>2017-03-19T13:04:29Z</time>
      </trkpt>
      <trkpt lat="44.27915" lon="6.08743">
        <ele>1487.78</ele>
        <time>2017-03-19T13:05:09Z</time>
      </trkpt>
      <trkpt lat="44.27916" lon="6.08728">
        <ele>1485.37</ele>
        <time>2017-03-19T13:05:25Z</time>
      </trkpt>
      <trkpt lat="44.27909" lon="6.08713">
        <ele>1482.01</ele>
        <time>2017-03-19T13:05:42Z</time>
      </trkpt>
      <trkpt lat="44.27907" lon="6.08696">
        <ele>1478.65</ele>
        <time>2017-03-19T13:05:59Z</time>
      </trkpt>
      <trkpt lat="44.2791" lon="6.08677">
        <ele>1475.28</ele>
        <time>2017-03-19T13:06:17Z</time>
      </trkpt>
      <trkpt lat="44.27903" lon="6.08661">
        <ele>1472.88</ele>
        <time>2017-03-19T13:06:36Z</time>
      </trkpt>
      <trkpt lat="44.27898" lon="6.08647">
        <ele>1469.99</ele>
        <time>2017-03-19T13:06:52Z</time>
      </trkpt>
      <trkpt lat="44.2789" lon="6.08632">
        <ele>1466.63</ele>
        <time>2017-03-19T13:07:08Z</time>
      </trkpt>
      <trkpt lat="44.27884" lon="6.08623">
        <ele>1464.71</ele>
        <time>2017-03-19T13:07:24Z</time>
      </trkpt>
      <trkpt lat="44.27888" lon="6.08611">
        <ele>1461.82</ele>
        <time>2017-03-19T13:07:37Z</time>
      </trkpt>
      <trkpt lat="44.2789" lon="6.08596">
        <ele>1460.86</ele>
        <time>2017-03-19T13:07:53Z</time>
      </trkpt>
      <trkpt lat="44.27886" lon="6.0858">
        <ele>1457.98</ele>
        <time>2017-03-19T13:08:08Z</time>
      </trkpt>
      <trkpt lat="44.27886" lon="6.08568">
        <ele>1455.09</ele>
        <time>2017-03-19T13:08:23Z</time>
      </trkpt>
      <trkpt lat="44.2789" lon="6.08555">
        <ele>1452.21</ele>
        <time>2017-03-19T13:08:36Z</time>
      </trkpt>
      <trkpt lat="44.27891" lon="6.08538">
        <ele>1449.32</ele>
        <time>2017-03-19T13:08:53Z</time>
      </trkpt>
      <trkpt lat="44.27891" lon="6.08524">
        <ele>1446.92</ele>
        <time>2017-03-19T13:09:07Z</time>
      </trkpt>
      <trkpt lat="44.2789" lon="6.08516">
        <ele>1445.48</ele>
        <time>2017-03-19T13:09:24Z</time>
      </trkpt>
      <trkpt lat="44.27886" lon="6.08504">
        <ele>1443.08</ele>
        <time>2017-03-19T13:09:43Z</time>
      </trkpt>
      <trkpt lat="44.27887" lon="6.08487">
        <ele>1439.71</ele>
        <time>2017-03-19T13:09:58Z</time>
      </trkpt>
      <trkpt lat="44.27882" lon="6.08461">
        <ele>1437.31</ele>
        <time>2017-03-19T13:10:15Z</time>
      </trkpt>
      <trkpt lat="44.27882" lon="6.08445">
        <ele>1434.91</ele>
        <time>2017-03-19T13:10:29Z</time>
      </trkpt>
      <trkpt lat="44.27881" lon="6.08421">
        <ele>1432.02</ele>
        <time>2017-03-19T13:10:47Z</time>
      </trkpt>
      <trkpt lat="44.27881" lon="6.08398">
        <ele>1429.14</ele>
        <time>2017-03-19T13:11:03Z</time>
      </trkpt>
      <trkpt lat="44.27875" lon="6.08376">
        <ele>1427.21</ele>
        <time>2017-03-19T13:11:19Z</time>
      </trkpt>
      <trkpt lat="44.27881" lon="6.08358">
        <ele>1425.77</ele>
        <time>2017-03-19T13:11:33Z</time>
      </trkpt>
      <trkpt lat="44.27883" lon="6.08336">
        <ele>1422.89</ele>
        <time>2017-03-19T13:11:50Z</time>
      </trkpt>
      <trkpt lat="44.27889" lon="6.08316">
        <ele>1420</ele>
        <time>2017-03-19T13:12:07Z</time>
      </trkpt>
      <trkpt lat="44.27893" lon="6.08298">
        <ele>1419.52</ele>
        <time>2017-03-19T13:12:22Z</time>
      </trkpt>
      <trkpt lat="44.27894" lon="6.0828">
        <ele>1417.6</ele>
        <time>2017-03-19T13:12:36Z</time>
      </trkpt>
      <trkpt lat="44.27894" lon="6.08263">
        <ele>1415.68</ele>
        <time>2017-03-19T13:12:52Z</time>
      </trkpt>
      <trkpt lat="44.27898" lon="6.0824">
        <ele>1412.79</ele>
        <time>2017-03-19T13:13:09Z</time>
      </trkpt>
      <trkpt lat="44.279" lon="6.08228">
        <ele>1409.43</ele>
        <time>2017-03-19T13:13:23Z</time>
      </trkpt>
      <trkpt lat="44.27901" lon="6.08212">
        <ele>1406.07</ele>
        <time>2017-03-19T13:13:40Z</time>
      </trkpt>
      <trkpt lat="44.27896" lon="6.08202">
        <ele>1403.66</ele>
        <time>2017-03-19T13:13:55Z</time>
      </trkpt>
      <trkpt lat="44.27895" lon="6.08207">
        <ele>1403.66</ele>
        <time>2017-03-19T13:14:20Z</time>
      </trkpt>
      <trkpt lat="44.27895" lon="6.08212">
        <ele>1405.1</ele>
        <time>2017-03-19T13:14:28Z</time>
      </trkpt>
      <trkpt lat="44.27897" lon="6.08208">
        <ele>1405.1</ele>
        <time>2017-03-19T13:14:38Z</time>
      </trkpt>
      <trkpt lat="44.27895" lon="6.08201">
        <ele>1404.14</ele>
        <time>2017-03-19T13:14:44Z</time>
      </trkpt>
      <trkpt lat="44.27891" lon="6.08187">
        <ele>1401.26</ele>
        <time>2017-03-19T13:14:58Z</time>
      </trkpt>
      <trkpt lat="44.2788" lon="6.08177">
        <ele>1399.82</ele>
        <time>2017-03-19T13:15:11Z</time>
      </trkpt>
      <trkpt lat="44.27871" lon="6.08158">
        <ele>1399.82</ele>
        <time>2017-03-19T13:15:26Z</time>
      </trkpt>
      <trkpt lat="44.2787" lon="6.08156">
        <ele>1399.34</ele>
        <time>2017-03-19T13:15:54Z</time>
      </trkpt>
      <trkpt lat="44.27866" lon="6.08148">
        <ele>1398.37</ele>
        <time>2017-03-19T13:16:04Z</time>
      </trkpt>
      <trkpt lat="44.2786" lon="6.08144">
        <ele>1397.89</ele>
        <time>2017-03-19T13:16:08Z</time>
      </trkpt>
      <trkpt lat="44.27853" lon="6.08142">
        <ele>1397.89</ele>
        <time>2017-03-19T13:16:15Z</time>
      </trkpt>
      <trkpt lat="44.27847" lon="6.08135">
        <ele>1397.41</ele>
        <time>2017-03-19T13:16:30Z</time>
      </trkpt>
      <trkpt lat="44.27846" lon="6.08135">
        <ele>1397.41</ele>
        <time>2017-03-19T13:16:31Z</time>
      </trkpt>
      <trkpt lat="44.27843" lon="6.08135">
        <ele>1397.41</ele>
        <time>2017-03-19T13:16:34Z</time>
      </trkpt>
      <trkpt lat="44.27831" lon="6.08134">
        <ele>1397.41</ele>
        <time>2017-03-19T13:16:47Z</time>
      </trkpt>
      <trkpt lat="44.27812" lon="6.08135">
        <ele>1398.37</ele>
        <time>2017-03-19T13:17:03Z</time>
      </trkpt>
      <trkpt lat="44.27801" lon="6.08136">
        <ele>1398.86</ele>
        <time>2017-03-19T13:17:16Z</time>
      </trkpt>
      <trkpt lat="44.27789" lon="6.08133">
        <ele>1397.41</ele>
        <time>2017-03-19T13:17:32Z</time>
      </trkpt>
      <trkpt lat="44.27773" lon="6.0813">
        <ele>1397.41</ele>
        <time>2017-03-19T13:17:48Z</time>
      </trkpt>
      <trkpt lat="44.27767" lon="6.08127">
        <ele>1396.45</ele>
        <time>2017-03-19T13:18:05Z</time>
      </trkpt>
      <trkpt lat="44.27765" lon="6.08128">
        <ele>1397.41</ele>
        <time>2017-03-19T13:18:11Z</time>
      </trkpt>
      <trkpt lat="44.27756" lon="6.08135">
        <ele>1398.37</ele>
        <time>2017-03-19T13:18:25Z</time>
      </trkpt>
      <trkpt lat="44.27755" lon="6.08139">
        <ele>1399.82</ele>
        <time>2017-03-19T13:18:41Z</time>
      </trkpt>
      <trkpt lat="44.27751" lon="6.08153">
        <ele>1401.74</ele>
        <time>2017-03-19T13:18:54Z</time>
      </trkpt>
      <trkpt lat="44.2775" lon="6.08159">
        <ele>1401.74</ele>
        <time>2017-03-19T13:18:58Z</time>
      </trkpt>
      <trkpt lat="44.27749" lon="6.08166">
        <ele>1401.74</ele>
        <time>2017-03-19T13:19:04Z</time>
      </trkpt>
      <trkpt lat="44.27747" lon="6.08176">
        <ele>1401.74</ele>
        <time>2017-03-19T13:19:13Z</time>
      </trkpt>
      <trkpt lat="44.27744" lon="6.08179">
        <ele>1402.7</ele>
        <time>2017-03-19T13:19:18Z</time>
      </trkpt>
      <trkpt lat="44.27744" lon="6.08187">
        <ele>1403.18</ele>
        <time>2017-03-19T13:19:29Z</time>
      </trkpt>
      <trkpt lat="44.27735" lon="6.08201">
        <ele>1403.18</ele>
        <time>2017-03-19T13:19:42Z</time>
      </trkpt>
      <trkpt lat="44.27733" lon="6.08205">
        <ele>1404.14</ele>
        <time>2017-03-19T13:19:47Z</time>
      </trkpt>
      <trkpt lat="44.27726" lon="6.08215">
        <ele>1403.66</ele>
        <time>2017-03-19T13:19:56Z</time>
      </trkpt>
      <trkpt lat="44.27721" lon="6.08219">
        <ele>1402.7</ele>
        <time>2017-03-19T13:20:07Z</time>
      </trkpt>
      <trkpt lat="44.2772" lon="6.08226">
        <ele>1403.66</ele>
        <time>2017-03-19T13:20:17Z</time>
      </trkpt>
      <trkpt lat="44.2772" lon="6.08239">
        <ele>1405.1</ele>
        <time>2017-03-19T13:20:29Z</time>
      </trkpt>
      <trkpt lat="44.27715" lon="6.0826">
        <ele>1406.55</ele>
        <time>2017-03-19T13:20:44Z</time>
      </trkpt>
      <trkpt lat="44.27715" lon="6.08267">
        <ele>1406.07</ele>
        <time>2017-03-19T13:20:59Z</time>
      </trkpt>
      <trkpt lat="44.27716" lon="6.08271">
        <ele>1407.51</ele>
        <time>2017-03-19T13:21:06Z</time>
      </trkpt>
      <trkpt lat="44.27718" lon="6.08288">
        <ele>1408.95</ele>
        <time>2017-03-19T13:21:18Z</time>
      </trkpt>
      <trkpt lat="44.27715" lon="6.0831">
        <ele>1408.47</ele>
        <time>2017-03-19T13:21:34Z</time>
      </trkpt>
      <trkpt lat="44.27713" lon="6.08327">
        <ele>1407.03</ele>
        <time>2017-03-19T13:21:46Z</time>
      </trkpt>
      <trkpt lat="44.27712" lon="6.08339">
        <ele>1406.07</ele>
        <time>2017-03-19T13:21:53Z</time>
      </trkpt>
      <trkpt lat="44.2771" lon="6.08351">
        <ele>1405.1</ele>
        <time>2017-03-19T13:22:02Z</time>
      </trkpt>
      <trkpt lat="44.27707" lon="6.08375">
        <ele>1403.18</ele>
        <time>2017-03-19T13:22:18Z</time>
      </trkpt>
      <trkpt lat="44.27706" lon="6.08401">
        <ele>1401.74</ele>
        <time>2017-03-19T13:22:31Z</time>
      </trkpt>
      <trkpt lat="44.27704" lon="6.08415">
        <ele>1401.26</ele>
        <time>2017-03-19T13:22:39Z</time>
      </trkpt>
      <trkpt lat="44.27705" lon="6.08431">
        <ele>1400.3</ele>
        <time>2017-03-19T13:22:52Z</time>
      </trkpt>
      <trkpt lat="44.27704" lon="6.08434">
        <ele>1400.3</ele>
        <time>2017-03-19T13:22:54Z</time>
      </trkpt>
      <trkpt lat="44.27701" lon="6.08432">
        <ele>1399.34</ele>
        <time>2017-03-19T13:22:58Z</time>
      </trkpt>
      <trkpt lat="44.27701" lon="6.0841">
        <ele>1396.93</ele>
        <time>2017-03-19T13:23:13Z</time>
      </trkpt>
      <trkpt lat="44.27697" lon="6.08387">
        <ele>1395.01</ele>
        <time>2017-03-19T13:23:29Z</time>
      </trkpt>
      <trkpt lat="44.27692" lon="6.08367">
        <ele>1393.09</ele>
        <time>2017-03-19T13:23:44Z</time>
      </trkpt>
      <trkpt lat="44.27687" lon="6.08346">
        <ele>1389.72</ele>
        <time>2017-03-19T13:24:02Z</time>
      </trkpt>
      <trkpt lat="44.27687" lon="6.08319">
        <ele>1387.32</ele>
        <time>2017-03-19T13:24:19Z</time>
      </trkpt>
      <trkpt lat="44.27688" lon="6.08308">
        <ele>1386.36</ele>
        <time>2017-03-19T13:24:25Z</time>
      </trkpt>
      <trkpt lat="44.27688" lon="6.08305">
        <ele>1385.88</ele>
        <time>2017-03-19T13:24:27Z</time>
      </trkpt>
      <trkpt lat="44.27691" lon="6.08277">
        <ele>1383.47</ele>
        <time>2017-03-19T13:24:45Z</time>
      </trkpt>
      <trkpt lat="44.2769" lon="6.0827">
        <ele>1382.99</ele>
        <time>2017-03-19T13:24:50Z</time>
      </trkpt>
      <trkpt lat="44.27687" lon="6.08268">
        <ele>1382.99</ele>
        <time>2017-03-19T13:24:53Z</time>
      </trkpt>
      <trkpt lat="44.27674" lon="6.0829">
        <ele>1381.07</ele>
        <time>2017-03-19T13:25:11Z</time>
      </trkpt>
      <trkpt lat="44.27662" lon="6.08311">
        <ele>1378.19</ele>
        <time>2017-03-19T13:25:31Z</time>
      </trkpt>
      <trkpt lat="44.27645" lon="6.08328">
        <ele>1375.3</ele>
        <time>2017-03-19T13:25:47Z</time>
      </trkpt>
      <trkpt lat="44.27636" lon="6.08337">
        <ele>1374.34</ele>
        <time>2017-03-19T13:26:02Z</time>
      </trkpt>
      <trkpt lat="44.27638" lon="6.08322">
        <ele>1372.42</ele>
        <time>2017-03-19T13:26:16Z</time>
      </trkpt>
      <trkpt lat="44.27642" lon="6.08312">
        <ele>1370.98</ele>
        <time>2017-03-19T13:26:24Z</time>
      </trkpt>
      <trkpt lat="44.27656" lon="6.08285">
        <ele>1369.05</ele>
        <time>2017-03-19T13:26:46Z</time>
      </trkpt>
      <trkpt lat="44.27662" lon="6.08257">
        <ele>1366.65</ele>
        <time>2017-03-19T13:27:01Z</time>
      </trkpt>
      <trkpt lat="44.2767" lon="6.08227">
        <ele>1363.29</ele>
        <time>2017-03-19T13:27:21Z</time>
      </trkpt>
      <trkpt lat="44.27674" lon="6.08195">
        <ele>1359.92</ele>
        <time>2017-03-19T13:27:40Z</time>
      </trkpt>
      <trkpt lat="44.27681" lon="6.08168">
        <ele>1358</ele>
        <time>2017-03-19T13:27:59Z</time>
      </trkpt>
      <trkpt lat="44.27677" lon="6.08164">
        <ele>1357.52</ele>
        <time>2017-03-19T13:28:03Z</time>
      </trkpt>
      <trkpt lat="44.27667" lon="6.08181">
        <ele>1355.6</ele>
        <time>2017-03-19T13:28:17Z</time>
      </trkpt>
      <trkpt lat="44.2765" lon="6.08203">
        <ele>1353.19</ele>
        <time>2017-03-19T13:28:37Z</time>
      </trkpt>
      <trkpt lat="44.27637" lon="6.08214">
        <ele>1351.75</ele>
        <time>2017-03-19T13:28:54Z</time>
      </trkpt>
      <trkpt lat="44.27625" lon="6.08213">
        <ele>1349.83</ele>
        <time>2017-03-19T13:29:16Z</time>
      </trkpt>
      <trkpt lat="44.27618" lon="6.08209">
        <ele>1348.87</ele>
        <time>2017-03-19T13:29:23Z</time>
      </trkpt>
      <trkpt lat="44.2761" lon="6.08191">
        <ele>1347.43</ele>
        <time>2017-03-19T13:29:39Z</time>
      </trkpt>
      <trkpt lat="44.27614" lon="6.08178">
        <ele>1347.43</ele>
        <time>2017-03-19T13:29:48Z</time>
      </trkpt>
      <trkpt lat="44.27622" lon="6.08156">
        <ele>1345.02</ele>
        <time>2017-03-19T13:30:04Z</time>
      </trkpt>
      <trkpt lat="44.27637" lon="6.08143">
        <ele>1344.54</ele>
        <time>2017-03-19T13:30:19Z</time>
      </trkpt>
      <trkpt lat="44.27655" lon="6.08126">
        <ele>1342.14</ele>
        <time>2017-03-19T13:30:37Z</time>
      </trkpt>
      <trkpt lat="44.27669" lon="6.08101">
        <ele>1339.25</ele>
        <time>2017-03-19T13:30:57Z</time>
      </trkpt>
      <trkpt lat="44.27682" lon="6.08078">
        <ele>1336.37</ele>
        <time>2017-03-19T13:31:14Z</time>
      </trkpt>
      <trkpt lat="44.27697" lon="6.08054">
        <ele>1333.49</ele>
        <time>2017-03-19T13:31:34Z</time>
      </trkpt>
      <trkpt lat="44.27711" lon="6.08036">
        <ele>1331.56</ele>
        <time>2017-03-19T13:31:50Z</time>
      </trkpt>
      <trkpt lat="44.27722" lon="6.08017">
        <ele>1328.2</ele>
        <time>2017-03-19T13:32:05Z</time>
      </trkpt>
      <trkpt lat="44.27733" lon="6.07993">
        <ele>1326.28</ele>
        <time>2017-03-19T13:32:25Z</time>
      </trkpt>
      <trkpt lat="44.27741" lon="6.07981">
        <ele>1324.35</ele>
        <time>2017-03-19T13:32:35Z</time>
      </trkpt>
      <trkpt lat="44.27757" lon="6.07961">
        <ele>1322.91</ele>
        <time>2017-03-19T13:32:52Z</time>
      </trkpt>
      <trkpt lat="44.27772" lon="6.07945">
        <ele>1320.51</ele>
        <time>2017-03-19T13:33:09Z</time>
      </trkpt>
      <trkpt lat="44.27791" lon="6.0793">
        <ele>1318.1</ele>
        <time>2017-03-19T13:33:27Z</time>
      </trkpt>
      <trkpt lat="44.27794" lon="6.07927">
        <ele>1317.62</ele>
        <time>2017-03-19T13:33:31Z</time>
      </trkpt>
      <trkpt lat="44.27802" lon="6.07922">
        <ele>1316.18</ele>
        <time>2017-03-19T13:33:38Z</time>
      </trkpt>
      <trkpt lat="44.27821" lon="6.07918">
        <ele>1314.26</ele>
        <time>2017-03-19T13:33:56Z</time>
      </trkpt>
      <trkpt lat="44.27841" lon="6.07923">
        <ele>1312.34</ele>
        <time>2017-03-19T13:34:14Z</time>
      </trkpt>
      <trkpt lat="44.2786" lon="6.07916">
        <ele>1310.9</ele>
        <time>2017-03-19T13:34:32Z</time>
      </trkpt>
      <trkpt lat="44.27876" lon="6.07901">
        <ele>1309.45</ele>
        <time>2017-03-19T13:34:49Z</time>
      </trkpt>
      <trkpt lat="44.27898" lon="6.07905">
        <ele>1307.53</ele>
        <time>2017-03-19T13:35:06Z</time>
      </trkpt>
      <trkpt lat="44.27912" lon="6.07906">
        <ele>1307.05</ele>
        <time>2017-03-19T13:35:18Z</time>
      </trkpt>
      <trkpt lat="44.27916" lon="6.0789">
        <ele>1304.65</ele>
        <time>2017-03-19T13:35:32Z</time>
      </trkpt>
      <trkpt lat="44.27905" lon="6.07879">
        <ele>1303.2</ele>
        <time>2017-03-19T13:35:46Z</time>
      </trkpt>
      <trkpt lat="44.27887" lon="6.07874">
        <ele>1300.8</ele>
        <time>2017-03-19T13:36:03Z</time>
      </trkpt>
      <trkpt lat="44.27871" lon="6.07864">
        <ele>1299.36</ele>
        <time>2017-03-19T13:36:16Z</time>
      </trkpt>
      <trkpt lat="44.27858" lon="6.07874">
        <ele>1298.88</ele>
        <time>2017-03-19T13:36:30Z</time>
      </trkpt>
      <trkpt lat="44.27849" lon="6.07881">
        <ele>1297.92</ele>
        <time>2017-03-19T13:36:40Z</time>
      </trkpt>
      <trkpt lat="44.27833" lon="6.07873">
        <ele>1294.55</ele>
        <time>2017-03-19T13:36:57Z</time>
      </trkpt>
      <trkpt lat="44.27831" lon="6.07869">
        <ele>1294.55</ele>
        <time>2017-03-19T13:37:00Z</time>
      </trkpt>
      <trkpt lat="44.27823" lon="6.07848">
        <ele>1292.63</ele>
        <time>2017-03-19T13:37:15Z</time>
      </trkpt>
      <trkpt lat="44.27812" lon="6.07828">
        <ele>1290.23</ele>
        <time>2017-03-19T13:37:30Z</time>
      </trkpt>
      <trkpt lat="44.27811" lon="6.07827">
        <ele>1289.27</ele>
        <time>2017-03-19T13:37:31Z</time>
      </trkpt>
      <trkpt lat="44.27795" lon="6.07812">
        <ele>1286.86</ele>
        <time>2017-03-19T13:37:51Z</time>
      </trkpt>
      <trkpt lat="44.27786" lon="6.07802">
        <ele>1284.94</ele>
        <time>2017-03-19T13:38:03Z</time>
      </trkpt>
      <trkpt lat="44.27777" lon="6.07797">
        <ele>1284.46</ele>
        <time>2017-03-19T13:38:17Z</time>
      </trkpt>
      <trkpt lat="44.27773" lon="6.07793">
        <ele>1283.5</ele>
        <time>2017-03-19T13:38:30Z</time>
      </trkpt>
      <trkpt lat="44.27767" lon="6.07782">
        <ele>1281.57</ele>
        <time>2017-03-19T13:38:47Z</time>
      </trkpt>
      <trkpt lat="44.27766" lon="6.07776">
        <ele>1281.57</ele>
        <time>2017-03-19T13:39:07Z</time>
      </trkpt>
      <trkpt lat="44.27762" lon="6.07766">
        <ele>1280.13</ele>
        <time>2017-03-19T13:39:16Z</time>
      </trkpt>
      <trkpt lat="44.27765" lon="6.07742">
        <ele>1278.69</ele>
        <time>2017-03-19T13:39:32Z</time>
      </trkpt>
      <trkpt lat="44.27771" lon="6.07725">
        <ele>1275.81</ele>
        <time>2017-03-19T13:39:51Z</time>
      </trkpt>
      <trkpt lat="44.27778" lon="6.07709">
        <ele>1272.92</ele>
        <time>2017-03-19T13:40:05Z</time>
      </trkpt>
      <trkpt lat="44.27783" lon="6.07671">
        <ele>1269.56</ele>
        <time>2017-03-19T13:40:26Z</time>
      </trkpt>
      <trkpt lat="44.27785" lon="6.07657">
        <ele>1268.12</ele>
        <time>2017-03-19T13:40:35Z</time>
      </trkpt>
      <trkpt lat="44.2779" lon="6.07631">
        <ele>1265.71</ele>
        <time>2017-03-19T13:40:53Z</time>
      </trkpt>
      <trkpt lat="44.27793" lon="6.07613">
        <ele>1263.31</ele>
        <time>2017-03-19T13:41:06Z</time>
      </trkpt>
      <trkpt lat="44.27793" lon="6.07611">
        <ele>1263.31</ele>
        <time>2017-03-19T13:41:07Z</time>
      </trkpt>
      <trkpt lat="44.27791" lon="6.07577">
        <ele>1260.91</ele>
        <time>2017-03-19T13:41:22Z</time>
      </trkpt>
      <trkpt lat="44.27789" lon="6.07563">
        <ele>1260.43</ele>
        <time>2017-03-19T13:41:28Z</time>
      </trkpt>
      <trkpt lat="44.27778" lon="6.07527">
        <ele>1258.02</ele>
        <time>2017-03-19T13:41:46Z</time>
      </trkpt>
      <trkpt lat="44.2777" lon="6.07515">
        <ele>1256.58</ele>
        <time>2017-03-19T13:41:54Z</time>
      </trkpt>
      <trkpt lat="44.27765" lon="6.07513">
        <ele>1256.1</ele>
        <time>2017-03-19T13:41:58Z</time>
      </trkpt>
      <trkpt lat="44.27742" lon="6.0752">
        <ele>1254.18</ele>
        <time>2017-03-19T13:42:18Z</time>
      </trkpt>
      <trkpt lat="44.27719" lon="6.07531">
        <ele>1251.29</ele>
        <time>2017-03-19T13:42:40Z</time>
      </trkpt>
      <trkpt lat="44.27701" lon="6.07543">
        <ele>1249.85</ele>
        <time>2017-03-19T13:42:58Z</time>
      </trkpt>
      <trkpt lat="44.2769" lon="6.07549">
        <ele>1248.89</ele>
        <time>2017-03-19T13:43:16Z</time>
      </trkpt>
      <trkpt lat="44.27689" lon="6.07545">
        <ele>1248.89</ele>
        <time>2017-03-19T13:43:26Z</time>
      </trkpt>
      <trkpt lat="44.27704" lon="6.07525">
        <ele>1245.53</ele>
        <time>2017-03-19T13:43:46Z</time>
      </trkpt>
      <trkpt lat="44.27719" lon="6.07514">
        <ele>1242.16</ele>
        <time>2017-03-19T13:44:02Z</time>
      </trkpt>
      <trkpt lat="44.27733" lon="6.07497">
        <ele>1240.24</ele>
        <time>2017-03-19T13:44:18Z</time>
      </trkpt>
      <trkpt lat="44.27737" lon="6.07491">
        <ele>1239.76</ele>
        <time>2017-03-19T13:44:25Z</time>
      </trkpt>
      <trkpt lat="44.27745" lon="6.07481">
        <ele>1238.32</ele>
        <time>2017-03-19T13:44:33Z</time>
      </trkpt>
      <trkpt lat="44.27747" lon="6.07476">
        <ele>1237.35</ele>
        <time>2017-03-19T13:44:37Z</time>
      </trkpt>
      <trkpt lat="44.27761" lon="6.07438">
        <ele>1234.95</ele>
        <time>2017-03-19T13:45:01Z</time>
      </trkpt>
      <trkpt lat="44.27768" lon="6.07413">
        <ele>1231.59</ele>
        <time>2017-03-19T13:45:18Z</time>
      </trkpt>
      <trkpt lat="44.27771" lon="6.07383">
        <ele>1229.66</ele>
        <time>2017-03-19T13:45:37Z</time>
      </trkpt>
      <trkpt lat="44.27771" lon="6.07355">
        <ele>1226.3</ele>
        <time>2017-03-19T13:45:54Z</time>
      </trkpt>
      <trkpt lat="44.2777" lon="6.07336">
        <ele>1225.34</ele>
        <time>2017-03-19T13:46:08Z</time>
      </trkpt>
      <trkpt lat="44.27767" lon="6.07304">
        <ele>1222.93</ele>
        <time>2017-03-19T13:46:30Z</time>
      </trkpt>
      <trkpt lat="44.27774" lon="6.07277">
        <ele>1220.05</ele>
        <time>2017-03-19T13:46:48Z</time>
      </trkpt>
      <trkpt lat="44.27778" lon="6.07249">
        <ele>1217.17</ele>
        <time>2017-03-19T13:47:06Z</time>
      </trkpt>
      <trkpt lat="44.27776" lon="6.07219">
        <ele>1215.24</ele>
        <time>2017-03-19T13:47:25Z</time>
      </trkpt>
      <trkpt lat="44.27759" lon="6.07206">
        <ele>1213.8</ele>
        <time>2017-03-19T13:47:42Z</time>
      </trkpt>
      <trkpt lat="44.27742" lon="6.07192">
        <ele>1211.4</ele>
        <time>2017-03-19T13:48:00Z</time>
      </trkpt>
      <trkpt lat="44.27735" lon="6.07159">
        <ele>1208.51</ele>
        <time>2017-03-19T13:48:21Z</time>
      </trkpt>
      <trkpt lat="44.27737" lon="6.07134">
        <ele>1205.63</ele>
        <time>2017-03-19T13:48:39Z</time>
      </trkpt>
      <trkpt lat="44.27736" lon="6.07133">
        <ele>1205.15</ele>
        <time>2017-03-19T13:48:40Z</time>
      </trkpt>
      <trkpt lat="44.2772" lon="6.07123">
        <ele>1202.75</ele>
        <time>2017-03-19T13:48:58Z</time>
      </trkpt>
      <trkpt lat="44.27716" lon="6.07111">
        <ele>1200.82</ele>
        <time>2017-03-19T13:49:12Z</time>
      </trkpt>
      <trkpt lat="44.27715" lon="6.07108">
        <ele>1200.34</ele>
        <time>2017-03-19T13:49:19Z</time>
      </trkpt>
      <trkpt lat="44.27714" lon="6.07072">
        <ele>1198.42</ele>
        <time>2017-03-19T13:49:42Z</time>
      </trkpt>
      <trkpt lat="44.27715" lon="6.07037">
        <ele>1196.98</ele>
        <time>2017-03-19T13:50:02Z</time>
      </trkpt>
      <trkpt lat="44.27716" lon="6.07">
        <ele>1195.06</ele>
        <time>2017-03-19T13:50:25Z</time>
      </trkpt>
      <trkpt lat="44.27712" lon="6.0697">
        <ele>1191.21</ele>
        <time>2017-03-19T13:50:44Z</time>
      </trkpt>
      <trkpt lat="44.27703" lon="6.06954">
        <ele>1190.25</ele>
        <time>2017-03-19T13:51:02Z</time>
      </trkpt>
      <trkpt lat="44.27704" lon="6.06955">
        <ele>1190.25</ele>
        <time>2017-03-19T13:51:18Z</time>
      </trkpt>
      <trkpt lat="44.27703" lon="6.06954">
        <ele>1190.25</ele>
        <time>2017-03-19T13:51:49Z</time>
      </trkpt>
      <trkpt lat="44.27702" lon="6.06957">
        <ele>1189.77</ele>
        <time>2017-03-19T13:52:32Z</time>
      </trkpt>
      <trkpt lat="44.27701" lon="6.06955">
        <ele>1188.81</ele>
        <time>2017-03-19T13:53:04Z</time>
      </trkpt>
      <trkpt lat="44.27702" lon="6.06956">
        <ele>1188.81</ele>
        <time>2017-03-19T13:53:36Z</time>
      </trkpt>
      <trkpt lat="44.27701" lon="6.06955">
        <ele>1188.81</ele>
        <time>2017-03-19T13:54:11Z</time>
      </trkpt>
      <trkpt lat="44.27703" lon="6.06954">
        <ele>1189.77</ele>
        <time>2017-03-19T13:54:45Z</time>
      </trkpt>
      <trkpt lat="44.27705" lon="6.06953">
        <ele>1187.85</ele>
        <time>2017-03-19T13:55:02Z</time>
      </trkpt>
      <trkpt lat="44.27705" lon="6.06954">
        <ele>1189.29</ele>
        <time>2017-03-19T13:55:07Z</time>
      </trkpt>
      <trkpt lat="44.27705" lon="6.06955">
        <ele>1187.85</ele>
        <time>2017-03-19T13:55:12Z</time>
      </trkpt>
      <trkpt lat="44.27701" lon="6.06955">
        <ele>1187.37</ele>
        <time>2017-03-19T13:55:31Z</time>
      </trkpt>
      <trkpt lat="44.27703" lon="6.06955">
        <ele>1187.37</ele>
        <time>2017-03-19T13:55:34Z</time>
      </trkpt>
      <trkpt lat="44.27724" lon="6.06947">
        <ele>1185.44</ele>
        <time>2017-03-19T13:55:46Z</time>
      </trkpt>
      <trkpt lat="44.27745" lon="6.06942">
        <ele>1182.08</ele>
        <time>2017-03-19T13:55:52Z</time>
      </trkpt>
      <trkpt lat="44.27767" lon="6.06964">
        <ele>1180.64</ele>
        <time>2017-03-19T13:56:01Z</time>
      </trkpt>
      <trkpt lat="44.27813" lon="6.0698">
        <ele>1178.23</ele>
        <time>2017-03-19T13:56:16Z</time>
      </trkpt>
      <trkpt lat="44.27838" lon="6.06994">
        <ele>1175.35</ele>
        <time>2017-03-19T13:56:29Z</time>
      </trkpt>
      <trkpt lat="44.27848" lon="6.07003">
        <ele>1172.95</ele>
        <time>2017-03-19T13:56:37Z</time>
      </trkpt>
      <trkpt lat="44.27849" lon="6.07002">
        <ele>1172.95</ele>
        <time>2017-03-19T13:56:38Z</time>
      </trkpt>
      <trkpt lat="44.27851" lon="6.07001">
        <ele>1172.47</ele>
        <time>2017-03-19T13:56:39Z</time>
      </trkpt>
      <trkpt lat="44.27852" lon="6.06999">
        <ele>1172.47</ele>
        <time>2017-03-19T13:56:40Z</time>
      </trkpt>
      <trkpt lat="44.27853" lon="6.06998">
        <ele>1171.98</ele>
        <time>2017-03-19T13:56:41Z</time>
      </trkpt>
      <trkpt lat="44.27854" lon="6.06996">
        <ele>1171.5</ele>
        <time>2017-03-19T13:56:42Z</time>
      </trkpt>
      <trkpt lat="44.2786" lon="6.06973">
        <ele>1168.14</ele>
        <time>2017-03-19T13:56:52Z</time>
      </trkpt>
      <trkpt lat="44.27864" lon="6.0694">
        <ele>1164.77</ele>
        <time>2017-03-19T13:57:05Z</time>
      </trkpt>
      <trkpt lat="44.2788" lon="6.06894">
        <ele>1161.89</ele>
        <time>2017-03-19T13:57:20Z</time>
      </trkpt>
      <trkpt lat="44.2791" lon="6.0686">
        <ele>1158.53</ele>
        <time>2017-03-19T13:57:33Z</time>
      </trkpt>
      <trkpt lat="44.27925" lon="6.06855">
        <ele>1157.56</ele>
        <time>2017-03-19T13:57:38Z</time>
      </trkpt>
      <trkpt lat="44.27929" lon="6.06852">
        <ele>1157.56</ele>
        <time>2017-03-19T13:57:39Z</time>
      </trkpt>
      <trkpt lat="44.27933" lon="6.0685">
        <ele>1156.6</ele>
        <time>2017-03-19T13:57:40Z</time>
      </trkpt>
      <trkpt lat="44.27936" lon="6.06846">
        <ele>1156.6</ele>
        <time>2017-03-19T13:57:41Z</time>
      </trkpt>
      <trkpt lat="44.27939" lon="6.06842">
        <ele>1156.12</ele>
        <time>2017-03-19T13:57:42Z</time>
      </trkpt>
      <trkpt lat="44.27943" lon="6.06837">
        <ele>1155.16</ele>
        <time>2017-03-19T13:57:43Z</time>
      </trkpt>
      <trkpt lat="44.27946" lon="6.06832">
        <ele>1154.2</ele>
        <time>2017-03-19T13:57:44Z</time>
      </trkpt>
      <trkpt lat="44.27948" lon="6.06826">
        <ele>1153.24</ele>
        <time>2017-03-19T13:57:45Z</time>
      </trkpt>
      <trkpt lat="44.2795" lon="6.06819">
        <ele>1152.28</ele>
        <time>2017-03-19T13:57:46Z</time>
      </trkpt>
      <trkpt lat="44.27951" lon="6.06812">
        <ele>1150.84</ele>
        <time>2017-03-19T13:57:47Z</time>
      </trkpt>
      <trkpt lat="44.27954" lon="6.06788">
        <ele>1147.47</ele>
        <time>2017-03-19T13:57:50Z</time>
      </trkpt>
      <trkpt lat="44.27953" lon="6.06764">
        <ele>1144.11</ele>
        <time>2017-03-19T13:57:53Z</time>
      </trkpt>
      <trkpt lat="44.27953" lon="6.06757">
        <ele>1144.11</ele>
        <time>2017-03-19T13:57:54Z</time>
      </trkpt>
      <trkpt lat="44.27955" lon="6.06708">
        <ele>1143.14</ele>
        <time>2017-03-19T13:58:04Z</time>
      </trkpt>
      <trkpt lat="44.27954" lon="6.06706">
        <ele>1142.66</ele>
        <time>2017-03-19T13:58:05Z</time>
      </trkpt>
      <trkpt lat="44.27953" lon="6.06703">
        <ele>1144.11</ele>
        <time>2017-03-19T13:58:15Z</time>
      </trkpt>
      <trkpt lat="44.27952" lon="6.06703">
        <ele>1144.11</ele>
        <time>2017-03-19T13:58:38Z</time>
      </trkpt>
      <trkpt lat="44.27951" lon="6.06703">
        <ele>1144.11</ele>
        <time>2017-03-19T13:59:10Z</time>
      </trkpt>
      <trkpt lat="44.27951" lon="6.06703">
        <ele>1144.11</ele>
        <time>2017-03-19T13:59:22Z</time>
      </trkpt>
      <trkpt lat="44.27905" lon="6.06668">
        <ele>1139.3</ele>
        <time>2017-03-19T14:02:05Z</time>
      </trkpt>
      <trkpt lat="44.27905" lon="6.06668">
        <ele>1139.3</ele>
        <time>2017-03-19T14:02:06Z</time>
      </trkpt>
      <trkpt lat="44.27899" lon="6.06668">
        <ele>1139.78</ele>
        <time>2017-03-19T14:02:39Z</time>
      </trkpt>
      <trkpt lat="44.27902" lon="6.06667">
        <ele>1139.78</ele>
        <time>2017-03-19T14:03:03Z</time>
      </trkpt>
      <trkpt lat="44.27906" lon="6.06661">
        <ele>1137.86</ele>
        <time>2017-03-19T14:03:13Z</time>
      </trkpt>
    </trkseg>
  </trk>
</gpx>